Check out our new PWSWeather beta!
PWSweather.com
Personal Weather Stations
Station Observations
SSSVT
Soukromá Střední škola Výpočetní Techniky, Prague 9CZ 190 00

Soukromá Střední škola Výpočetní TechnikyPrague 9CZ 190 00

Lat: 50.11902, Lon: 14.491065

Elevation: 1007

Station Type: Davis Vantage Pro 2

https://www.sssvt.cz/informace/pocasi/

High Low Average
Temperature 36.7°F2.6°C 29.6°F-1.3°C 33.1°F0.6°C
Dew Point 34.0°F1.1°C 25.2°F-3.8°C 28.7°F-1.8°C
Winds 9.6 mph 15.4 kmh Calm Calm 3.0 mph ESE4.8 kmh ESE
Wind Gusts 16.0 mph25.7 kmh -- 8.0 mph12.9 kmh
Humidity 90% 75% 84%
Pressure 29.52 in999.7 mb 29.30 in992.2 mb -
Precipitation 0.00 in0.0 mm - -
Hour Temp Dew Point Humidity Winds Wind Gusts Pressure Precip Precip Rate Daily Precip Total
12:00 AM 30.6°F-0.8°C 25.8°F-3.4°C 82% 6.3 mph SE10.1 kmh SE 9.0 mph14.5 kmh 29.54 in1000.3 mb 0.00 in0.0 mm 0.00 in0.0 mm 0.00 in0.0 mm
12:01 AM 30.6°F-0.8°C 25.8°F-3.4°C 82% 6.2 mph SE10.0 kmh SE 9.0 mph14.5 kmh 29.53 in1000.0 mb 0.00 in0.0 mm 0.00 in0.0 mm 0.00 in0.0 mm
12:02 AM 30.6°F-0.8°C 25.8°F-3.4°C 82% 2.1 mph SE3.4 kmh SE 8.0 mph12.9 kmh 29.54 in1000.3 mb 0.00 in0.0 mm 0.00 in0.0 mm 0.00 in0.0 mm
12:03 AM 30.6°F-0.8°C 25.8°F-3.4°C 82% 4.3 mph SE6.9 kmh SE 8.0 mph12.9 kmh 29.54 in1000.3 mb 0.00 in0.0 mm 0.00 in0.0 mm 0.00 in0.0 mm
12:04 AM 30.6°F-0.8°C 25.8°F-3.4°C 82% 1.0 mph SE1.6 kmh SE 3.0 mph4.8 kmh 29.54 in1000.3 mb 0.00 in0.0 mm 0.00 in0.0 mm 0.00 in0.0 mm
12:05 AM 30.6°F-0.8°C 25.8°F-3.4°C 82% 6.8 mph SE10.9 kmh SE 8.0 mph12.9 kmh 29.54 in1000.3 mb 0.00 in0.0 mm 0.00 in0.0 mm 0.00 in0.0 mm
12:06 AM 30.6°F-0.8°C 25.8°F-3.4°C 82% 2.9 mph SE4.7 kmh SE 8.0 mph12.9 kmh 29.54 in1000.3 mb 0.00 in0.0 mm 0.00 in0.0 mm 0.00 in0.0 mm
12:07 AM 30.6°F-0.8°C 25.8°F-3.4°C 82% 3.6 mph SE5.8 kmh SE 8.0 mph12.9 kmh 29.54 in1000.3 mb 0.00 in0.0 mm 0.00 in0.0 mm 0.00 in0.0 mm
12:08 AM 30.6°F-0.8°C 25.8°F-3.4°C 82% 5.5 mph SE8.9 kmh SE 10.0 mph16.1 kmh 29.54 in1000.3 mb 0.00 in0.0 mm 0.00 in0.0 mm 0.00 in0.0 mm
12:09 AM 30.6°F-0.8°C 25.8°F-3.4°C 82% 7.2 mph SE11.6 kmh SE 11.0 mph17.7 kmh 29.54 in1000.3 mb 0.00 in0.0 mm 0.00 in0.0 mm 0.00 in0.0 mm
12:10 AM 30.6°F-0.8°C 25.8°F-3.4°C 82% 5.6 mph SE9.0 kmh SE 11.0 mph17.7 kmh 29.53 in1000.0 mb 0.00 in0.0 mm 0.00 in0.0 mm 0.00 in0.0 mm
12:11 AM 30.6°F-0.8°C 25.8°F-3.4°C 82% 4.5 mph SE7.2 kmh SE 9.0 mph14.5 kmh 29.53 in1000.0 mb 0.00 in0.0 mm 0.00 in0.0 mm 0.00 in0.0 mm
12:12 AM 30.6°F-0.8°C 25.8°F-3.4°C 82% 5.7 mph SE9.2 kmh SE 9.0 mph14.5 kmh 29.54 in1000.3 mb 0.00 in0.0 mm 0.00 in0.0 mm 0.00 in0.0 mm
12:13 AM 30.6°F-0.8°C 25.8°F-3.4°C 82% 4.2 mph SE6.8 kmh SE 9.0 mph14.5 kmh 29.54 in1000.3 mb 0.00 in0.0 mm 0.00 in0.0 mm 0.00 in0.0 mm
12:14 AM 30.6°F-0.8°C 25.8°F-3.4°C 82% 5.1 mph SE8.2 kmh SE 8.0 mph12.9 kmh 29.54 in1000.3 mb 0.00 in0.0 mm 0.00 in0.0 mm 0.00 in0.0 mm
12:15 AM 30.6°F-0.8°C 25.8°F-3.4°C 82% 3.1 mph SE5.0 kmh SE 8.0 mph12.9 kmh 29.53 in1000.0 mb 0.00 in0.0 mm 0.00 in0.0 mm 0.00 in0.0 mm
12:16 AM 30.6°F-0.8°C 25.8°F-3.4°C 82% 3.7 mph SE6.0 kmh SE 7.0 mph11.3 kmh 29.53 in1000.0 mb 0.00 in0.0 mm 0.00 in0.0 mm 0.00 in0.0 mm
12:17 AM 30.6°F-0.8°C 25.8°F-3.4°C 82% 2.3 mph SE3.7 kmh SE 7.0 mph11.3 kmh 29.53 in1000.0 mb 0.00 in0.0 mm 0.00 in0.0 mm 0.00 in0.0 mm
12:18 AM 30.6°F-0.8°C 25.8°F-3.4°C 82% 2.0 mph SE3.2 kmh SE 5.0 mph8.0 kmh 29.53 in1000.0 mb 0.00 in0.0 mm 0.00 in0.0 mm 0.00 in0.0 mm
12:19 AM 30.6°F-0.8°C 25.8°F-3.4°C 82% 1.6 mph SE2.6 kmh SE 4.0 mph6.4 kmh 29.53 in1000.0 mb 0.00 in0.0 mm 0.00 in0.0 mm 0.00 in0.0 mm
12:20 AM 30.6°F-0.8°C 25.8°F-3.4°C 82% 2.2 mph SE3.5 kmh SE 4.0 mph6.4 kmh 29.53 in1000.0 mb 0.00 in0.0 mm 0.00 in0.0 mm 0.00 in0.0 mm
12:21 AM 30.6°F-0.8°C 25.8°F-3.4°C 82% 3.2 mph SE5.1 kmh SE 7.0 mph11.3 kmh 29.53 in1000.0 mb 0.00 in0.0 mm 0.00 in0.0 mm 0.00 in0.0 mm
12:22 AM 30.6°F-0.8°C 25.8°F-3.4°C 82% 4.4 mph SE7.1 kmh SE 8.0 mph12.9 kmh 29.53 in1000.0 mb 0.00 in0.0 mm 0.00 in0.0 mm 0.00 in0.0 mm
12:23 AM 30.6°F-0.8°C 25.8°F-3.4°C 82% 5.6 mph SE9.0 kmh SE 8.0 mph12.9 kmh 29.53 in1000.0 mb 0.00 in0.0 mm 0.00 in0.0 mm 0.00 in0.0 mm
12:24 AM 30.6°F-0.8°C 25.8°F-3.4°C 82% 3.3 mph SE5.3 kmh SE 8.0 mph12.9 kmh 29.53 in1000.0 mb 0.00 in0.0 mm 0.00 in0.0 mm 0.00 in0.0 mm
12:25 AM 30.5°F-0.8°C 25.7°F-3.5°C 82% 2.2 mph SE3.5 kmh SE 5.0 mph8.0 kmh 29.53 in1000.0 mb 0.00 in0.0 mm 0.00 in0.0 mm 0.00 in0.0 mm
12:26 AM 30.6°F-0.8°C 25.8°F-3.4°C 82% 1.0 mph SE1.6 kmh SE 4.0 mph6.4 kmh 29.53 in1000.0 mb 0.00 in0.0 mm 0.00 in0.0 mm 0.00 in0.0 mm
12:27 AM 30.5°F-0.8°C 25.7°F-3.5°C 82% 1.3 mph SE2.1 kmh SE 4.0 mph6.4 kmh 29.53 in1000.0 mb 0.00 in0.0 mm 0.00 in0.0 mm 0.00 in0.0 mm
12:28 AM 30.5°F-0.8°C 25.7°F-3.5°C 82% 2.0 mph SE3.2 kmh SE 7.0 mph11.3 kmh 29.53 in1000.0 mb 0.00 in0.0 mm 0.00 in0.0 mm 0.00 in0.0 mm
12:29 AM 30.5°F-0.8°C 25.7°F-3.5°C 82% 5.6 mph SE9.0 kmh SE 8.0 mph12.9 kmh 29.53 in1000.0 mb 0.00 in0.0 mm 0.00 in0.0 mm 0.00 in0.0 mm
12:30 AM 30.5°F-0.8°C 25.7°F-3.5°C 82% 4.5 mph SE7.2 kmh SE 8.0 mph12.9 kmh 29.53 in1000.0 mb 0.00 in0.0 mm 0.00 in0.0 mm 0.00 in0.0 mm
12:31 AM 30.5°F-0.8°C 25.7°F-3.5°C 82% 0.3 mph SE0.5 kmh SE 7.0 mph11.3 kmh 29.53 in1000.0 mb 0.00 in0.0 mm 0.00 in0.0 mm 0.00 in0.0 mm
12:32 AM 30.5°F-0.8°C 25.7°F-3.5°C 82% Calm Calm 2.0 mph3.2 kmh 29.53 in1000.0 mb 0.00 in0.0 mm 0.00 in0.0 mm 0.00 in0.0 mm
12:33 AM 30.5°F-0.8°C 25.7°F-3.5°C 82% Calm Calm -- 29.53 in1000.0 mb 0.00 in0.0 mm 0.00 in0.0 mm 0.00 in0.0 mm
12:34 AM 30.5°F-0.8°C 25.7°F-3.5°C 82% Calm Calm -- 29.53 in1000.0 mb 0.00 in0.0 mm 0.00 in0.0 mm 0.00 in0.0 mm
12:35 AM 30.5°F-0.8°C 25.7°F-3.5°C 82% 1.7 mph SE2.7 kmh SE 4.0 mph6.4 kmh 29.53 in1000.0 mb 0.00 in0.0 mm 0.00 in0.0 mm 0.00 in0.0 mm
12:36 AM 30.5°F-0.8°C 25.7°F-3.5°C 82% 2.6 mph SE4.2 kmh SE 4.0 mph6.4 kmh 29.53 in1000.0 mb 0.00 in0.0 mm 0.00 in0.0 mm 0.00 in0.0 mm
12:37 AM 30.5°F-0.8°C 25.7°F-3.5°C 82% 3.2 mph SE5.1 kmh SE 5.0 mph8.0 kmh 29.52 in999.7 mb 0.00 in0.0 mm 0.00 in0.0 mm 0.00 in0.0 mm
12:38 AM 30.5°F-0.8°C 25.7°F-3.5°C 82% 0.6 mph SE1.0 kmh SE 5.0 mph8.0 kmh 29.52 in999.7 mb 0.00 in0.0 mm 0.00 in0.0 mm 0.00 in0.0 mm
12:39 AM 30.5°F-0.8°C 25.7°F-3.5°C 82% 0.4 mph SE0.6 kmh SE 4.0 mph6.4 kmh 29.52 in999.7 mb 0.00 in0.0 mm 0.00 in0.0 mm 0.00 in0.0 mm
12:40 AM 30.4°F-0.9°C 25.6°F-3.6°C 82% 3.9 mph SE6.3 kmh SE 10.0 mph16.1 kmh 29.52 in999.7 mb 0.00 in0.0 mm 0.00 in0.0 mm 0.00 in0.0 mm
12:41 AM 30.4°F-0.9°C 25.9°F-3.4°C 83% 1.6 mph SE2.6 kmh SE 10.0 mph16.1 kmh 29.52 in999.7 mb 0.00 in0.0 mm 0.00 in0.0 mm 0.00 in0.0 mm
12:42 AM 30.4°F-0.9°C 25.9°F-3.4°C 83% 2.3 mph SE3.7 kmh SE 7.0 mph11.3 kmh 29.52 in999.7 mb 0.00 in0.0 mm 0.00 in0.0 mm 0.00 in0.0 mm
12:43 AM 30.4°F-0.9°C 25.9°F-3.4°C 83% 2.3 mph SE3.7 kmh SE 7.0 mph11.3 kmh 29.52 in999.7 mb 0.00 in0.0 mm 0.00 in0.0 mm 0.00 in0.0 mm
12:44 AM 30.4°F-0.9°C 25.9°F-3.4°C 83% 0.2 mph SE0.3 kmh SE 5.0 mph8.0 kmh 29.53 in1000.0 mb 0.00 in0.0 mm 0.00 in0.0 mm 0.00 in0.0 mm
12:45 AM 30.3°F-0.9°C 25.8°F-3.4°C 83% 2.7 mph SE4.3 kmh SE 5.0 mph8.0 kmh 29.52 in999.7 mb 0.00 in0.0 mm 0.00 in0.0 mm 0.00 in0.0 mm
12:46 AM 30.4°F-0.9°C 25.9°F-3.4°C 83% 2.7 mph SE4.3 kmh SE 5.0 mph8.0 kmh 29.52 in999.7 mb 0.00 in0.0 mm 0.00 in0.0 mm 0.00 in0.0 mm
12:47 AM 30.3°F-0.9°C 25.8°F-3.4°C 83% 0.4 mph SE0.6 kmh SE 4.0 mph6.4 kmh 29.52 in999.7 mb 0.00 in0.0 mm 0.00 in0.0 mm 0.00 in0.0 mm
12:48 AM 30.3°F-0.9°C 25.8°F-3.4°C 83% 0.6 mph SE1.0 kmh SE 4.0 mph6.4 kmh 29.52 in999.7 mb 0.00 in0.0 mm 0.00 in0.0 mm 0.00 in0.0 mm
12:49 AM 30.3°F-0.9°C 25.8°F-3.4°C 83% 4.1 mph SE6.6 kmh SE 7.0 mph11.3 kmh 29.52 in999.7 mb 0.00 in0.0 mm 0.00 in0.0 mm 0.00 in0.0 mm
12:50 AM 30.3°F-0.9°C 25.8°F-3.4°C 83% 3.3 mph SE5.3 kmh SE 7.0 mph11.3 kmh 29.52 in999.7 mb 0.00 in0.0 mm 0.00 in0.0 mm 0.00 in0.0 mm
12:51 AM 30.3°F-0.9°C 25.8°F-3.4°C 83% 1.9 mph SE3.1 kmh SE 5.0 mph8.0 kmh 29.52 in999.7 mb 0.00 in0.0 mm 0.00 in0.0 mm 0.00 in0.0 mm
12:52 AM 30.3°F-0.9°C 25.8°F-3.4°C 83% 0.7 mph SE1.1 kmh SE 5.0 mph8.0 kmh 29.52 in999.7 mb 0.00 in0.0 mm 0.00 in0.0 mm 0.00 in0.0 mm
12:53 AM 30.3°F-0.9°C 25.8°F-3.4°C 83% 6.3 mph SE10.1 kmh SE 10.0 mph16.1 kmh 29.52 in999.7 mb 0.00 in0.0 mm 0.00 in0.0 mm 0.00 in0.0 mm
12:54 AM 30.3°F-0.9°C 25.8°F-3.4°C 83% 5.1 mph SE8.2 kmh SE 10.0 mph16.1 kmh 29.52 in999.7 mb 0.00 in0.0 mm 0.00 in0.0 mm 0.00 in0.0 mm
12:55 AM 30.3°F-0.9°C 25.8°F-3.4°C 83% 2.7 mph SE4.3 kmh SE 8.0 mph12.9 kmh 29.52 in999.7 mb 0.00 in0.0 mm 0.00 in0.0 mm 0.00 in0.0 mm
12:56 AM 30.3°F-0.9°C 25.8°F-3.4°C 83% 4.4 mph SE7.1 kmh SE 10.0 mph16.1 kmh 29.52 in999.7 mb 0.00 in0.0 mm 0.00 in0.0 mm 0.00 in0.0 mm
12:57 AM 30.3°F-0.9°C 25.8°F-3.4°C 83% 3.3 mph SE5.3 kmh SE 10.0 mph16.1 kmh 29.52 in999.7 mb 0.00 in0.0 mm 0.00 in0.0 mm 0.00 in0.0 mm
12:58 AM 30.3°F-0.9°C 25.8°F-3.4°C 83% 4.3 mph SE6.9 kmh SE 7.0 mph11.3 kmh 29.52 in999.7 mb 0.00 in0.0 mm 0.00 in0.0 mm 0.00 in0.0 mm
12:59 AM 30.3°F-0.9°C 25.8°F-3.4°C 83% 6.2 mph SE10.0 kmh SE 10.0 mph16.1 kmh 29.52 in999.7 mb 0.00 in0.0 mm 0.00 in0.0 mm 0.00 in0.0 mm
01:00 AM 30.3°F-0.9°C 25.8°F-3.4°C 83% 3.8 mph SE6.1 kmh SE 10.0 mph16.1 kmh 29.52 in999.7 mb 0.00 in0.0 mm 0.00 in0.0 mm 0.00 in0.0 mm
01:01 AM 30.3°F-0.9°C 25.8°F-3.4°C 83% 4.2 mph SE6.8 kmh SE 7.0 mph11.3 kmh 29.52 in999.7 mb 0.00 in0.0 mm 0.00 in0.0 mm 0.00 in0.0 mm
01:02 AM 30.3°F-0.9°C 25.8°F-3.4°C 83% 1.9 mph SE3.1 kmh SE 7.0 mph11.3 kmh 29.52 in999.7 mb 0.00 in0.0 mm 0.00 in0.0 mm 0.00 in0.0 mm
01:03 AM 30.3°F-0.9°C 25.8°F-3.4°C 83% 1.8 mph SE2.9 kmh SE 5.0 mph8.0 kmh 29.52 in999.7 mb 0.00 in0.0 mm 0.00 in0.0 mm 0.00 in0.0 mm
01:04 AM 30.3°F-0.9°C 25.8°F-3.4°C 83% 4.1 mph SE6.6 kmh SE 7.0 mph11.3 kmh 29.52 in999.7 mb 0.00 in0.0 mm 0.00 in0.0 mm 0.00 in0.0 mm
01:05 AM 30.3°F-0.9°C 25.8°F-3.4°C 83% 3.1 mph SE5.0 kmh SE 7.0 mph11.3 kmh 29.52 in999.7 mb 0.00 in0.0 mm 0.00 in0.0 mm 0.00 in0.0 mm
01:06 AM 30.3°F-0.9°C 25.8°F-3.4°C 83% Calm Calm 5.0 mph8.0 kmh 29.52 in999.7 mb 0.00 in0.0 mm 0.00 in0.0 mm 0.00 in0.0 mm
01:07 AM 30.3°F-0.9°C 25.8°F-3.4°C 83% 0.2 mph SE0.3 kmh SE 3.0 mph4.8 kmh 29.52 in999.7 mb 0.00 in0.0 mm 0.00 in0.0 mm 0.00 in0.0 mm
01:08 AM 30.3°F-0.9°C 25.8°F-3.4°C 83% 2.9 mph SE4.7 kmh SE 4.0 mph6.4 kmh 29.52 in999.7 mb 0.00 in0.0 mm 0.00 in0.0 mm 0.00 in0.0 mm
01:09 AM 30.3°F-0.9°C 25.8°F-3.4°C 83% 2.2 mph SE3.5 kmh SE 4.0 mph6.4 kmh 29.52 in999.7 mb 0.00 in0.0 mm 0.00 in0.0 mm 0.00 in0.0 mm
01:10 AM 30.3°F-0.9°C 25.8°F-3.4°C 83% Calm Calm 4.0 mph6.4 kmh 29.52 in999.7 mb 0.00 in0.0 mm 0.00 in0.0 mm 0.00 in0.0 mm
01:11 AM 30.3°F-0.9°C 25.8°F-3.4°C 83% 0.7 mph SE1.1 kmh SE 3.0 mph4.8 kmh 29.52 in999.7 mb 0.00 in0.0 mm 0.00 in0.0 mm 0.00 in0.0 mm
01:12 AM 30.2°F-1.0°C 25.7°F-3.5°C 83% Calm Calm 3.0 mph4.8 kmh 29.52 in999.7 mb 0.00 in0.0 mm 0.00 in0.0 mm 0.00 in0.0 mm
01:13 AM 30.3°F-0.9°C 25.8°F-3.4°C 83% 0.8 mph SE1.3 kmh SE 3.0 mph4.8 kmh 29.52 in999.7 mb 0.00 in0.0 mm 0.00 in0.0 mm 0.00 in0.0 mm
01:14 AM 30.2°F-1.0°C 25.7°F-3.5°C 83% 1.4 mph SE2.3 kmh SE 4.0 mph6.4 kmh 29.52 in999.7 mb 0.00 in0.0 mm 0.00 in0.0 mm 0.00 in0.0 mm
01:15 AM 30.2°F-1.0°C 25.7°F-3.5°C 83% 0.8 mph SE1.3 kmh SE 4.0 mph6.4 kmh 29.52 in999.7 mb 0.00 in0.0 mm 0.00 in0.0 mm 0.00 in0.0 mm
01:16 AM 30.2°F-1.0°C 25.7°F-3.5°C 83% 3.4 mph SE5.5 kmh SE 8.0 mph12.9 kmh 29.52 in999.7 mb 0.00 in0.0 mm 0.00 in0.0 mm 0.00 in0.0 mm
01:17 AM 30.2°F-1.0°C 25.7°F-3.5°C 83% 1.6 mph SE2.6 kmh SE 8.0 mph12.9 kmh 29.52 in999.7 mb 0.00 in0.0 mm 0.00 in0.0 mm 0.00 in0.0 mm
01:18 AM 30.2°F-1.0°C 25.7°F-3.5°C 83% 1.0 mph SE1.6 kmh SE 5.0 mph8.0 kmh 29.52 in999.7 mb 0.00 in0.0 mm 0.00 in0.0 mm 0.00 in0.0 mm
01:19 AM 30.2°F-1.0°C 25.7°F-3.5°C 83% 0.3 mph SE0.5 kmh SE 2.0 mph3.2 kmh 29.52 in999.7 mb 0.00 in0.0 mm 0.00 in0.0 mm 0.00 in0.0 mm
01:20 AM 30.2°F-1.0°C 25.7°F-3.5°C 83% Calm Calm 2.0 mph3.2 kmh 29.52 in999.7 mb 0.00 in0.0 mm 0.00 in0.0 mm 0.00 in0.0 mm
01:21 AM 30.2°F-1.0°C 25.7°F-3.5°C 83% Calm Calm -- 29.52 in999.7 mb 0.00 in0.0 mm 0.00 in0.0 mm 0.00 in0.0 mm
01:22 AM 30.2°F-1.0°C 25.7°F-3.5°C 83% Calm Calm -- 29.52 in999.7 mb 0.00 in0.0 mm 0.00 in0.0 mm 0.00 in0.0 mm
01:23 AM 30.1°F-1.1°C 25.6°F-3.6°C 83% Calm Calm -- 29.52 in999.7 mb 0.00 in0.0 mm 0.00 in0.0 mm 0.00 in0.0 mm
01:24 AM 30.1°F-1.1°C 25.6°F-3.6°C 83% 0.9 mph SE1.4 kmh SE 5.0 mph8.0 kmh 29.52 in999.7 mb 0.00 in0.0 mm 0.00 in0.0 mm 0.00 in0.0 mm
01:25 AM 30.1°F-1.1°C 25.6°F-3.6°C 83% 3.1 mph SE5.0 kmh SE 8.0 mph12.9 kmh 29.52 in999.7 mb 0.00 in0.0 mm 0.00 in0.0 mm 0.00 in0.0 mm
01:26 AM 30.1°F-1.1°C 25.6°F-3.6°C 83% 2.0 mph SE3.2 kmh SE 8.0 mph12.9 kmh 29.52 in999.7 mb 0.00 in0.0 mm 0.00 in0.0 mm 0.00 in0.0 mm
01:27 AM 30.1°F-1.1°C 25.6°F-3.6°C 83% 2.1 mph SE3.4 kmh SE 7.0 mph11.3 kmh 29.52 in999.7 mb 0.00 in0.0 mm 0.00 in0.0 mm 0.00 in0.0 mm
01:28 AM 30.1°F-1.1°C 25.6°F-3.6°C 83% 2.0 mph SE3.2 kmh SE 8.0 mph12.9 kmh 29.52 in999.7 mb 0.00 in0.0 mm 0.00 in0.0 mm 0.00 in0.0 mm
01:29 AM 30.1°F-1.1°C 25.6°F-3.6°C 83% 4.9 mph SE7.9 kmh SE 8.0 mph12.9 kmh 29.52 in999.7 mb 0.00 in0.0 mm 0.00 in0.0 mm 0.00 in0.0 mm
01:30 AM 30.1°F-1.1°C 25.6°F-3.6°C 83% 1.5 mph SE2.4 kmh SE 8.0 mph12.9 kmh 29.52 in999.7 mb 0.00 in0.0 mm 0.00 in0.0 mm 0.00 in0.0 mm
01:31 AM 30.1°F-1.1°C 25.6°F-3.6°C 83% 4.6 mph SE7.4 kmh SE 9.0 mph14.5 kmh 29.52 in999.7 mb 0.00 in0.0 mm 0.00 in0.0 mm 0.00 in0.0 mm
01:32 AM 30.1°F-1.1°C 25.6°F-3.6°C 83% 1.4 mph SE2.3 kmh SE 9.0 mph14.5 kmh 29.52 in999.7 mb 0.00 in0.0 mm 0.00 in0.0 mm 0.00 in0.0 mm
01:33 AM 30.1°F-1.1°C 25.9°F-3.4°C 84% 0.8 mph SE1.3 kmh SE 5.0 mph8.0 kmh 29.52 in999.7 mb 0.00 in0.0 mm 0.00 in0.0 mm 0.00 in0.0 mm
01:34 AM 30.0°F-1.1°C 25.8°F-3.4°C 84% 3.9 mph SE6.3 kmh SE 8.0 mph12.9 kmh 29.52 in999.7 mb 0.00 in0.0 mm 0.00 in0.0 mm 0.00 in0.0 mm
01:35 AM 30.0°F-1.1°C 25.8°F-3.4°C 84% 4.7 mph SE7.6 kmh SE 8.0 mph12.9 kmh 29.52 in999.7 mb 0.00 in0.0 mm 0.00 in0.0 mm 0.00 in0.0 mm
01:36 AM 30.0°F-1.1°C 25.8°F-3.4°C 84% 2.8 mph SE4.5 kmh SE 10.0 mph16.1 kmh 29.52 in999.7 mb 0.00 in0.0 mm 0.00 in0.0 mm 0.00 in0.0 mm
01:37 AM 30.0°F-1.1°C 25.8°F-3.4°C 84% 6.3 mph SE10.1 kmh SE 12.0 mph19.3 kmh 29.52 in999.7 mb 0.00 in0.0 mm 0.00 in0.0 mm 0.00 in0.0 mm
01:38 AM 30.0°F-1.1°C 25.8°F-3.4°C 84% 4.6 mph SE7.4 kmh SE 12.0 mph19.3 kmh 29.52 in999.7 mb 0.00 in0.0 mm 0.00 in0.0 mm 0.00 in0.0 mm
01:39 AM 30.1°F-1.1°C 25.9°F-3.4°C 84% 5.0 mph SE8.0 kmh SE 10.0 mph16.1 kmh 29.52 in999.7 mb 0.00 in0.0 mm 0.00 in0.0 mm 0.00 in0.0 mm
01:40 AM 30.1°F-1.1°C 25.9°F-3.4°C 84% 2.0 mph SE3.2 kmh SE 10.0 mph16.1 kmh 29.52 in999.7 mb 0.00 in0.0 mm 0.00 in0.0 mm 0.00 in0.0 mm
01:41 AM 30.1°F-1.1°C 25.9°F-3.4°C 84% 2.5 mph SE4.0 kmh SE 5.0 mph8.0 kmh 29.52 in999.7 mb 0.00 in0.0 mm 0.00 in0.0 mm 0.00 in0.0 mm
01:42 AM 30.1°F-1.1°C 25.9°F-3.4°C 84% 2.1 mph SE3.4 kmh SE 5.0 mph8.0 kmh 29.52 in999.7 mb 0.00 in0.0 mm 0.00 in0.0 mm 0.00 in0.0 mm
01:43 AM 30.1°F-1.1°C 25.9°F-3.4°C 84% 3.1 mph SE5.0 kmh SE 7.0 mph11.3 kmh 29.52 in999.7 mb 0.00 in0.0 mm 0.00 in0.0 mm 0.00 in0.0 mm
01:44 AM 30.1°F-1.1°C 25.9°F-3.4°C 84% 2.0 mph SE3.2 kmh SE 10.0 mph16.1 kmh 29.52 in999.7 mb 0.00 in0.0 mm 0.00 in0.0 mm 0.00 in0.0 mm
01:45 AM 30.1°F-1.1°C 25.9°F-3.4°C 84% 5.9 mph SE9.5 kmh SE 10.0 mph16.1 kmh 29.52 in999.7 mb 0.00 in0.0 mm 0.00 in0.0 mm 0.00 in0.0 mm
01:46 AM 30.1°F-1.1°C 25.9°F-3.4°C 84% 1.6 mph SE2.6 kmh SE 10.0 mph16.1 kmh 29.52 in999.7 mb 0.00 in0.0 mm 0.00 in0.0 mm 0.00 in0.0 mm
01:47 AM 30.1°F-1.1°C 25.9°F-3.4°C 84% 1.7 mph SE2.7 kmh SE 5.0 mph8.0 kmh 29.52 in999.7 mb 0.00 in0.0 mm 0.00 in0.0 mm 0.00 in0.0 mm
01:48 AM 30.1°F-1.1°C 25.9°F-3.4°C 84% 1.6 mph SE2.6 kmh SE 5.0 mph8.0 kmh 29.52 in999.7 mb 0.00 in0.0 mm 0.00 in0.0 mm 0.00 in0.0 mm
01:49 AM 30.0°F-1.1°C 25.8°F-3.4°C 84% 3.9 mph SE6.3 kmh SE 9.0 mph14.5 kmh 29.52 in999.7 mb 0.00 in0.0 mm 0.00 in0.0 mm 0.00 in0.0 mm
01:50 AM 30.0°F-1.1°C 25.8°F-3.4°C 84% 2.1 mph SE3.4 kmh SE 9.0 mph14.5 kmh 29.51 in999.3 mb 0.00 in0.0 mm 0.00 in0.0 mm 0.00 in0.0 mm
01:51 AM 30.0°F-1.1°C 25.8°F-3.4°C 84% 2.0 mph SE3.2 kmh SE 8.0 mph12.9 kmh 29.51 in999.3 mb 0.00 in0.0 mm 0.00 in0.0 mm 0.00 in0.0 mm
01:52 AM 30.0°F-1.1°C 25.8°F-3.4°C 84% 2.9 mph SE4.7 kmh SE 7.0 mph11.3 kmh 29.51 in999.3 mb 0.00 in0.0 mm 0.00 in0.0 mm 0.00 in0.0 mm
01:53 AM 30.0°F-1.1°C 25.8°F-3.4°C 84% 3.2 mph SE5.1 kmh SE 9.0 mph14.5 kmh 29.51 in999.3 mb 0.00 in0.0 mm 0.00 in0.0 mm 0.00 in0.0 mm
01:54 AM 30.0°F-1.1°C 25.8°F-3.4°C 84% 7.1 mph SE11.4 kmh SE 11.0 mph17.7 kmh 29.51 in999.3 mb 0.00 in0.0 mm 0.00 in0.0 mm 0.00 in0.0 mm
01:55 AM 29.9°F-1.2°C 25.4°F-3.7°C 83% 7.0 mph SE11.3 kmh SE 11.0 mph17.7 kmh 29.51 in999.3 mb 0.00 in0.0 mm 0.00 in0.0 mm 0.00 in0.0 mm
01:56 AM 29.9°F-1.2°C 25.4°F-3.7°C 83% 7.4 mph SE11.9 kmh SE 12.0 mph19.3 kmh 29.51 in999.3 mb 0.00 in0.0 mm 0.00 in0.0 mm 0.00 in0.0 mm
01:57 AM 29.9°F-1.2°C 25.4°F-3.7°C 83% 7.9 mph SE12.7 kmh SE 12.0 mph19.3 kmh 29.51 in999.3 mb 0.00 in0.0 mm 0.00 in0.0 mm 0.00 in0.0 mm
01:58 AM 29.9°F-1.2°C 25.4°F-3.7°C 83% 1.6 mph SE2.6 kmh SE 12.0 mph19.3 kmh 29.51 in999.3 mb 0.00 in0.0 mm 0.00 in0.0 mm 0.00 in0.0 mm
01:59 AM 29.8°F-1.2°C 25.3°F-3.7°C 83% 5.6 mph SE9.0 kmh SE 13.0 mph20.9 kmh 29.51 in999.3 mb 0.00 in0.0 mm 0.00 in0.0 mm 0.00 in0.0 mm
02:00 AM 29.8°F-1.2°C 25.3°F-3.7°C 83% 1.0 mph SE1.6 kmh SE 13.0 mph20.9 kmh 29.51 in999.3 mb 0.00 in0.0 mm 0.00 in0.0 mm 0.00 in0.0 mm
02:01 AM 29.8°F-1.2°C 25.3°F-3.7°C 83% 2.3 mph SE3.7 kmh SE 7.0 mph11.3 kmh 29.51 in999.3 mb 0.00 in0.0 mm 0.00 in0.0 mm 0.00 in0.0 mm
02:02 AM 29.8°F-1.2°C 25.3°F-3.7°C 83% 5.7 mph SE9.2 kmh SE 10.0 mph16.1 kmh 29.51 in999.3 mb 0.00 in0.0 mm 0.00 in0.0 mm 0.00 in0.0 mm
02:03 AM 29.8°F-1.2°C 25.3°F-3.7°C 83% 3.8 mph SE6.1 kmh SE 10.0 mph16.1 kmh 29.51 in999.3 mb 0.00 in0.0 mm 0.00 in0.0 mm 0.00 in0.0 mm
02:04 AM 29.7°F-1.3°C 25.2°F-3.8°C 83% 2.4 mph SE3.9 kmh SE 8.0 mph12.9 kmh 29.51 in999.3 mb 0.00 in0.0 mm 0.00 in0.0 mm 0.00 in0.0 mm
02:05 AM 29.7°F-1.3°C 25.2°F-3.8°C 83% 4.6 mph SE7.4 kmh SE 10.0 mph16.1 kmh 29.51 in999.3 mb 0.00 in0.0 mm 0.00 in0.0 mm 0.00 in0.0 mm
02:06 AM 29.7°F-1.3°C 25.2°F-3.8°C 83% 3.0 mph SE4.8 kmh SE 10.0 mph16.1 kmh 29.51 in999.3 mb 0.00 in0.0 mm 0.00 in0.0 mm 0.00 in0.0 mm
02:07 AM 29.7°F-1.3°C 25.5°F-3.6°C 84% 1.0 mph SE1.6 kmh SE 9.0 mph14.5 kmh 29.51 in999.3 mb 0.00 in0.0 mm 0.00 in0.0 mm 0.00 in0.0 mm
02:08 AM 29.7°F-1.3°C 25.5°F-3.6°C 84% 5.8 mph SE9.3 kmh SE 10.0 mph16.1 kmh 29.51 in999.3 mb 0.00 in0.0 mm 0.00 in0.0 mm 0.00 in0.0 mm
02:09 AM 29.7°F-1.3°C 25.5°F-3.6°C 84% 5.5 mph SE8.9 kmh SE 10.0 mph16.1 kmh 29.51 in999.3 mb 0.00 in0.0 mm 0.00 in0.0 mm 0.00 in0.0 mm
02:10 AM 29.7°F-1.3°C 25.5°F-3.6°C 84% 3.4 mph SE5.5 kmh SE 10.0 mph16.1 kmh 29.51 in999.3 mb 0.00 in0.0 mm 0.00 in0.0 mm 0.00 in0.0 mm
02:11 AM 29.7°F-1.3°C 25.5°F-3.6°C 84% 2.5 mph SE4.0 kmh SE 8.0 mph12.9 kmh 29.51 in999.3 mb 0.00 in0.0 mm 0.00 in0.0 mm 0.00 in0.0 mm
02:12 AM 29.7°F-1.3°C 25.5°F-3.6°C 84% 1.3 mph SE2.1 kmh SE 5.0 mph8.0 kmh 29.51 in999.3 mb 0.00 in0.0 mm 0.00 in0.0 mm 0.00 in0.0 mm
02:13 AM 29.7°F-1.3°C 25.5°F-3.6°C 84% 2.5 mph SE4.0 kmh SE 5.0 mph8.0 kmh 29.51 in999.3 mb 0.00 in0.0 mm 0.00 in0.0 mm 0.00 in0.0 mm
02:14 AM 29.7°F-1.3°C 25.5°F-3.6°C 84% 3.3 mph SE5.3 kmh SE 8.0 mph12.9 kmh 29.51 in999.3 mb 0.00 in0.0 mm 0.00 in0.0 mm 0.00 in0.0 mm
02:15 AM 29.7°F-1.3°C 25.5°F-3.6°C 84% 5.2 mph SE8.4 kmh SE 10.0 mph16.1 kmh 29.51 in999.3 mb 0.00 in0.0 mm 0.00 in0.0 mm 0.00 in0.0 mm
02:16 AM 29.7°F-1.3°C 25.5°F-3.6°C 84% 4.1 mph SE6.6 kmh SE 10.0 mph16.1 kmh 29.51 in999.3 mb 0.00 in0.0 mm 0.00 in0.0 mm 0.00 in0.0 mm
02:17 AM 29.7°F-1.3°C 25.5°F-3.6°C 84% 4.3 mph SE6.9 kmh SE 7.0 mph11.3 kmh 29.51 in999.3 mb 0.00 in0.0 mm 0.00 in0.0 mm 0.00 in0.0 mm
02:18 AM 29.6°F-1.3°C 25.4°F-3.7°C 84% 7.1 mph SE11.4 kmh SE 12.0 mph19.3 kmh 29.51 in999.3 mb 0.00 in0.0 mm 0.00 in0.0 mm 0.00 in0.0 mm
02:19 AM 29.7°F-1.3°C 25.5°F-3.6°C 84% 6.1 mph SE9.8 kmh SE 12.0 mph19.3 kmh 29.51 in999.3 mb 0.00 in0.0 mm 0.00 in0.0 mm 0.00 in0.0 mm
02:20 AM 29.6°F-1.3°C 25.4°F-3.7°C 84% 1.4 mph SE2.3 kmh SE 9.0 mph14.5 kmh 29.51 in999.3 mb 0.00 in0.0 mm 0.00 in0.0 mm 0.00 in0.0 mm
02:21 AM 29.7°F-1.3°C 25.5°F-3.6°C 84% 1.6 mph SE2.6 kmh SE 7.0 mph11.3 kmh 29.51 in999.3 mb 0.00 in0.0 mm 0.00 in0.0 mm 0.00 in0.0 mm
02:22 AM 29.7°F-1.3°C 25.5°F-3.6°C 84% 5.0 mph SE8.0 kmh SE 8.0 mph12.9 kmh 29.51 in999.3 mb 0.00 in0.0 mm 0.00 in0.0 mm 0.00 in0.0 mm
02:23 AM 29.7°F-1.3°C 25.5°F-3.6°C 84% 2.5 mph SE4.0 kmh SE 8.0 mph12.9 kmh 29.51 in999.3 mb 0.00 in0.0 mm 0.00 in0.0 mm 0.00 in0.0 mm
02:24 AM 29.6°F-1.3°C 25.4°F-3.7°C 84% 4.1 mph SE6.6 kmh SE 9.0 mph14.5 kmh 29.51 in999.3 mb 0.00 in0.0 mm 0.00 in0.0 mm 0.00 in0.0 mm
02:25 AM 29.6°F-1.3°C 25.4°F-3.7°C 84% 5.1 mph SE8.2 kmh SE 9.0 mph14.5 kmh 29.51 in999.3 mb 0.00 in0.0 mm 0.00 in0.0 mm 0.00 in0.0 mm
02:26 AM 29.6°F-1.3°C 25.4°F-3.7°C 84% 6.5 mph SE10.5 kmh SE 10.0 mph16.1 kmh 29.51 in999.3 mb 0.00 in0.0 mm 0.00 in0.0 mm 0.00 in0.0 mm
02:27 AM 29.6°F-1.3°C 25.4°F-3.7°C 84% 7.5 mph SE12.1 kmh SE 11.0 mph17.7 kmh 29.51 in999.3 mb 0.00 in0.0 mm 0.00 in0.0 mm 0.00 in0.0 mm
02:28 AM 29.6°F-1.3°C 25.4°F-3.7°C 84% 7.7 mph SE12.4 kmh SE 11.0 mph17.7 kmh 29.51 in999.3 mb 0.00 in0.0 mm 0.00 in0.0 mm 0.00 in0.0 mm
02:29 AM 29.6°F-1.3°C 25.4°F-3.7°C 84% 4.0 mph SE6.4 kmh SE 10.0 mph16.1 kmh 29.51 in999.3 mb 0.00 in0.0 mm 0.00 in0.0 mm 0.00 in0.0 mm
02:30 AM 29.6°F-1.3°C 25.4°F-3.7°C 84% 5.3 mph SE8.5 kmh SE 9.0 mph14.5 kmh 29.51 in999.3 mb 0.00 in0.0 mm 0.00 in0.0 mm 0.00 in0.0 mm
02:31 AM 29.6°F-1.3°C 25.4°F-3.7°C 84% 2.8 mph SE4.5 kmh SE 8.0 mph12.9 kmh 29.51 in999.3 mb 0.00 in0.0 mm 0.00 in0.0 mm 0.00 in0.0 mm
02:32 AM 29.6°F-1.3°C 25.4°F-3.7°C 84% 1.5 mph SE2.4 kmh SE 7.0 mph11.3 kmh 29.51 in999.3 mb 0.00 in0.0 mm 0.00 in0.0 mm 0.00 in0.0 mm
02:33 AM 29.6°F-1.3°C 25.4°F-3.7°C 84% 3.7 mph SE6.0 kmh SE 7.0 mph11.3 kmh 29.51 in999.3 mb 0.00 in0.0 mm 0.00 in0.0 mm 0.00 in0.0 mm
02:34 AM 29.6°F-1.3°C 25.4°F-3.7°C 84% 5.5 mph SE8.9 kmh SE 8.0 mph12.9 kmh 29.51 in999.3 mb 0.00 in0.0 mm 0.00 in0.0 mm 0.00 in0.0 mm
02:35 AM 29.6°F-1.3°C 25.4°F-3.7°C 84% 4.9 mph SE7.9 kmh SE 8.0 mph12.9 kmh 29.51 in999.3 mb 0.00 in0.0 mm 0.00 in0.0 mm 0.00 in0.0 mm
02:36 AM 29.6°F-1.3°C 25.4°F-3.7°C 84% 3.6 mph SE5.8 kmh SE 8.0 mph12.9 kmh 29.51 in999.3 mb 0.00 in0.0 mm 0.00 in0.0 mm 0.00 in0.0 mm
02:37 AM 29.6°F-1.3°C 25.4°F-3.7°C 84% 2.5 mph SE4.0 kmh SE 8.0 mph12.9 kmh 29.51 in999.3 mb 0.00 in0.0 mm 0.00 in0.0 mm 0.00 in0.0 mm
02:38 AM 29.6°F-1.3°C 25.4°F-3.7°C 84% 2.4 mph SE3.9 kmh SE 8.0 mph12.9 kmh 29.51 in999.3 mb 0.00 in0.0 mm 0.00 in0.0 mm 0.00 in0.0 mm
02:39 AM 29.6°F-1.3°C 25.4°F-3.7°C 84% 3.1 mph SE5.0 kmh SE 7.0 mph11.3 kmh 29.51 in999.3 mb 0.00 in0.0 mm 0.00 in0.0 mm 0.00 in0.0 mm
02:40 AM 29.6°F-1.3°C 25.4°F-3.7°C 84% 3.7 mph SE6.0 kmh SE 9.0 mph14.5 kmh 29.51 in999.3 mb 0.00 in0.0 mm 0.00 in0.0 mm 0.00 in0.0 mm
02:41 AM 29.6°F-1.3°C 25.4°F-3.7°C 84% 3.2 mph SE5.1 kmh SE 9.0 mph14.5 kmh 29.51 in999.3 mb 0.00 in0.0 mm 0.00 in0.0 mm 0.00 in0.0 mm
02:42 AM 29.6°F-1.3°C 25.4°F-3.7°C 84% 1.9 mph SE3.1 kmh SE 7.0 mph11.3 kmh 29.51 in999.3 mb 0.00 in0.0 mm 0.00 in0.0 mm 0.00 in0.0 mm
02:43 AM 29.6°F-1.3°C 25.4°F-3.7°C 84% Calm Calm 5.0 mph8.0 kmh 29.51 in999.3 mb 0.00 in0.0 mm 0.00 in0.0 mm 0.00 in0.0 mm
02:44 AM 29.6°F-1.3°C 25.4°F-3.7°C 84% Calm Calm -- 29.51 in999.3 mb 0.00 in0.0 mm 0.00 in0.0 mm 0.00 in0.0 mm
02:45 AM 29.6°F-1.3°C 25.4°F-3.7°C 84% 1.8 mph SE2.9 kmh SE 3.0 mph4.8 kmh 29.51 in999.3 mb 0.00 in0.0 mm 0.00 in0.0 mm 0.00 in0.0 mm
02:46 AM 29.6°F-1.3°C 25.4°F-3.7°C 84% 0.2 mph SE0.3 kmh SE 3.0 mph4.8 kmh 29.51 in999.3 mb 0.00 in0.0 mm 0.00 in0.0 mm 0.00 in0.0 mm
02:47 AM 29.6°F-1.3°C 25.4°F-3.7°C 84% 0.4 mph SE0.6 kmh SE 2.0 mph3.2 kmh 29.51 in999.3 mb 0.00 in0.0 mm 0.00 in0.0 mm 0.00 in0.0 mm
02:48 AM 29.6°F-1.3°C 25.4°F-3.7°C 84% 1.4 mph SE2.3 kmh SE 3.0 mph4.8 kmh 29.51 in999.3 mb 0.00 in0.0 mm 0.00 in0.0 mm 0.00 in0.0 mm
02:49 AM 29.6°F-1.3°C 25.4°F-3.7°C 84% Calm Calm 3.0 mph4.8 kmh 29.51 in999.3 mb 0.00 in0.0 mm 0.00 in0.0 mm 0.00 in0.0 mm
02:50 AM 29.6°F-1.3°C 25.4°F-3.7°C 84% 1.3 mph SE2.1 kmh SE 3.0 mph4.8 kmh 29.51 in999.3 mb 0.00 in0.0 mm 0.00 in0.0 mm 0.00 in0.0 mm
02:51 AM 29.6°F-1.3°C 25.4°F-3.7°C 84% 2.4 mph SE3.9 kmh SE 4.0 mph6.4 kmh 29.51 in999.3 mb 0.00 in0.0 mm 0.00 in0.0 mm 0.00 in0.0 mm
02:52 AM 29.6°F-1.3°C 25.4°F-3.7°C 84% 0.4 mph SE0.6 kmh SE 4.0 mph6.4 kmh 29.51 in999.3 mb 0.00 in0.0 mm 0.00 in0.0 mm 0.00 in0.0 mm
02:53 AM 29.6°F-1.3°C 25.4°F-3.7°C 84% 0.1 mph SE0.2 kmh SE 2.0 mph3.2 kmh 29.51 in999.3 mb 0.00 in0.0 mm 0.00 in0.0 mm 0.00 in0.0 mm
02:54 AM 29.6°F-1.3°C 25.4°F-3.7°C 84% 2.1 mph SE3.4 kmh SE 4.0 mph6.4 kmh 29.51 in999.3 mb 0.00 in0.0 mm 0.00 in0.0 mm 0.00 in0.0 mm
02:55 AM 29.6°F-1.3°C 25.4°F-3.7°C 84% 1.5 mph SE2.4 kmh SE 5.0 mph8.0 kmh 29.51 in999.3 mb 0.00 in0.0 mm 0.00 in0.0 mm 0.00 in0.0 mm
02:56 AM 29.6°F-1.3°C 25.4°F-3.7°C 84% 1.1 mph SE1.8 kmh SE 5.0 mph8.0 kmh 29.51 in999.3 mb 0.00 in0.0 mm 0.00 in0.0 mm 0.00 in0.0 mm
02:57 AM 29.6°F-1.3°C 25.4°F-3.7°C 84% Calm Calm 4.0 mph6.4 kmh 29.51 in999.3 mb 0.00 in0.0 mm 0.00 in0.0 mm 0.00 in0.0 mm
02:58 AM 29.6°F-1.3°C 25.4°F-3.7°C 84% 0.9 mph SE1.4 kmh SE 4.0 mph6.4 kmh 29.51 in999.3 mb 0.00 in0.0 mm 0.00 in0.0 mm 0.00 in0.0 mm
02:59 AM 29.6°F-1.3°C 25.4°F-3.7°C 84% 1.3 mph SE2.1 kmh SE 4.0 mph6.4 kmh 29.51 in999.3 mb 0.00 in0.0 mm 0.00 in0.0 mm 0.00 in0.0 mm
03:00 AM 29.6°F-1.3°C 25.4°F-3.7°C 84% Calm Calm 3.0 mph4.8 kmh 29.51 in999.3 mb 0.00 in0.0 mm 0.00 in0.0 mm 0.00 in0.0 mm
03:01 AM 29.6°F-1.3°C 25.4°F-3.7°C 84% 1.7 mph SE2.7 kmh SE 7.0 mph11.3 kmh 29.51 in999.3 mb 0.00 in0.0 mm 0.00 in0.0 mm 0.00 in0.0 mm
03:02 AM 29.6°F-1.3°C 25.4°F-3.7°C 84% 4.3 mph SE6.9 kmh SE 7.0 mph11.3 kmh 29.51 in999.3 mb 0.00 in0.0 mm 0.00 in0.0 mm 0.00 in0.0 mm
03:03 AM 29.6°F-1.3°C 25.4°F-3.7°C 84% 3.8 mph SE6.1 kmh SE 7.0 mph11.3 kmh 29.51 in999.3 mb 0.00 in0.0 mm 0.00 in0.0 mm 0.00 in0.0 mm
03:04 AM 29.6°F-1.3°C 25.4°F-3.7°C 84% 3.2 mph SE5.1 kmh SE 7.0 mph11.3 kmh 29.51 in999.3 mb 0.00 in0.0 mm 0.00 in0.0 mm 0.00 in0.0 mm
03:05 AM 29.6°F-1.3°C 25.4°F-3.7°C 84% 2.6 mph SE4.2 kmh SE 8.0 mph12.9 kmh 29.51 in999.3 mb 0.00 in0.0 mm 0.00 in0.0 mm 0.00 in0.0 mm
03:06 AM 29.6°F-1.3°C 25.4°F-3.7°C 84% 1.6 mph SE2.6 kmh SE 8.0 mph12.9 kmh 29.51 in999.3 mb 0.00 in0.0 mm 0.00 in0.0 mm 0.00 in0.0 mm
03:07 AM 29.6°F-1.3°C 25.4°F-3.7°C 84% 2.1 mph SE3.4 kmh SE 5.0 mph8.0 kmh 29.51 in999.3 mb 0.00 in0.0 mm 0.00 in0.0 mm 0.00 in0.0 mm
03:08 AM 29.6°F-1.3°C 25.4°F-3.7°C 84% 1.2 mph SE1.9 kmh SE 5.0 mph8.0 kmh 29.51 in999.3 mb 0.00 in0.0 mm 0.00 in0.0 mm 0.00 in0.0 mm
03:09 AM 29.6°F-1.3°C 25.4°F-3.7°C 84% 0.3 mph SE0.5 kmh SE 5.0 mph8.0 kmh 29.51 in999.3 mb 0.00 in0.0 mm 0.00 in0.0 mm 0.00 in0.0 mm
03:10 AM 29.6°F-1.3°C 25.4°F-3.7°C 84% 1.8 mph SE2.9 kmh SE 7.0 mph11.3 kmh 29.51 in999.3 mb 0.00 in0.0 mm 0.00 in0.0 mm 0.00 in0.0 mm
03:11 AM 29.6°F-1.3°C 25.4°F-3.7°C 84% 1.2 mph SE1.9 kmh SE 7.0 mph11.3 kmh 29.51 in999.3 mb 0.00 in0.0 mm 0.00 in0.0 mm 0.00 in0.0 mm
03:12 AM 29.6°F-1.3°C 25.4°F-3.7°C 84% Calm Calm 5.0 mph8.0 kmh 29.51 in999.3 mb 0.00 in0.0 mm 0.00 in0.0 mm 0.00 in0.0 mm
03:13 AM 29.6°F-1.3°C 25.4°F-3.7°C 84% 2.2 mph SE3.5 kmh SE 7.0 mph11.3 kmh 29.51 in999.3 mb 0.00 in0.0 mm 0.00 in0.0 mm 0.00 in0.0 mm
03:14 AM 29.6°F-1.3°C 25.4°F-3.7°C 84% 3.9 mph SE6.3 kmh SE 8.0 mph12.9 kmh 29.51 in999.3 mb 0.00 in0.0 mm 0.00 in0.0 mm 0.00 in0.0 mm
03:15 AM 29.6°F-1.3°C 25.4°F-3.7°C 84% 2.0 mph SE3.2 kmh SE 7.0 mph11.3 kmh 29.51 in999.3 mb 0.00 in0.0 mm 0.00 in0.0 mm 0.00 in0.0 mm
03:16 AM 29.6°F-1.3°C 25.4°F-3.7°C 84% 1.9 mph SE3.1 kmh SE 4.0 mph6.4 kmh 29.51 in999.3 mb 0.00 in0.0 mm 0.00 in0.0 mm 0.00 in0.0 mm
03:17 AM 29.6°F-1.3°C 25.4°F-3.7°C 84% 0.1 mph SE0.2 kmh SE 4.0 mph6.4 kmh 29.51 in999.3 mb 0.00 in0.0 mm 0.00 in0.0 mm 0.00 in0.0 mm
03:18 AM 29.7°F-1.3°C 25.5°F-3.6°C 84% 1.8 mph SE2.9 kmh SE 4.0 mph6.4 kmh 29.51 in999.3 mb 0.00 in0.0 mm 0.00 in0.0 mm 0.00 in0.0 mm
03:19 AM 29.7°F-1.3°C 25.5°F-3.6°C 84% 1.8 mph SE2.9 kmh SE 5.0 mph8.0 kmh 29.51 in999.3 mb 0.00 in0.0 mm 0.00 in0.0 mm 0.00 in0.0 mm
03:20 AM 29.7°F-1.3°C 25.5°F-3.6°C 84% 3.4 mph SE5.5 kmh SE 9.0 mph14.5 kmh 29.51 in999.3 mb 0.00 in0.0 mm 0.00 in0.0 mm 0.00 in0.0 mm
03:21 AM 29.6°F-1.3°C 25.4°F-3.7°C 84% 3.5 mph SE5.6 kmh SE 9.0 mph14.5 kmh 29.51 in999.3 mb 0.00 in0.0 mm 0.00 in0.0 mm 0.00 in0.0 mm
03:22 AM 29.6°F-1.3°C 25.4°F-3.7°C 84% 4.2 mph SE6.8 kmh SE 7.0 mph11.3 kmh 29.51 in999.3 mb 0.00 in0.0 mm 0.00 in0.0 mm 0.00 in0.0 mm
03:23 AM 29.6°F-1.3°C 25.4°F-3.7°C 84% 1.1 mph SE1.8 kmh SE 7.0 mph11.3 kmh 29.51 in999.3 mb 0.00 in0.0 mm 0.00 in0.0 mm 0.00 in0.0 mm
03:24 AM 29.6°F-1.3°C 25.4°F-3.7°C 84% 0.3 mph SE0.5 kmh SE 3.0 mph4.8 kmh 29.51 in999.3 mb 0.00 in0.0 mm 0.00 in0.0 mm 0.00 in0.0 mm
03:25 AM 29.6°F-1.3°C 25.4°F-3.7°C 84% 5.0 mph SE8.0 kmh SE 10.0 mph16.1 kmh 29.51 in999.3 mb 0.00 in0.0 mm 0.00 in0.0 mm 0.00 in0.0 mm
03:26 AM 29.6°F-1.3°C 25.4°F-3.7°C 84% 7.0 mph SE11.3 kmh SE 10.0 mph16.1 kmh 29.51 in999.3 mb 0.00 in0.0 mm 0.00 in0.0 mm 0.00 in0.0 mm
03:27 AM 29.6°F-1.3°C 25.4°F-3.7°C 84% 9.6 mph SE15.4 kmh SE 12.0 mph19.3 kmh 29.51 in999.3 mb 0.00 in0.0 mm 0.00 in0.0 mm 0.00 in0.0 mm
03:28 AM 29.6°F-1.3°C 25.4°F-3.7°C 84% 5.2 mph SE8.4 kmh SE 12.0 mph19.3 kmh 29.51 in999.3 mb 0.00 in0.0 mm 0.00 in0.0 mm 0.00 in0.0 mm
03:29 AM 29.6°F-1.3°C 25.4°F-3.7°C 84% 0.6 mph SE1.0 kmh SE 9.0 mph14.5 kmh 29.51 in999.3 mb 0.00 in0.0 mm 0.00 in0.0 mm 0.00 in0.0 mm
03:30 AM 29.6°F-1.3°C 25.4°F-3.7°C 84% 4.1 mph SE6.6 kmh SE 7.0 mph11.3 kmh 29.51 in999.3 mb 0.00 in0.0 mm 0.00 in0.0 mm 0.00 in0.0 mm
03:31 AM 29.6°F-1.3°C 25.4°F-3.7°C 84% 2.6 mph SE4.2 kmh SE 7.0 mph11.3 kmh 29.51 in999.3 mb 0.00 in0.0 mm 0.00 in0.0 mm 0.00 in0.0 mm
03:32 AM 29.6°F-1.3°C 25.4°F-3.7°C 84% 1.5 mph SE2.4 kmh SE 7.0 mph11.3 kmh 29.51 in999.3 mb 0.00 in0.0 mm 0.00 in0.0 mm 0.00 in0.0 mm
03:33 AM 29.6°F-1.3°C 25.4°F-3.7°C 84% 3.5 mph SE5.6 kmh SE 7.0 mph11.3 kmh 29.51 in999.3 mb 0.00 in0.0 mm 0.00 in0.0 mm 0.00 in0.0 mm
03:34 AM 29.6°F-1.3°C 25.4°F-3.7°C 84% 0.8 mph SE1.3 kmh SE 5.0 mph8.0 kmh 29.51 in999.3 mb 0.00 in0.0 mm 0.00 in0.0 mm 0.00 in0.0 mm
03:35 AM 29.7°F-1.3°C 25.5°F-3.6°C 84% 1.0 mph SE1.6 kmh SE 5.0 mph8.0 kmh 29.51 in999.3 mb 0.00 in0.0 mm 0.00 in0.0 mm 0.00 in0.0 mm
03:36 AM 29.7°F-1.3°C 25.5°F-3.6°C 84% 4.4 mph SE7.1 kmh SE 8.0 mph12.9 kmh 29.51 in999.3 mb 0.00 in0.0 mm 0.00 in0.0 mm 0.00 in0.0 mm
03:37 AM 29.7°F-1.3°C 25.5°F-3.6°C 84% 0.3 mph SE0.5 kmh SE 8.0 mph12.9 kmh 29.51 in999.3 mb 0.00 in0.0 mm 0.00 in0.0 mm 0.00 in0.0 mm
03:38 AM 29.7°F-1.3°C 25.5°F-3.6°C 84% 2.0 mph SE3.2 kmh SE 4.0 mph6.4 kmh 29.51 in999.3 mb 0.00 in0.0 mm 0.00 in0.0 mm 0.00 in0.0 mm
03:39 AM 29.7°F-1.3°C 25.5°F-3.6°C 84% 2.9 mph SE4.7 kmh SE 7.0 mph11.3 kmh 29.51 in999.3 mb 0.00 in0.0 mm 0.00 in0.0 mm 0.00 in0.0 mm
03:40 AM 29.7°F-1.3°C 25.5°F-3.6°C 84% 0.7 mph SE1.1 kmh SE 7.0 mph11.3 kmh 29.51 in999.3 mb 0.00 in0.0 mm 0.00 in0.0 mm 0.00 in0.0 mm
03:41 AM 29.7°F-1.3°C 25.5°F-3.6°C 84% 0.7 mph SE1.1 kmh SE 3.0 mph4.8 kmh 29.51 in999.3 mb 0.00 in0.0 mm 0.00 in0.0 mm 0.00 in0.0 mm
03:42 AM 29.7°F-1.3°C 25.5°F-3.6°C 84% Calm Calm 3.0 mph4.8 kmh 29.51 in999.3 mb 0.00 in0.0 mm 0.00 in0.0 mm 0.00 in0.0 mm
03:43 AM 29.7°F-1.3°C 25.5°F-3.6°C 84% Calm Calm -- 29.51 in999.3 mb 0.00 in0.0 mm 0.00 in0.0 mm 0.00 in0.0 mm
03:44 AM 29.7°F-1.3°C 25.5°F-3.6°C 84% 1.7 mph SE2.7 kmh SE 5.0 mph8.0 kmh 29.52 in999.7 mb 0.00 in0.0 mm 0.00 in0.0 mm 0.00 in0.0 mm
03:45 AM 29.7°F-1.3°C 25.5°F-3.6°C 84% 3.1 mph SE5.0 kmh SE 5.0 mph8.0 kmh 29.51 in999.3 mb 0.00 in0.0 mm 0.00 in0.0 mm 0.00 in0.0 mm
03:46 AM 29.7°F-1.3°C 25.5°F-3.6°C 84% 1.2 mph SE1.9 kmh SE 4.0 mph6.4 kmh 29.51 in999.3 mb 0.00 in0.0 mm 0.00 in0.0 mm 0.00 in0.0 mm
03:47 AM 29.7°F-1.3°C 25.5°F-3.6°C 84% 0.1 mph SE0.2 kmh SE 4.0 mph6.4 kmh 29.51 in999.3 mb 0.00 in0.0 mm 0.00 in0.0 mm 0.00 in0.0 mm
03:48 AM 29.7°F-1.3°C 25.5°F-3.6°C 84% Calm Calm 1.0 mph1.6 kmh 29.51 in999.3 mb 0.00 in0.0 mm 0.00 in0.0 mm 0.00 in0.0 mm
03:49 AM 29.7°F-1.3°C 25.5°F-3.6°C 84% 1.0 mph SE1.6 kmh SE 4.0 mph6.4 kmh 29.51 in999.3 mb 0.00 in0.0 mm 0.00 in0.0 mm 0.00 in0.0 mm
03:50 AM 29.7°F-1.3°C 25.5°F-3.6°C 84% 0.4 mph SE0.6 kmh SE 4.0 mph6.4 kmh 29.51 in999.3 mb 0.00 in0.0 mm 0.00 in0.0 mm 0.00 in0.0 mm
03:51 AM 29.7°F-1.3°C 25.5°F-3.6°C 84% 0.3 mph SE0.5 kmh SE 3.0 mph4.8 kmh 29.51 in999.3 mb 0.00 in0.0 mm 0.00 in0.0 mm 0.00 in0.0 mm
03:52 AM 29.7°F-1.3°C 25.5°F-3.6°C 84% 2.2 mph SE3.5 kmh SE 4.0 mph6.4 kmh 29.51 in999.3 mb 0.00 in0.0 mm 0.00 in0.0 mm 0.00 in0.0 mm
03:53 AM 29.7°F-1.3°C 25.5°F-3.6°C 84% 0.7 mph SE1.1 kmh SE 4.0 mph6.4 kmh 29.51 in999.3 mb 0.00 in0.0 mm 0.00 in0.0 mm 0.00 in0.0 mm
03:54 AM 29.7°F-1.3°C 25.5°F-3.6°C 84% 0.1 mph SE0.2 kmh SE 3.0 mph4.8 kmh 29.51 in999.3 mb 0.00 in0.0 mm 0.00 in0.0 mm 0.00 in0.0 mm
03:55 AM 29.7°F-1.3°C 25.5°F-3.6°C 84% 1.8 mph SE2.9 kmh SE 4.0 mph6.4 kmh 29.51 in999.3 mb 0.00 in0.0 mm 0.00 in0.0 mm 0.00 in0.0 mm
03:56 AM 29.7°F-1.3°C 25.5°F-3.6°C 84% 1.1 mph SE1.8 kmh SE 4.0 mph6.4 kmh 29.51 in999.3 mb 0.00 in0.0 mm 0.00 in0.0 mm 0.00 in0.0 mm
03:57 AM 29.7°F-1.3°C 25.5°F-3.6°C 84% 1.1 mph SE1.8 kmh SE 4.0 mph6.4 kmh 29.51 in999.3 mb 0.00 in0.0 mm 0.00 in0.0 mm 0.00 in0.0 mm
03:58 AM 29.7°F-1.3°C 25.5°F-3.6°C 84% 1.4 mph SE2.3 kmh SE 4.0 mph6.4 kmh 29.51 in999.3 mb 0.00 in0.0 mm 0.00 in0.0 mm 0.00 in0.0 mm
03:59 AM 29.7°F-1.3°C 25.5°F-3.6°C 84% Calm Calm 3.0 mph4.8 kmh 29.51 in999.3 mb 0.00 in0.0 mm 0.00 in0.0 mm 0.00 in0.0 mm
04:00 AM 29.7°F-1.3°C 25.5°F-3.6°C 84% Calm Calm -- 29.51 in999.3 mb 0.00 in0.0 mm 0.00 in0.0 mm 0.00 in0.0 mm
04:01 AM 29.7°F-1.3°C 25.5°F-3.6°C 84% Calm Calm -- 29.51 in999.3 mb 0.00 in0.0 mm 0.00 in0.0 mm 0.00 in0.0 mm
04:02 AM 29.7°F-1.3°C 25.5°F-3.6°C 84% 0.7 mph SE1.1 kmh SE 5.0 mph8.0 kmh 29.51 in999.3 mb 0.00 in0.0 mm 0.00 in0.0 mm 0.00 in0.0 mm
04:03 AM 29.7°F-1.3°C 25.5°F-3.6°C 84% 0.5 mph SE0.8 kmh SE 5.0 mph8.0 kmh 29.50 in999.0 mb 0.00 in0.0 mm 0.00 in0.0 mm 0.00 in0.0 mm
04:04 AM 29.8°F-1.2°C 25.6°F-3.6°C 84% 0.5 mph SE0.8 kmh SE 4.0 mph6.4 kmh 29.51 in999.3 mb 0.00 in0.0 mm 0.00 in0.0 mm 0.00 in0.0 mm
04:05 AM 29.8°F-1.2°C 25.6°F-3.6°C 84% Calm Calm 4.0 mph6.4 kmh 29.50 in999.0 mb 0.00 in0.0 mm 0.00 in0.0 mm 0.00 in0.0 mm
04:06 AM 29.8°F-1.2°C 25.6°F-3.6°C 84% Calm Calm -- 29.50 in999.0 mb 0.00 in0.0 mm 0.00 in0.0 mm 0.00 in0.0 mm
04:07 AM 29.8°F-1.2°C 25.6°F-3.6°C 84% 0.7 mph SE1.1 kmh SE 2.0 mph3.2 kmh 29.50 in999.0 mb 0.00 in0.0 mm 0.00 in0.0 mm 0.00 in0.0 mm
04:08 AM 29.7°F-1.3°C 25.5°F-3.6°C 84% 0.3 mph SE0.5 kmh SE 2.0 mph3.2 kmh 29.50 in999.0 mb 0.00 in0.0 mm 0.00 in0.0 mm 0.00 in0.0 mm
04:09 AM 29.7°F-1.3°C 25.5°F-3.6°C 84% 1.7 mph SE2.7 kmh SE 4.0 mph6.4 kmh 29.51 in999.3 mb 0.00 in0.0 mm 0.00 in0.0 mm 0.00 in0.0 mm
04:10 AM 29.8°F-1.2°C 25.6°F-3.6°C 84% Calm Calm 4.0 mph6.4 kmh 29.50 in999.0 mb 0.00 in0.0 mm 0.00 in0.0 mm 0.00 in0.0 mm
04:11 AM 29.7°F-1.3°C 25.5°F-3.6°C 84% 4.1 mph SE6.6 kmh SE 5.0 mph8.0 kmh 29.50 in999.0 mb 0.00 in0.0 mm 0.00 in0.0 mm 0.00 in0.0 mm
04:12 AM 29.7°F-1.3°C 25.5°F-3.6°C 84% 3.0 mph SE4.8 kmh SE 5.0 mph8.0 kmh 29.50 in999.0 mb 0.00 in0.0 mm 0.00 in0.0 mm 0.00 in0.0 mm
04:13 AM 29.7°F-1.3°C 25.5°F-3.6°C 84% Calm Calm 5.0 mph8.0 kmh 29.50 in999.0 mb 0.00 in0.0 mm 0.00 in0.0 mm 0.00 in0.0 mm
04:14 AM 29.7°F-1.3°C 25.5°F-3.6°C 84% 2.6 mph SE4.2 kmh SE 8.0 mph12.9 kmh 29.50 in999.0 mb 0.00 in0.0 mm 0.00 in0.0 mm 0.00 in0.0 mm
04:15 AM 29.7°F-1.3°C 25.5°F-3.6°C 84% 0.4 mph SE0.6 kmh SE 8.0 mph12.9 kmh 29.50 in999.0 mb 0.00 in0.0 mm 0.00 in0.0 mm 0.00 in0.0 mm
04:16 AM 29.8°F-1.2°C 25.6°F-3.6°C 84% Calm Calm 3.0 mph4.8 kmh 29.50 in999.0 mb 0.00 in0.0 mm 0.00 in0.0 mm 0.00 in0.0 mm
04:17 AM 29.7°F-1.3°C 25.5°F-3.6°C 84% 3.9 mph SE6.3 kmh SE 8.0 mph12.9 kmh 29.50 in999.0 mb 0.00 in0.0 mm 0.00 in0.0 mm 0.00 in0.0 mm
04:18 AM 29.8°F-1.2°C 25.6°F-3.6°C 84% 0.1 mph SE0.2 kmh SE 8.0 mph12.9 kmh 29.50 in999.0 mb 0.00 in0.0 mm 0.00 in0.0 mm 0.00 in0.0 mm
04:19 AM 29.8°F-1.2°C 25.6°F-3.6°C 84% Calm Calm -- 29.50 in999.0 mb 0.00 in0.0 mm 0.00 in0.0 mm 0.00 in0.0 mm
04:20 AM 29.7°F-1.3°C 25.5°F-3.6°C 84% Calm Calm -- 29.50 in999.0 mb 0.00 in0.0 mm 0.00 in0.0 mm 0.00 in0.0 mm
04:21 AM 29.8°F-1.2°C 25.6°F-3.6°C 84% 1.4 mph SE2.3 kmh SE 5.0 mph8.0 kmh 29.50 in999.0 mb 0.00 in0.0 mm 0.00 in0.0 mm 0.00 in0.0 mm
04:22 AM 29.8°F-1.2°C 25.6°F-3.6°C 84% 2.3 mph SE3.7 kmh SE 5.0 mph8.0 kmh 29.51 in999.3 mb 0.00 in0.0 mm 0.00 in0.0 mm 0.00 in0.0 mm
04:23 AM 29.8°F-1.2°C 25.6°F-3.6°C 84% 1.4 mph SE2.3 kmh SE 5.0 mph8.0 kmh 29.51 in999.3 mb 0.00 in0.0 mm 0.00 in0.0 mm 0.00 in0.0 mm
04:24 AM 29.8°F-1.2°C 25.6°F-3.6°C 84% 1.4 mph SE2.3 kmh SE 5.0 mph8.0 kmh 29.51 in999.3 mb 0.00 in0.0 mm 0.00 in0.0 mm 0.00 in0.0 mm
04:25 AM 29.8°F-1.2°C 25.6°F-3.6°C 84% Calm Calm 4.0 mph6.4 kmh 29.51 in999.3 mb 0.00 in0.0 mm 0.00 in0.0 mm 0.00 in0.0 mm
04:26 AM 29.8°F-1.2°C 25.6°F-3.6°C 84% 1.5 mph SE2.4 kmh SE 7.0 mph11.3 kmh 29.51 in999.3 mb 0.00 in0.0 mm 0.00 in0.0 mm 0.00 in0.0 mm
04:27 AM 29.8°F-1.2°C 25.6°F-3.6°C 84% 1.2 mph SE1.9 kmh SE 7.0 mph11.3 kmh 29.51 in999.3 mb 0.00 in0.0 mm 0.00 in0.0 mm 0.00 in0.0 mm
04:28 AM 29.8°F-1.2°C 25.6°F-3.6°C 84% 0.5 mph SE0.8 kmh SE 4.0 mph6.4 kmh 29.51 in999.3 mb 0.00 in0.0 mm 0.00 in0.0 mm 0.00 in0.0 mm
04:29 AM 29.8°F-1.2°C 25.6°F-3.6°C 84% Calm Calm 3.0 mph4.8 kmh 29.51 in999.3 mb 0.00 in0.0 mm 0.00 in0.0 mm 0.00 in0.0 mm
04:30 AM 29.8°F-1.2°C 25.6°F-3.6°C 84% Calm Calm -- 29.51 in999.3 mb 0.00 in0.0 mm 0.00 in0.0 mm 0.00 in0.0 mm
04:31 AM 29.8°F-1.2°C 25.6°F-3.6°C 84% 0.4 mph SE0.6 kmh SE 3.0 mph4.8 kmh 29.51 in999.3 mb 0.00 in0.0 mm 0.00 in0.0 mm 0.00 in0.0 mm
04:32 AM 29.8°F-1.2°C 25.6°F-3.6°C 84% 0.6 mph SE1.0 kmh SE 4.0 mph6.4 kmh 29.50 in999.0 mb 0.00 in0.0 mm 0.00 in0.0 mm 0.00 in0.0 mm
04:33 AM 29.8°F-1.2°C 25.6°F-3.6°C 84% 0.6 mph SE1.0 kmh SE 4.0 mph6.4 kmh 29.50 in999.0 mb 0.00 in0.0 mm 0.00 in0.0 mm 0.00 in0.0 mm
04:34 AM 29.8°F-1.2°C 25.6°F-3.6°C 84% 0.5 mph SE0.8 kmh SE 3.0 mph4.8 kmh 29.50 in999.0 mb 0.00 in0.0 mm 0.00 in0.0 mm 0.00 in0.0 mm
04:35 AM 29.8°F-1.2°C 25.6°F-3.6°C 84% Calm Calm 3.0 mph4.8 kmh 29.50 in999.0 mb 0.00 in0.0 mm 0.00 in0.0 mm 0.00 in0.0 mm
04:36 AM 29.8°F-1.2°C 25.6°F-3.6°C 84% Calm Calm -- 29.50 in999.0 mb 0.00 in0.0 mm 0.00 in0.0 mm 0.00 in0.0 mm
04:37 AM 29.8°F-1.2°C 25.6°F-3.6°C 84% Calm Calm -- 29.50 in999.0 mb 0.00 in0.0 mm 0.00 in0.0 mm 0.00 in0.0 mm
04:38 AM 29.8°F-1.2°C 25.6°F-3.6°C 84% Calm Calm -- 29.50 in999.0 mb 0.00 in0.0 mm 0.00 in0.0 mm 0.00 in0.0 mm
04:39 AM 29.8°F-1.2°C 25.6°F-3.6°C 84% 3.1 mph SE5.0 kmh SE 5.0 mph8.0 kmh 29.50 in999.0 mb 0.00 in0.0 mm 0.00 in0.0 mm 0.00 in0.0 mm
04:40 AM 29.8°F-1.2°C 25.6°F-3.6°C 84% 2.0 mph SE3.2 kmh SE 5.0 mph8.0 kmh 29.50 in999.0 mb 0.00 in0.0 mm 0.00 in0.0 mm 0.00 in0.0 mm
04:41 AM 29.8°F-1.2°C 25.6°F-3.6°C 84% Calm Calm 4.0 mph6.4 kmh 29.50 in999.0 mb 0.00 in0.0 mm 0.00 in0.0 mm 0.00 in0.0 mm
04:42 AM 29.8°F-1.2°C 25.6°F-3.6°C 84% 1.0 mph SE1.6 kmh SE 3.0 mph4.8 kmh 29.50 in999.0 mb 0.00 in0.0 mm 0.00 in0.0 mm 0.00 in0.0 mm
04:43 AM 29.8°F-1.2°C 25.6°F-3.6°C 84% 2.4 mph SE3.9 kmh SE 7.0 mph11.3 kmh 29.50 in999.0 mb 0.00 in0.0 mm 0.00 in0.0 mm 0.00 in0.0 mm
04:44 AM 29.8°F-1.2°C 25.6°F-3.6°C 84% 0.3 mph SE0.5 kmh SE 7.0 mph11.3 kmh 29.50 in999.0 mb 0.00 in0.0 mm 0.00 in0.0 mm 0.00 in0.0 mm
04:45 AM 29.8°F-1.2°C 25.6°F-3.6°C 84% 2.6 mph SE4.2 kmh SE 8.0 mph12.9 kmh 29.50 in999.0 mb 0.00 in0.0 mm 0.00 in0.0 mm 0.00 in0.0 mm
04:46 AM 29.8°F-1.2°C 25.6°F-3.6°C 84% Calm Calm 8.0 mph12.9 kmh 29.50 in999.0 mb 0.00 in0.0 mm 0.00 in0.0 mm 0.00 in0.0 mm
04:47 AM 29.8°F-1.2°C 25.6°F-3.6°C 84% Calm Calm -- 29.50 in999.0 mb 0.00 in0.0 mm 0.00 in0.0 mm 0.00 in0.0 mm
04:48 AM 29.8°F-1.2°C 25.6°F-3.6°C 84% 0.1 mph SE0.2 kmh SE 2.0 mph3.2 kmh 29.50 in999.0 mb 0.00 in0.0 mm 0.00 in0.0 mm 0.00 in0.0 mm
04:49 AM 29.8°F-1.2°C 25.6°F-3.6°C 84% Calm Calm 2.0 mph3.2 kmh 29.50 in999.0 mb 0.00 in0.0 mm 0.00 in0.0 mm 0.00 in0.0 mm
04:50 AM 29.9°F-1.2°C 25.7°F-3.5°C 84% 0.3 mph SE0.5 kmh SE 3.0 mph4.8 kmh 29.50 in999.0 mb 0.00 in0.0 mm 0.00 in0.0 mm 0.00 in0.0 mm
04:51 AM 29.9°F-1.2°C 25.7°F-3.5°C 84% 2.4 mph SE3.9 kmh SE 7.0 mph11.3 kmh 29.50 in999.0 mb 0.00 in0.0 mm 0.00 in0.0 mm 0.00 in0.0 mm
04:52 AM 29.9°F-1.2°C 25.7°F-3.5°C 84% Calm Calm 7.0 mph11.3 kmh 29.51 in999.3 mb 0.00 in0.0 mm 0.00 in0.0 mm 0.00 in0.0 mm
04:53 AM 29.9°F-1.2°C 25.7°F-3.5°C 84% 2.4 mph SE3.9 kmh SE 5.0 mph8.0 kmh 29.50 in999.0 mb 0.00 in0.0 mm 0.00 in0.0 mm 0.00 in0.0 mm
04:54 AM 29.9°F-1.2°C 25.7°F-3.5°C 84% 2.3 mph SE3.7 kmh SE 5.0 mph8.0 kmh 29.51 in999.3 mb 0.00 in0.0 mm 0.00 in0.0 mm 0.00 in0.0 mm
04:55 AM 29.9°F-1.2°C 25.7°F-3.5°C 84% 0.8 mph SE1.3 kmh SE 4.0 mph6.4 kmh 29.51 in999.3 mb 0.00 in0.0 mm 0.00 in0.0 mm 0.00 in0.0 mm
04:56 AM 29.9°F-1.2°C 25.7°F-3.5°C 84% 1.1 mph SE1.8 kmh SE 7.0 mph11.3 kmh 29.51 in999.3 mb 0.00 in0.0 mm 0.00 in0.0 mm 0.00 in0.0 mm
04:57 AM 29.9°F-1.2°C 25.7°F-3.5°C 84% 1.8 mph SE2.9 kmh SE 7.0 mph11.3 kmh 29.51 in999.3 mb 0.00 in0.0 mm 0.00 in0.0 mm 0.00 in0.0 mm
04:58 AM 29.9°F-1.2°C 25.7°F-3.5°C 84% Calm Calm 7.0 mph11.3 kmh 29.51 in999.3 mb 0.00 in0.0 mm 0.00 in0.0 mm 0.00 in0.0 mm
04:59 AM 29.9°F-1.2°C 25.7°F-3.5°C 84% Calm Calm -- 29.50 in999.0 mb 0.00 in0.0 mm 0.00 in0.0 mm 0.00 in0.0 mm
05:00 AM 29.9°F-1.2°C 25.7°F-3.5°C 84% Calm Calm -- 29.50 in999.0 mb 0.00 in0.0 mm 0.00 in0.0 mm 0.00 in0.0 mm
05:01 AM 29.9°F-1.2°C 25.7°F-3.5°C 84% 0.1 mph SE0.2 kmh SE 1.0 mph1.6 kmh 29.50 in999.0 mb 0.00 in0.0 mm 0.00 in0.0 mm 0.00 in0.0 mm
05:02 AM 29.9°F-1.2°C 25.7°F-3.5°C 84% 0.5 mph SE0.8 kmh SE 2.0 mph3.2 kmh 29.50 in999.0 mb 0.00 in0.0 mm 0.00 in0.0 mm 0.00 in0.0 mm
05:03 AM 29.9°F-1.2°C 25.7°F-3.5°C 84% Calm Calm 2.0 mph3.2 kmh 29.50 in999.0 mb 0.00 in0.0 mm 0.00 in0.0 mm 0.00 in0.0 mm
05:04 AM 29.9°F-1.2°C 25.7°F-3.5°C 84% Calm Calm -- 29.51 in999.3 mb 0.00 in0.0 mm 0.00 in0.0 mm 0.00 in0.0 mm
05:05 AM 29.9°F-1.2°C 25.7°F-3.5°C 84% 2.0 mph SE3.2 kmh SE 4.0 mph6.4 kmh 29.50 in999.0 mb 0.00 in0.0 mm 0.00 in0.0 mm 0.00 in0.0 mm
05:06 AM 29.9°F-1.2°C 25.7°F-3.5°C 84% 0.2 mph SE0.3 kmh SE 4.0 mph6.4 kmh 29.50 in999.0 mb 0.00 in0.0 mm 0.00 in0.0 mm 0.00 in0.0 mm
05:07 AM 29.9°F-1.2°C 25.7°F-3.5°C 84% 1.2 mph SE1.9 kmh SE 4.0 mph6.4 kmh 29.50 in999.0 mb 0.00 in0.0 mm 0.00 in0.0 mm 0.00 in0.0 mm
05:08 AM 29.9°F-1.2°C 25.7°F-3.5°C 84% 1.0 mph SE1.6 kmh SE 4.0 mph6.4 kmh 29.50 in999.0 mb 0.00 in0.0 mm 0.00 in0.0 mm 0.00 in0.0 mm
05:09 AM 29.8°F-1.2°C 25.6°F-3.6°C 84% Calm Calm 3.0 mph4.8 kmh 29.50 in999.0 mb 0.00 in0.0 mm 0.00 in0.0 mm 0.00 in0.0 mm
05:10 AM 29.9°F-1.2°C 25.7°F-3.5°C 84% 0.1 mph SE0.2 kmh SE 3.0 mph4.8 kmh 29.50 in999.0 mb 0.00 in0.0 mm 0.00 in0.0 mm 0.00 in0.0 mm
05:11 AM 29.9°F-1.2°C 25.7°F-3.5°C 84% 0.9 mph SE1.4 kmh SE 4.0 mph6.4 kmh 29.50 in999.0 mb 0.00 in0.0 mm 0.00 in0.0 mm 0.00 in0.0 mm
05:12 AM 29.9°F-1.2°C 25.7°F-3.5°C 84% Calm Calm 4.0 mph6.4 kmh 29.50 in999.0 mb 0.00 in0.0 mm 0.00 in0.0 mm 0.00 in0.0 mm
05:13 AM 29.8°F-1.2°C 25.6°F-3.6°C 84% 0.4 mph SE0.6 kmh SE 3.0 mph4.8 kmh 29.50 in999.0 mb 0.00 in0.0 mm 0.00 in0.0 mm 0.00 in0.0 mm
05:14 AM 29.9°F-1.2°C 25.7°F-3.5°C 84% Calm Calm 3.0 mph4.8 kmh 29.50 in999.0 mb 0.00 in0.0 mm 0.00 in0.0 mm 0.00 in0.0 mm
05:15 AM 29.9°F-1.2°C 25.7°F-3.5°C 84% Calm Calm -- 29.50 in999.0 mb 0.00 in0.0 mm 0.00 in0.0 mm 0.00 in0.0 mm
05:16 AM 29.8°F-1.2°C 25.6°F-3.6°C 84% Calm Calm -- 29.50 in999.0 mb 0.00 in0.0 mm 0.00 in0.0 mm 0.00 in0.0 mm
05:17 AM 29.9°F-1.2°C 25.7°F-3.5°C 84% Calm Calm -- 29.50 in999.0 mb 0.00 in0.0 mm 0.00 in0.0 mm 0.00 in0.0 mm
05:18 AM 29.8°F-1.2°C 25.6°F-3.6°C 84% Calm Calm -- 29.50 in999.0 mb 0.00 in0.0 mm 0.00 in0.0 mm 0.00 in0.0 mm
05:19 AM 29.8°F-1.2°C 25.6°F-3.6°C 84% Calm Calm -- 29.50 in999.0 mb 0.00 in0.0 mm 0.00 in0.0 mm 0.00 in0.0 mm
05:20 AM 29.9°F-1.2°C 25.7°F-3.5°C 84% 1.3 mph SE2.1 kmh SE 7.0 mph11.3 kmh 29.50 in999.0 mb 0.00 in0.0 mm 0.00 in0.0 mm 0.00 in0.0 mm
05:21 AM 29.9°F-1.2°C 25.7°F-3.5°C 84% 0.8 mph SE1.3 kmh SE 7.0 mph11.3 kmh 29.50 in999.0 mb 0.00 in0.0 mm 0.00 in0.0 mm 0.00 in0.0 mm
05:22 AM 29.8°F-1.2°C 25.6°F-3.6°C 84% Calm Calm 3.0 mph4.8 kmh 29.50 in999.0 mb 0.00 in0.0 mm 0.00 in0.0 mm 0.00 in0.0 mm
05:23 AM 29.8°F-1.2°C 25.6°F-3.6°C 84% Calm Calm -- 29.50 in999.0 mb 0.00 in0.0 mm 0.00 in0.0 mm 0.00 in0.0 mm
05:24 AM 29.8°F-1.2°C 25.6°F-3.6°C 84% Calm Calm -- 29.50 in999.0 mb 0.00 in0.0 mm 0.00 in0.0 mm 0.00 in0.0 mm
05:25 AM 29.8°F-1.2°C 25.6°F-3.6°C 84% Calm Calm -- 29.50 in999.0 mb 0.00 in0.0 mm 0.00 in0.0 mm 0.00 in0.0 mm
05:26 AM 29.8°F-1.2°C 25.9°F-3.4°C 85% 1.0 mph SE1.6 kmh SE 4.0 mph6.4 kmh 29.50 in999.0 mb 0.00 in0.0 mm 0.00 in0.0 mm 0.00 in0.0 mm
05:27 AM 29.8°F-1.2°C 25.9°F-3.4°C 85% Calm Calm 4.0 mph6.4 kmh 29.50 in999.0 mb 0.00 in0.0 mm 0.00 in0.0 mm 0.00 in0.0 mm
05:28 AM 29.8°F-1.2°C 25.9°F-3.4°C 85% Calm Calm -- 29.50 in999.0 mb 0.00 in0.0 mm 0.00 in0.0 mm 0.00 in0.0 mm
05:29 AM 29.8°F-1.2°C 25.9°F-3.4°C 85% Calm Calm -- 29.50 in999.0 mb 0.00 in0.0 mm 0.00 in0.0 mm 0.00 in0.0 mm
05:30 AM 29.8°F-1.2°C 25.9°F-3.4°C 85% 1.8 mph SE2.9 kmh SE 4.0 mph6.4 kmh 29.50 in999.0 mb 0.00 in0.0 mm 0.00 in0.0 mm 0.00 in0.0 mm
05:31 AM 29.8°F-1.2°C 25.9°F-3.4°C 85% 0.7 mph SE1.1 kmh SE 4.0 mph6.4 kmh 29.50 in999.0 mb 0.00 in0.0 mm 0.00 in0.0 mm 0.00 in0.0 mm
05:32 AM 29.8°F-1.2°C 25.9°F-3.4°C 85% 2.5 mph SE4.0 kmh SE 7.0 mph11.3 kmh 29.50 in999.0 mb 0.00 in0.0 mm 0.00 in0.0 mm 0.00 in0.0 mm
05:33 AM 29.8°F-1.2°C 25.9°F-3.4°C 85% 0.2 mph SE0.3 kmh SE 7.0 mph11.3 kmh 29.50 in999.0 mb 0.00 in0.0 mm 0.00 in0.0 mm 0.00 in0.0 mm
05:34 AM 29.8°F-1.2°C 25.9°F-3.4°C 85% 4.1 mph SE6.6 kmh SE 5.0 mph8.0 kmh 29.50 in999.0 mb 0.00 in0.0 mm 0.00 in0.0 mm 0.00 in0.0 mm
05:35 AM 29.8°F-1.2°C 25.9°F-3.4°C 85% 3.1 mph SE5.0 kmh SE 7.0 mph11.3 kmh 29.50 in999.0 mb 0.00 in0.0 mm 0.00 in0.0 mm 0.00 in0.0 mm
05:36 AM 29.9°F-1.2°C 26.0°F-3.3°C 85% Calm Calm 7.0 mph11.3 kmh 29.50 in999.0 mb 0.00 in0.0 mm 0.00 in0.0 mm 0.00 in0.0 mm
05:37 AM 29.9°F-1.2°C 26.0°F-3.3°C 85% 1.5 mph SE2.4 kmh SE 5.0 mph8.0 kmh 29.50 in999.0 mb 0.00 in0.0 mm 0.00 in0.0 mm 0.00 in0.0 mm
05:38 AM 29.9°F-1.2°C 26.0°F-3.3°C 85% 1.6 mph SE2.6 kmh SE 5.0 mph8.0 kmh 29.50 in999.0 mb 0.00 in0.0 mm 0.00 in0.0 mm 0.00 in0.0 mm
05:39 AM 29.9°F-1.2°C 26.0°F-3.3°C 85% 0.5 mph SE0.8 kmh SE 5.0 mph8.0 kmh 29.50 in999.0 mb 0.00 in0.0 mm 0.00 in0.0 mm 0.00 in0.0 mm
05:40 AM 29.9°F-1.2°C 26.0°F-3.3°C 85% 2.4 mph SE3.9 kmh SE 5.0 mph8.0 kmh 29.50 in999.0 mb 0.00 in0.0 mm 0.00 in0.0 mm 0.00 in0.0 mm
05:41 AM 29.9°F-1.2°C 26.0°F-3.3°C 85% 3.5 mph SE5.6 kmh SE 7.0 mph11.3 kmh 29.50 in999.0 mb 0.00 in0.0 mm 0.00 in0.0 mm 0.00 in0.0 mm
05:42 AM 29.9°F-1.2°C 26.0°F-3.3°C 85% 0.8 mph SE1.3 kmh SE 7.0 mph11.3 kmh 29.50 in999.0 mb 0.00 in0.0 mm 0.00 in0.0 mm 0.00 in0.0 mm
05:43 AM 29.9°F-1.2°C 26.0°F-3.3°C 85% Calm Calm 3.0 mph4.8 kmh 29.50 in999.0 mb 0.00 in0.0 mm 0.00 in0.0 mm 0.00 in0.0 mm
05:44 AM 29.9°F-1.2°C 26.0°F-3.3°C 85% 1.2 mph SE1.9 kmh SE 5.0 mph8.0 kmh 29.50 in999.0 mb 0.00 in0.0 mm 0.00 in0.0 mm 0.00 in0.0 mm
05:45 AM 29.9°F-1.2°C 26.0°F-3.3°C 85% 1.5 mph SE2.4 kmh SE 5.0 mph8.0 kmh 29.50 in999.0 mb 0.00 in0.0 mm 0.00 in0.0 mm 0.00 in0.0 mm
05:46 AM 29.9°F-1.2°C 26.0°F-3.3°C 85% Calm Calm 4.0 mph6.4 kmh 29.50 in999.0 mb 0.00 in0.0 mm 0.00 in0.0 mm 0.00 in0.0 mm
05:47 AM 29.9°F-1.2°C 26.0°F-3.3°C 85% Calm Calm -- 29.50 in999.0 mb 0.00 in0.0 mm 0.00 in0.0 mm 0.00 in0.0 mm
05:48 AM 29.9°F-1.2°C 26.0°F-3.3°C 85% Calm Calm -- 29.50 in999.0 mb 0.00 in0.0 mm 0.00 in0.0 mm 0.00 in0.0 mm
05:49 AM 29.9°F-1.2°C 26.0°F-3.3°C 85% Calm Calm -- 29.50 in999.0 mb 0.00 in0.0 mm 0.00 in0.0 mm 0.00 in0.0 mm
05:50 AM 29.9°F-1.2°C 26.0°F-3.3°C 85% 0.9 mph SE1.4 kmh SE 4.0 mph6.4 kmh 29.50 in999.0 mb 0.00 in0.0 mm 0.00 in0.0 mm 0.00 in0.0 mm
05:51 AM 29.9°F-1.2°C 26.0°F-3.3°C 85% 0.2 mph SE0.3 kmh SE 4.0 mph6.4 kmh 29.50 in999.0 mb 0.00 in0.0 mm 0.00 in0.0 mm 0.00 in0.0 mm
05:52 AM 29.9°F-1.2°C 26.0°F-3.3°C 85% 0.2 mph SE0.3 kmh SE 4.0 mph6.4 kmh 29.50 in999.0 mb 0.00 in0.0 mm 0.00 in0.0 mm 0.00 in0.0 mm
05:53 AM 29.9°F-1.2°C 26.0°F-3.3°C 85% 3.0 mph SE4.8 kmh SE 5.0 mph8.0 kmh 29.50 in999.0 mb 0.00 in0.0 mm 0.00 in0.0 mm 0.00 in0.0 mm
05:54 AM 29.9°F-1.2°C 26.0°F-3.3°C 85% 0.3 mph SE0.5 kmh SE 5.0 mph8.0 kmh 29.50 in999.0 mb 0.00 in0.0 mm 0.00 in0.0 mm 0.00 in0.0 mm
05:55 AM 29.9°F-1.2°C 26.0°F-3.3°C 85% 0.2 mph SE0.3 kmh SE 3.0 mph4.8 kmh 29.51 in999.3 mb 0.00 in0.0 mm 0.00 in0.0 mm 0.00 in0.0 mm
05:56 AM 29.9°F-1.2°C 26.0°F-3.3°C 85% Calm Calm 2.0 mph3.2 kmh 29.50 in999.0 mb 0.00 in0.0 mm 0.00 in0.0 mm 0.00 in0.0 mm
05:57 AM 29.9°F-1.2°C 26.0°F-3.3°C 85% 1.1 mph SE1.8 kmh SE 5.0 mph8.0 kmh 29.50 in999.0 mb 0.00 in0.0 mm 0.00 in0.0 mm 0.00 in0.0 mm
05:58 AM 29.9°F-1.2°C 26.0°F-3.3°C 85% Calm Calm 5.0 mph8.0 kmh 29.50 in999.0 mb 0.00 in0.0 mm 0.00 in0.0 mm 0.00 in0.0 mm
05:59 AM 29.9°F-1.2°C 26.0°F-3.3°C 85% 2.0 mph SE3.2 kmh SE 7.0 mph11.3 kmh 29.50 in999.0 mb 0.00 in0.0 mm 0.00 in0.0 mm 0.00 in0.0 mm
06:00 AM 29.9°F-1.2°C 26.0°F-3.3°C 85% 3.6 mph SE5.8 kmh SE 8.0 mph12.9 kmh 29.50 in999.0 mb 0.00 in0.0 mm 0.00 in0.0 mm 0.00 in0.0 mm
06:01 AM 29.9°F-1.2°C 26.0°F-3.3°C 85% 1.1 mph SE1.8 kmh SE 8.0 mph12.9 kmh 29.50 in999.0 mb 0.00 in0.0 mm 0.00 in0.0 mm 0.00 in0.0 mm
06:02 AM 29.9°F-1.2°C 26.0°F-3.3°C 85% 0.8 mph SE1.3 kmh SE 4.0 mph6.4 kmh 29.50 in999.0 mb 0.00 in0.0 mm 0.00 in0.0 mm 0.00 in0.0 mm
06:03 AM 29.9°F-1.2°C 26.0°F-3.3°C 85% 3.4 mph SE5.5 kmh SE 5.0 mph8.0 kmh 29.50 in999.0 mb 0.00 in0.0 mm 0.00 in0.0 mm 0.00 in0.0 mm
06:04 AM 29.9°F-1.2°C 26.0°F-3.3°C 85% 2.3 mph SE3.7 kmh SE 5.0 mph8.0 kmh 29.50 in999.0 mb 0.00 in0.0 mm 0.00 in0.0 mm 0.00 in0.0 mm
06:05 AM 30.0°F-1.1°C 26.0°F-3.3°C 85% 1.0 mph SE1.6 kmh SE 4.0 mph6.4 kmh 29.50 in999.0 mb 0.00 in0.0 mm 0.00 in0.0 mm 0.00 in0.0 mm
06:06 AM 29.9°F-1.2°C 26.0°F-3.3°C 85% 2.8 mph SE4.5 kmh SE 4.0 mph6.4 kmh 29.50 in999.0 mb 0.00 in0.0 mm 0.00 in0.0 mm 0.00 in0.0 mm
06:07 AM 30.0°F-1.1°C 26.0°F-3.3°C 85% 0.1 mph SE0.2 kmh SE 4.0 mph6.4 kmh 29.50 in999.0 mb 0.00 in0.0 mm 0.00 in0.0 mm 0.00 in0.0 mm
06:08 AM 30.0°F-1.1°C 25.8°F-3.4°C 84% 2.6 mph SE4.2 kmh SE 5.0 mph8.0 kmh 29.50 in999.0 mb 0.00 in0.0 mm 0.00 in0.0 mm 0.00 in0.0 mm
06:09 AM 29.9°F-1.2°C 25.7°F-3.5°C 84% 0.6 mph SE1.0 kmh SE 5.0 mph8.0 kmh 29.49 in998.6 mb 0.00 in0.0 mm 0.00 in0.0 mm 0.00 in0.0 mm
06:10 AM 30.0°F-1.1°C 26.0°F-3.3°C 85% Calm Calm 2.0 mph3.2 kmh 29.50 in999.0 mb 0.00 in0.0 mm 0.00 in0.0 mm 0.00 in0.0 mm
06:11 AM 29.9°F-1.2°C 25.7°F-3.5°C 84% Calm Calm -- 29.50 in999.0 mb 0.00 in0.0 mm 0.00 in0.0 mm 0.00 in0.0 mm
06:12 AM 30.0°F-1.1°C 26.0°F-3.3°C 85% 2.0 mph SE3.2 kmh SE 5.0 mph8.0 kmh 29.50 in999.0 mb 0.00 in0.0 mm 0.00 in0.0 mm 0.00 in0.0 mm
06:13 AM 30.0°F-1.1°C 26.0°F-3.3°C 85% 2.2 mph SE3.5 kmh SE 5.0 mph8.0 kmh 29.50 in999.0 mb 0.00 in0.0 mm 0.00 in0.0 mm 0.00 in0.0 mm
06:14 AM 30.0°F-1.1°C 26.0°F-3.3°C 85% 2.8 mph SE4.5 kmh SE 5.0 mph8.0 kmh 29.50 in999.0 mb 0.00 in0.0 mm 0.00 in0.0 mm 0.00 in0.0 mm
06:15 AM 30.0°F-1.1°C 26.0°F-3.3°C 85% 3.0 mph SE4.8 kmh SE 5.0 mph8.0 kmh 29.50 in999.0 mb 0.00 in0.0 mm 0.00 in0.0 mm 0.00 in0.0 mm
06:16 AM 30.0°F-1.1°C 26.0°F-3.3°C 85% 0.9 mph SE1.4 kmh SE 5.0 mph8.0 kmh 29.50 in999.0 mb 0.00 in0.0 mm 0.00 in0.0 mm 0.00 in0.0 mm
06:17 AM 30.0°F-1.1°C 26.0°F-3.3°C 85% Calm Calm 3.0 mph4.8 kmh 29.50 in999.0 mb 0.00 in0.0 mm 0.00 in0.0 mm 0.00 in0.0 mm
06:18 AM 30.0°F-1.1°C 26.0°F-3.3°C 85% 3.1 mph SE5.0 kmh SE 5.0 mph8.0 kmh 29.50 in999.0 mb 0.00 in0.0 mm 0.00 in0.0 mm 0.00 in0.0 mm
06:19 AM 30.0°F-1.1°C 26.0°F-3.3°C 85% 1.3 mph SE2.1 kmh SE 5.0 mph8.0 kmh 29.50 in999.0 mb 0.00 in0.0 mm 0.00 in0.0 mm 0.00 in0.0 mm
06:20 AM 30.0°F-1.1°C 26.0°F-3.3°C 85% 2.8 mph SE4.5 kmh SE 5.0 mph8.0 kmh 29.50 in999.0 mb 0.00 in0.0 mm 0.00 in0.0 mm 0.00 in0.0 mm
06:21 AM 30.0°F-1.1°C 26.0°F-3.3°C 85% Calm Calm 5.0 mph8.0 kmh 29.50 in999.0 mb 0.00 in0.0 mm 0.00 in0.0 mm 0.00 in0.0 mm
06:22 AM 30.0°F-1.1°C 26.0°F-3.3°C 85% Calm Calm -- 29.50 in999.0 mb 0.00 in0.0 mm 0.00 in0.0 mm 0.00 in0.0 mm
06:23 AM 30.0°F-1.1°C 26.0°F-3.3°C 85% 0.7 mph SE1.1 kmh SE 4.0 mph6.4 kmh 29.50 in999.0 mb 0.00 in0.0 mm 0.00 in0.0 mm 0.00 in0.0 mm
06:24 AM 30.0°F-1.1°C 26.0°F-3.3°C 85% 2.7 mph SE4.3 kmh SE 7.0 mph11.3 kmh 29.50 in999.0 mb 0.00 in0.0 mm 0.00 in0.0 mm 0.00 in0.0 mm
06:25 AM 30.0°F-1.1°C 26.0°F-3.3°C 85% 2.8 mph SE4.5 kmh SE 7.0 mph11.3 kmh 29.51 in999.3 mb 0.00 in0.0 mm 0.00 in0.0 mm 0.00 in0.0 mm
06:26 AM 30.0°F-1.1°C 25.8°F-3.4°C 84% 2.4 mph SE3.9 kmh SE 4.0 mph6.4 kmh 29.50 in999.0 mb 0.00 in0.0 mm 0.00 in0.0 mm 0.00 in0.0 mm
06:27 AM 30.0°F-1.1°C 25.8°F-3.4°C 84% Calm Calm 4.0 mph6.4 kmh 29.51 in999.3 mb 0.00 in0.0 mm 0.00 in0.0 mm 0.00 in0.0 mm
06:28 AM 30.0°F-1.1°C 26.0°F-3.3°C 85% Calm Calm -- 29.51 in999.3 mb 0.00 in0.0 mm 0.00 in0.0 mm 0.00 in0.0 mm
06:29 AM 30.0°F-1.1°C 26.0°F-3.3°C 85% 0.4 mph SE0.6 kmh SE 4.0 mph6.4 kmh 29.50 in999.0 mb 0.00 in0.0 mm 0.00 in0.0 mm 0.00 in0.0 mm
06:30 AM 30.0°F-1.1°C 26.0°F-3.3°C 85% 1.6 mph SE2.6 kmh SE 4.0 mph6.4 kmh 29.50 in999.0 mb 0.00 in0.0 mm 0.00 in0.0 mm 0.00 in0.0 mm
06:31 AM 30.1°F-1.1°C 26.1°F-3.3°C 85% Calm Calm 3.0 mph4.8 kmh 29.50 in999.0 mb 0.00 in0.0 mm 0.00 in0.0 mm 0.00 in0.0 mm
06:32 AM 30.0°F-1.1°C 26.0°F-3.3°C 85% 0.6 mph SE1.0 kmh SE 4.0 mph6.4 kmh 29.50 in999.0 mb 0.00 in0.0 mm 0.00 in0.0 mm 0.00 in0.0 mm
06:33 AM 30.0°F-1.1°C 26.0°F-3.3°C 85% Calm Calm 4.0 mph6.4 kmh 29.50 in999.0 mb 0.00 in0.0 mm 0.00 in0.0 mm 0.00 in0.0 mm
06:34 AM 30.0°F-1.1°C 26.0°F-3.3°C 85% 1.6 mph SE2.6 kmh SE 3.0 mph4.8 kmh 29.50 in999.0 mb 0.00 in0.0 mm 0.00 in0.0 mm 0.00 in0.0 mm
06:35 AM 30.0°F-1.1°C 26.0°F-3.3°C 85% 3.1 mph SE5.0 kmh SE 7.0 mph11.3 kmh 29.50 in999.0 mb 0.00 in0.0 mm 0.00 in0.0 mm 0.00 in0.0 mm
06:36 AM 30.1°F-1.1°C 26.1°F-3.3°C 85% 3.7 mph SE6.0 kmh SE 7.0 mph11.3 kmh 29.50 in999.0 mb 0.00 in0.0 mm 0.00 in0.0 mm 0.00 in0.0 mm
06:37 AM 30.1°F-1.1°C 26.1°F-3.3°C 85% 2.3 mph SE3.7 kmh SE 7.0 mph11.3 kmh 29.51 in999.3 mb 0.00 in0.0 mm 0.00 in0.0 mm 0.00 in0.0 mm
06:38 AM 30.1°F-1.1°C 26.1°F-3.3°C 85% Calm Calm 7.0 mph11.3 kmh 29.50 in999.0 mb 0.00 in0.0 mm 0.00 in0.0 mm 0.00 in0.0 mm
06:39 AM 30.1°F-1.1°C 26.1°F-3.3°C 85% Calm Calm -- 29.50 in999.0 mb 0.00 in0.0 mm 0.00 in0.0 mm 0.00 in0.0 mm
06:40 AM 30.1°F-1.1°C 26.1°F-3.3°C 85% 3.0 mph SE4.8 kmh SE 7.0 mph11.3 kmh 29.50 in999.0 mb 0.00 in0.0 mm 0.00 in0.0 mm 0.00 in0.0 mm
06:41 AM 30.1°F-1.1°C 26.1°F-3.3°C 85% 3.3 mph SE5.3 kmh SE 7.0 mph11.3 kmh 29.50 in999.0 mb 0.00 in0.0 mm 0.00 in0.0 mm 0.00 in0.0 mm
06:42 AM 30.1°F-1.1°C 26.1°F-3.3°C 85% 3.2 mph SE5.1 kmh SE 7.0 mph11.3 kmh 29.50 in999.0 mb 0.00 in0.0 mm 0.00 in0.0 mm 0.00 in0.0 mm
06:43 AM 30.1°F-1.1°C 26.1°F-3.3°C 85% 1.5 mph SE2.4 kmh SE 7.0 mph11.3 kmh 29.50 in999.0 mb 0.00 in0.0 mm 0.00 in0.0 mm 0.00 in0.0 mm
06:44 AM 30.1°F-1.1°C 26.1°F-3.3°C 85% 0.8 mph SE1.3 kmh SE 4.0 mph6.4 kmh 29.50 in999.0 mb 0.00 in0.0 mm 0.00 in0.0 mm 0.00 in0.0 mm
06:45 AM 30.1°F-1.1°C 26.1°F-3.3°C 85% 1.4 mph SE2.3 kmh SE 4.0 mph6.4 kmh 29.50 in999.0 mb 0.00 in0.0 mm 0.00 in0.0 mm 0.00 in0.0 mm
06:46 AM 30.1°F-1.1°C 25.9°F-3.4°C 84% 3.5 mph SE5.6 kmh SE 7.0 mph11.3 kmh 29.50 in999.0 mb 0.00 in0.0 mm 0.00 in0.0 mm 0.00 in0.0 mm
06:47 AM 30.1°F-1.1°C 25.9°F-3.4°C 84% 3.3 mph SE5.3 kmh SE 8.0 mph12.9 kmh 29.50 in999.0 mb 0.00 in0.0 mm 0.00 in0.0 mm 0.00 in0.0 mm
06:48 AM 30.1°F-1.1°C 25.9°F-3.4°C 84% 3.4 mph SE5.5 kmh SE 8.0 mph12.9 kmh 29.50 in999.0 mb 0.00 in0.0 mm 0.00 in0.0 mm 0.00 in0.0 mm
06:49 AM 30.1°F-1.1°C 25.9°F-3.4°C 84% 4.0 mph SE6.4 kmh SE 7.0 mph11.3 kmh 29.49 in998.6 mb 0.00 in0.0 mm 0.00 in0.0 mm 0.00 in0.0 mm
06:50 AM 30.1°F-1.1°C 25.9°F-3.4°C 84% 2.0 mph SE3.2 kmh SE 7.0 mph11.3 kmh 29.49 in998.6 mb 0.00 in0.0 mm 0.00 in0.0 mm 0.00 in0.0 mm
06:51 AM 30.1°F-1.1°C 25.9°F-3.4°C 84% 3.4 mph SE5.5 kmh SE 8.0 mph12.9 kmh 29.49 in998.6 mb 0.00 in0.0 mm 0.00 in0.0 mm 0.00 in0.0 mm
06:52 AM 30.1°F-1.1°C 25.9°F-3.4°C 84% 2.6 mph SE4.2 kmh SE 8.0 mph12.9 kmh 29.49 in998.6 mb 0.00 in0.0 mm 0.00 in0.0 mm 0.00 in0.0 mm
06:53 AM 30.1°F-1.1°C 25.9°F-3.4°C 84% 2.4 mph SE3.9 kmh SE 5.0 mph8.0 kmh 29.49 in998.6 mb 0.00 in0.0 mm 0.00 in0.0 mm 0.00 in0.0 mm
06:54 AM 30.1°F-1.1°C 25.9°F-3.4°C 84% 1.3 mph SE2.1 kmh SE 5.0 mph8.0 kmh 29.49 in998.6 mb 0.00 in0.0 mm 0.00 in0.0 mm 0.00 in0.0 mm
06:55 AM 30.0°F-1.1°C 25.8°F-3.4°C 84% 1.3 mph SE2.1 kmh SE 3.0 mph4.8 kmh 29.49 in998.6 mb 0.00 in0.0 mm 0.00 in0.0 mm 0.00 in0.0 mm
06:56 AM 30.0°F-1.1°C 25.8°F-3.4°C 84% 1.2 mph SE1.9 kmh SE 3.0 mph4.8 kmh 29.49 in998.6 mb 0.00 in0.0 mm 0.00 in0.0 mm 0.00 in0.0 mm
06:57 AM 30.0°F-1.1°C 25.8°F-3.4°C 84% 1.5 mph SE2.4 kmh SE 5.0 mph8.0 kmh 29.49 in998.6 mb 0.00 in0.0 mm 0.00 in0.0 mm 0.00 in0.0 mm
06:58 AM 30.0°F-1.1°C 25.8°F-3.4°C 84% 0.3 mph SE0.5 kmh SE 5.0 mph8.0 kmh 29.49 in998.6 mb 0.00 in0.0 mm 0.00 in0.0 mm 0.00 in0.0 mm
06:59 AM 30.0°F-1.1°C 25.8°F-3.4°C 84% 1.4 mph SE2.3 kmh SE 7.0 mph11.3 kmh 29.49 in998.6 mb 0.00 in0.0 mm 0.00 in0.0 mm 0.00 in0.0 mm
07:00 AM 29.9°F-1.2°C 25.7°F-3.5°C 84% 3.1 mph SE5.0 kmh SE 7.0 mph11.3 kmh 29.49 in998.6 mb 0.00 in0.0 mm 0.00 in0.0 mm 0.00 in0.0 mm
07:01 AM 29.9°F-1.2°C 25.7°F-3.5°C 84% 0.3 mph SE0.5 kmh SE 5.0 mph8.0 kmh 29.49 in998.6 mb 0.00 in0.0 mm 0.00 in0.0 mm 0.00 in0.0 mm
07:02 AM 29.9°F-1.2°C 25.7°F-3.5°C 84% 2.1 mph SE3.4 kmh SE 5.0 mph8.0 kmh 29.50 in999.0 mb 0.00 in0.0 mm 0.00 in0.0 mm 0.00 in0.0 mm
07:03 AM 29.9°F-1.2°C 25.7°F-3.5°C 84% 2.4 mph SE3.9 kmh SE 7.0 mph11.3 kmh 29.50 in999.0 mb 0.00 in0.0 mm 0.00 in0.0 mm 0.00 in0.0 mm
07:04 AM 29.9°F-1.2°C 25.7°F-3.5°C 84% 2.5 mph SE4.0 kmh SE 7.0 mph11.3 kmh 29.49 in998.6 mb 0.00 in0.0 mm 0.00 in0.0 mm 0.00 in0.0 mm
07:05 AM 29.9°F-1.2°C 25.7°F-3.5°C 84% 0.8 mph SE1.3 kmh SE 5.0 mph8.0 kmh 29.49 in998.6 mb 0.00 in0.0 mm 0.00 in0.0 mm 0.00 in0.0 mm
07:06 AM 29.9°F-1.2°C 25.7°F-3.5°C 84% 1.4 mph SE2.3 kmh SE 5.0 mph8.0 kmh 29.50 in999.0 mb 0.00 in0.0 mm 0.00 in0.0 mm 0.00 in0.0 mm
07:07 AM 29.9°F-1.2°C 25.7°F-3.5°C 84% 0.4 mph SE0.6 kmh SE 5.0 mph8.0 kmh 29.50 in999.0 mb 0.00 in0.0 mm 0.00 in0.0 mm 0.00 in0.0 mm
07:08 AM 29.8°F-1.2°C 25.6°F-3.6°C 84% 1.3 mph SE2.1 kmh SE 4.0 mph6.4 kmh 29.50 in999.0 mb 0.00 in0.0 mm 0.00 in0.0 mm 0.00 in0.0 mm
07:09 AM 29.8°F-1.2°C 25.6°F-3.6°C 84% 0.2 mph SE0.3 kmh SE 4.0 mph6.4 kmh 29.50 in999.0 mb 0.00 in0.0 mm 0.00 in0.0 mm 0.00 in0.0 mm
07:10 AM 29.8°F-1.2°C 25.6°F-3.6°C 84% Calm Calm 1.0 mph1.6 kmh 29.50 in999.0 mb 0.00 in0.0 mm 0.00 in0.0 mm 0.00 in0.0 mm
07:11 AM 29.8°F-1.2°C 25.6°F-3.6°C 84% Calm Calm -- 29.50 in999.0 mb 0.00 in0.0 mm 0.00 in0.0 mm 0.00 in0.0 mm
07:12 AM 29.8°F-1.2°C 25.6°F-3.6°C 84% 0.8 mph SE1.3 kmh SE 4.0 mph6.4 kmh 29.50 in999.0 mb 0.00 in0.0 mm 0.00 in0.0 mm 0.00 in0.0 mm
07:13 AM 29.8°F-1.2°C 25.6°F-3.6°C 84% 1.1 mph SE1.8 kmh SE 4.0 mph6.4 kmh 29.50 in999.0 mb 0.00 in0.0 mm 0.00 in0.0 mm 0.00 in0.0 mm
07:14 AM 29.7°F-1.3°C 25.5°F-3.6°C 84% Calm Calm 2.0 mph3.2 kmh 29.49 in998.6 mb 0.00 in0.0 mm 0.00 in0.0 mm 0.00 in0.0 mm
07:15 AM 29.8°F-1.2°C 25.6°F-3.6°C 84% 0.1 mph SE0.2 kmh SE 1.0 mph1.6 kmh 29.49 in998.6 mb 0.00 in0.0 mm 0.00 in0.0 mm 0.00 in0.0 mm
07:16 AM 29.7°F-1.3°C 25.5°F-3.6°C 84% 6.6 mph SE10.6 kmh SE 11.0 mph17.7 kmh 29.49 in998.6 mb 0.00 in0.0 mm 0.00 in0.0 mm 0.00 in0.0 mm
07:17 AM 29.8°F-1.2°C 25.6°F-3.6°C 84% 2.3 mph SE3.7 kmh SE 11.0 mph17.7 kmh 29.49 in998.6 mb 0.00 in0.0 mm 0.00 in0.0 mm 0.00 in0.0 mm
07:18 AM 29.8°F-1.2°C 25.6°F-3.6°C 84% 0.5 mph SE0.8 kmh SE 4.0 mph6.4 kmh 29.49 in998.6 mb 0.00 in0.0 mm 0.00 in0.0 mm 0.00 in0.0 mm
07:19 AM 29.8°F-1.2°C 25.6°F-3.6°C 84% 2.8 mph SE4.5 kmh SE 7.0 mph11.3 kmh 29.49 in998.6 mb 0.00 in0.0 mm 0.00 in0.0 mm 0.00 in0.0 mm
07:20 AM 29.8°F-1.2°C 25.6°F-3.6°C 84% 3.7 mph SE6.0 kmh SE 7.0 mph11.3 kmh 29.49 in998.6 mb 0.00 in0.0 mm 0.00 in0.0 mm 0.00 in0.0 mm
07:21 AM 29.8°F-1.2°C 25.6°F-3.6°C 84% 1.6 mph SE2.6 kmh SE 5.0 mph8.0 kmh 29.49 in998.6 mb 0.00 in0.0 mm 0.00 in0.0 mm 0.00 in0.0 mm
07:22 AM 29.9°F-1.2°C 25.7°F-3.5°C 84% 0.6 mph SE1.0 kmh SE 3.0 mph4.8 kmh 29.49 in998.6 mb 0.00 in0.0 mm 0.00 in0.0 mm 0.00 in0.0 mm
07:23 AM 29.9°F-1.2°C 25.7°F-3.5°C 84% Calm Calm 3.0 mph4.8 kmh 29.49 in998.6 mb 0.00 in0.0 mm 0.00 in0.0 mm 0.00 in0.0 mm
07:24 AM 29.9°F-1.2°C 25.7°F-3.5°C 84% 2.5 mph SE4.0 kmh SE 8.0 mph12.9 kmh 29.49 in998.6 mb 0.00 in0.0 mm 0.00 in0.0 mm 0.00 in0.0 mm
07:25 AM 29.9°F-1.2°C 25.7°F-3.5°C 84% 2.0 mph SE3.2 kmh SE 8.0 mph12.9 kmh 29.50 in999.0 mb 0.00 in0.0 mm 0.00 in0.0 mm 0.00 in0.0 mm
07:26 AM 29.9°F-1.2°C 25.7°F-3.5°C 84% 1.3 mph SE2.1 kmh SE 4.0 mph6.4 kmh 29.49 in998.6 mb 0.00 in0.0 mm 0.00 in0.0 mm 0.00 in0.0 mm
07:27 AM 29.9°F-1.2°C 25.7°F-3.5°C 84% 0.2 mph SE0.3 kmh SE 4.0 mph6.4 kmh 29.49 in998.6 mb 0.00 in0.0 mm 0.00 in0.0 mm 0.00 in0.0 mm
07:28 AM 30.0°F-1.1°C 25.8°F-3.4°C 84% Calm Calm 1.0 mph1.6 kmh 29.50 in999.0 mb 0.00 in0.0 mm 0.00 in0.0 mm 0.00 in0.0 mm
07:29 AM 30.0°F-1.1°C 26.0°F-3.3°C 85% 2.6 mph SE4.2 kmh SE 5.0 mph8.0 kmh 29.50 in999.0 mb 0.00 in0.0 mm 0.00 in0.0 mm 0.00 in0.0 mm
07:30 AM 30.0°F-1.1°C 26.0°F-3.3°C 85% 1.0 mph SE1.6 kmh SE 5.0 mph8.0 kmh 29.50 in999.0 mb 0.00 in0.0 mm 0.00 in0.0 mm 0.00 in0.0 mm
07:31 AM 30.0°F-1.1°C 26.0°F-3.3°C 85% 1.3 mph SE2.1 kmh SE 7.0 mph11.3 kmh 29.50 in999.0 mb 0.00 in0.0 mm 0.00 in0.0 mm 0.00 in0.0 mm
07:32 AM 30.0°F-1.1°C 26.0°F-3.3°C 85% 1.8 mph SE2.9 kmh SE 8.0 mph12.9 kmh 29.50 in999.0 mb 0.00 in0.0 mm 0.00 in0.0 mm 0.00 in0.0 mm
07:33 AM 30.0°F-1.1°C 26.0°F-3.3°C 85% Calm Calm 5.0 mph8.0 kmh 29.50 in999.0 mb 0.00 in0.0 mm 0.00 in0.0 mm 0.00 in0.0 mm
07:34 AM 30.0°F-1.1°C 26.0°F-3.3°C 85% 1.9 mph SE3.1 kmh SE 3.0 mph4.8 kmh 29.50 in999.0 mb 0.00 in0.0 mm 0.00 in0.0 mm 0.00 in0.0 mm
07:35 AM 30.1°F-1.1°C 26.1°F-3.3°C 85% 1.3 mph SE2.1 kmh SE 4.0 mph6.4 kmh 29.50 in999.0 mb 0.00 in0.0 mm 0.00 in0.0 mm 0.00 in0.0 mm
07:36 AM 30.0°F-1.1°C 25.8°F-3.4°C 84% Calm Calm 4.0 mph6.4 kmh 29.50 in999.0 mb 0.00 in0.0 mm 0.00 in0.0 mm 0.00 in0.0 mm
07:37 AM 30.1°F-1.1°C 26.1°F-3.3°C 85% 3.2 mph SE5.1 kmh SE 8.0 mph12.9 kmh 29.50 in999.0 mb 0.00 in0.0 mm 0.00 in0.0 mm 0.00 in0.0 mm
07:38 AM 30.1°F-1.1°C 26.1°F-3.3°C 85% 3.9 mph SE6.3 kmh SE 8.0 mph12.9 kmh 29.50 in999.0 mb 0.00 in0.0 mm 0.00 in0.0 mm 0.00 in0.0 mm
07:39 AM 30.1°F-1.1°C 25.9°F-3.4°C 84% 2.5 mph SE4.0 kmh SE 8.0 mph12.9 kmh 29.50 in999.0 mb 0.00 in0.0 mm 0.00 in0.0 mm 0.00 in0.0 mm
07:40 AM 30.1°F-1.1°C 25.9°F-3.4°C 84% 1.1 mph SE1.8 kmh SE 4.0 mph6.4 kmh 29.50 in999.0 mb 0.00 in0.0 mm 0.00 in0.0 mm 0.00 in0.0 mm
07:41 AM 30.1°F-1.1°C 25.9°F-3.4°C 84% 3.3 mph SE5.3 kmh SE 5.0 mph8.0 kmh 29.50 in999.0 mb 0.00 in0.0 mm 0.00 in0.0 mm 0.00 in0.0 mm
07:42 AM 30.1°F-1.1°C 25.9°F-3.4°C 84% 2.3 mph SE3.7 kmh SE 5.0 mph8.0 kmh 29.50 in999.0 mb 0.00 in0.0 mm 0.00 in0.0 mm 0.00 in0.0 mm
07:43 AM 30.1°F-1.1°C 25.9°F-3.4°C 84% 3.1 mph SE5.0 kmh SE 7.0 mph11.3 kmh 29.50 in999.0 mb 0.00 in0.0 mm 0.00 in0.0 mm 0.00 in0.0 mm
07:44 AM 30.1°F-1.1°C 25.9°F-3.4°C 84% 1.3 mph SE2.1 kmh SE 7.0 mph11.3 kmh 29.50 in999.0 mb 0.00 in0.0 mm 0.00 in0.0 mm 0.00 in0.0 mm
07:45 AM 30.1°F-1.1°C 25.9°F-3.4°C 84% 2.8 mph SE4.5 kmh SE 5.0 mph8.0 kmh 29.50 in999.0 mb 0.00 in0.0 mm 0.00 in0.0 mm 0.00 in0.0 mm
07:46 AM 30.1°F-1.1°C 25.9°F-3.4°C 84% 3.2 mph SE5.1 kmh SE 5.0 mph8.0 kmh 29.50 in999.0 mb 0.00 in0.0 mm 0.00 in0.0 mm 0.00 in0.0 mm
07:47 AM 30.1°F-1.1°C 25.9°F-3.4°C 84% 0.8 mph SE1.3 kmh SE 5.0 mph8.0 kmh 29.50 in999.0 mb 0.00 in0.0 mm 0.00 in0.0 mm 0.00 in0.0 mm
07:48 AM 30.1°F-1.1°C 25.9°F-3.4°C 84% 0.3 mph SE0.5 kmh SE 3.0 mph4.8 kmh 29.50 in999.0 mb 0.00 in0.0 mm 0.00 in0.0 mm 0.00 in0.0 mm
07:49 AM 30.1°F-1.1°C 26.1°F-3.3°C 85% 0.1 mph SE0.2 kmh SE 3.0 mph4.8 kmh 29.50 in999.0 mb 0.00 in0.0 mm 0.00 in0.0 mm 0.00 in0.0 mm
07:50 AM 30.1°F-1.1°C 25.9°F-3.4°C 84% Calm Calm 1.0 mph1.6 kmh 29.50 in999.0 mb 0.00 in0.0 mm 0.00 in0.0 mm 0.00 in0.0 mm
07:51 AM 30.1°F-1.1°C 26.1°F-3.3°C 85% Calm Calm -- 29.50 in999.0 mb 0.00 in0.0 mm 0.00 in0.0 mm 0.00 in0.0 mm
07:52 AM 30.1°F-1.1°C 26.1°F-3.3°C 85% Calm Calm -- 29.50 in999.0 mb 0.00 in0.0 mm 0.00 in0.0 mm 0.00 in0.0 mm
07:53 AM 30.1°F-1.1°C 26.1°F-3.3°C 85% Calm Calm -- 29.49 in998.6 mb 0.00 in0.0 mm 0.00 in0.0 mm 0.00 in0.0 mm
07:54 AM 30.1°F-1.1°C 26.1°F-3.3°C 85% 0.3 mph SE0.5 kmh SE 2.0 mph3.2 kmh 29.49 in998.6 mb 0.00 in0.0 mm 0.00 in0.0 mm 0.00 in0.0 mm
07:55 AM 30.2°F-1.0°C 26.2°F-3.2°C 85% 0.9 mph SE1.4 kmh SE 5.0 mph8.0 kmh 29.48 in998.3 mb 0.00 in0.0 mm 0.00 in0.0 mm 0.00 in0.0 mm
07:56 AM 30.2°F-1.0°C 26.2°F-3.2°C 85% 1.5 mph SE2.4 kmh SE 5.0 mph8.0 kmh 29.48 in998.3 mb 0.00 in0.0 mm 0.00 in0.0 mm 0.00 in0.0 mm
07:57 AM 30.2°F-1.0°C 26.2°F-3.2°C 85% 0.6 mph SE1.0 kmh SE 5.0 mph8.0 kmh 29.48 in998.3 mb 0.00 in0.0 mm 0.00 in0.0 mm 0.00 in0.0 mm
07:58 AM 30.2°F-1.0°C 26.2°F-3.2°C 85% 3.3 mph SE5.3 kmh SE 5.0 mph8.0 kmh 29.48 in998.3 mb 0.00 in0.0 mm 0.00 in0.0 mm 0.00 in0.0 mm
07:59 AM 30.2°F-1.0°C 26.2°F-3.2°C 85% 0.5 mph SE0.8 kmh SE 5.0 mph8.0 kmh 29.48 in998.3 mb 0.00 in0.0 mm 0.00 in0.0 mm 0.00 in0.0 mm
08:00 AM 30.2°F-1.0°C 26.2°F-3.2°C 85% 1.8 mph SE2.9 kmh SE 8.0 mph12.9 kmh 29.48 in998.3 mb 0.00 in0.0 mm 0.00 in0.0 mm 0.00 in0.0 mm
08:01 AM 30.2°F-1.0°C 26.2°F-3.2°C 85% 2.2 mph SE3.5 kmh SE 8.0 mph12.9 kmh 29.48 in998.3 mb 0.00 in0.0 mm 0.00 in0.0 mm 0.00 in0.0 mm
08:02 AM 30.2°F-1.0°C 26.2°F-3.2°C 85% 1.5 mph SE2.4 kmh SE 5.0 mph8.0 kmh 29.48 in998.3 mb 0.00 in0.0 mm 0.00 in0.0 mm 0.00 in0.0 mm
08:03 AM 30.3°F-0.9°C 26.3°F-3.2°C 85% 0.5 mph SE0.8 kmh SE 5.0 mph8.0 kmh 29.48 in998.3 mb 0.00 in0.0 mm 0.00 in0.0 mm 0.00 in0.0 mm
08:04 AM 30.2°F-1.0°C 26.2°F-3.2°C 85% Calm Calm 2.0 mph3.2 kmh 29.48 in998.3 mb 0.00 in0.0 mm 0.00 in0.0 mm 0.00 in0.0 mm
08:05 AM 30.2°F-1.0°C 26.2°F-3.2°C 85% 2.2 mph SE3.5 kmh SE 3.0 mph4.8 kmh 29.48 in998.3 mb 0.00 in0.0 mm 0.00 in0.0 mm 0.00 in0.0 mm
08:06 AM 30.3°F-0.9°C 26.3°F-3.2°C 85% Calm Calm 3.0 mph4.8 kmh 29.48 in998.3 mb 0.00 in0.0 mm 0.00 in0.0 mm 0.00 in0.0 mm
08:07 AM 30.3°F-0.9°C 26.3°F-3.2°C 85% 2.1 mph SE3.4 kmh SE 4.0 mph6.4 kmh 29.48 in998.3 mb 0.00 in0.0 mm 0.00 in0.0 mm 0.00 in0.0 mm
08:08 AM 30.3°F-0.9°C 26.3°F-3.2°C 85% 4.3 mph SE6.9 kmh SE 8.0 mph12.9 kmh 29.48 in998.3 mb 0.00 in0.0 mm 0.00 in0.0 mm 0.00 in0.0 mm
08:09 AM 30.3°F-0.9°C 26.3°F-3.2°C 85% 2.4 mph SE3.9 kmh SE 8.0 mph12.9 kmh 29.48 in998.3 mb 0.00 in0.0 mm 0.00 in0.0 mm 0.00 in0.0 mm
08:10 AM 30.3°F-0.9°C 26.1°F-3.3°C 84% 3.1 mph SE5.0 kmh SE 4.0 mph6.4 kmh 29.48 in998.3 mb 0.00 in0.0 mm 0.00 in0.0 mm 0.00 in0.0 mm
08:11 AM 30.3°F-0.9°C 26.1°F-3.3°C 84% 0.5 mph SE0.8 kmh SE 4.0 mph6.4 kmh 29.48 in998.3 mb 0.00 in0.0 mm 0.00 in0.0 mm 0.00 in0.0 mm
08:12 AM 30.3°F-0.9°C 26.1°F-3.3°C 84% 1.8 mph SE2.9 kmh SE 4.0 mph6.4 kmh 29.48 in998.3 mb 0.00 in0.0 mm 0.00 in0.0 mm 0.00 in0.0 mm
08:13 AM 30.3°F-0.9°C 26.1°F-3.3°C 84% 3.4 mph SE5.5 kmh SE 5.0 mph8.0 kmh 29.48 in998.3 mb 0.00 in0.0 mm 0.00 in0.0 mm 0.00 in0.0 mm
08:14 AM 30.3°F-0.9°C 26.1°F-3.3°C 84% 1.8 mph SE2.9 kmh SE 5.0 mph8.0 kmh 29.48 in998.3 mb 0.00 in0.0 mm 0.00 in0.0 mm 0.00 in0.0 mm
08:15 AM 30.3°F-0.9°C 26.1°F-3.3°C 84% 3.6 mph SE5.8 kmh SE 9.0 mph14.5 kmh 29.48 in998.3 mb 0.00 in0.0 mm 0.00 in0.0 mm 0.00 in0.0 mm
08:16 AM 30.3°F-0.9°C 26.1°F-3.3°C 84% 6.5 mph SE10.5 kmh SE 9.0 mph14.5 kmh 29.48 in998.3 mb 0.00 in0.0 mm 0.00 in0.0 mm 0.00 in0.0 mm
08:17 AM 30.3°F-0.9°C 26.1°F-3.3°C 84% 2.2 mph SE3.5 kmh SE 9.0 mph14.5 kmh 29.48 in998.3 mb 0.00 in0.0 mm 0.00 in0.0 mm 0.00 in0.0 mm
08:18 AM 30.3°F-0.9°C 26.1°F-3.3°C 84% 2.7 mph SE4.3 kmh SE 4.0 mph6.4 kmh 29.48 in998.3 mb 0.00 in0.0 mm 0.00 in0.0 mm 0.00 in0.0 mm
08:19 AM 30.3°F-0.9°C 26.1°F-3.3°C 84% 5.1 mph ESE8.2 kmh ESE 8.0 mph12.9 kmh 29.48 in998.3 mb 0.00 in0.0 mm 0.00 in0.0 mm 0.00 in0.0 mm
08:20 AM 30.3°F-0.9°C 26.1°F-3.3°C 84% 1.8 mph ESE2.9 kmh ESE 8.0 mph12.9 kmh 29.48 in998.3 mb 0.00 in0.0 mm 0.00 in0.0 mm 0.00 in0.0 mm
08:21 AM 30.3°F-0.9°C 26.1°F-3.3°C 84% 3.4 mph ESE5.5 kmh ESE 6.0 mph9.7 kmh 29.47 in998.0 mb 0.00 in0.0 mm 0.00 in0.0 mm 0.00 in0.0 mm
08:22 AM 30.3°F-0.9°C 26.1°F-3.3°C 84% 2.5 mph ESE4.0 kmh ESE 6.0 mph9.7 kmh 29.47 in998.0 mb 0.00 in0.0 mm 0.00 in0.0 mm 0.00 in0.0 mm
08:23 AM 30.3°F-0.9°C 26.1°F-3.3°C 84% 0.6 mph ESE1.0 kmh ESE 6.0 mph9.7 kmh 29.47 in998.0 mb 0.00 in0.0 mm 0.00 in0.0 mm 0.00 in0.0 mm
08:24 AM 30.3°F-0.9°C 26.1°F-3.3°C 84% 0.4 mph ESE0.6 kmh ESE 4.0 mph6.4 kmh 29.48 in998.3 mb 0.00 in0.0 mm 0.00 in0.0 mm 0.00 in0.0 mm
08:25 AM 30.3°F-0.9°C 26.1°F-3.3°C 84% 0.9 mph ESE1.4 kmh ESE 4.0 mph6.4 kmh 29.48 in998.3 mb 0.00 in0.0 mm 0.00 in0.0 mm 0.00 in0.0 mm
08:26 AM 30.3°F-0.9°C 26.1°F-3.3°C 84% 1.3 mph ESE2.1 kmh ESE 6.0 mph9.7 kmh 29.48 in998.3 mb 0.00 in0.0 mm 0.00 in0.0 mm 0.00 in0.0 mm
08:27 AM 30.3°F-0.9°C 26.1°F-3.3°C 84% 3.2 mph ESE5.1 kmh ESE 8.0 mph12.9 kmh 29.47 in998.0 mb 0.00 in0.0 mm 0.00 in0.0 mm 0.00 in0.0 mm
08:28 AM 30.3°F-0.9°C 26.1°F-3.3°C 84% 3.1 mph ESE5.0 kmh ESE 10.0 mph16.1 kmh 29.47 in998.0 mb 0.00 in0.0 mm 0.00 in0.0 mm 0.00 in0.0 mm
08:29 AM 30.3°F-0.9°C 26.1°F-3.3°C 84% 2.2 mph ESE3.5 kmh ESE 10.0 mph16.1 kmh 29.47 in998.0 mb 0.00 in0.0 mm 0.00 in0.0 mm 0.00 in0.0 mm
08:30 AM 30.4°F-0.9°C 26.2°F-3.2°C 84% 0.4 mph ESE0.6 kmh ESE 4.0 mph6.4 kmh 29.48 in998.3 mb 0.00 in0.0 mm 0.00 in0.0 mm 0.00 in0.0 mm
08:31 AM 30.3°F-0.9°C 26.1°F-3.3°C 84% Calm Calm 3.0 mph4.8 kmh 29.48 in998.3 mb 0.00 in0.0 mm 0.00 in0.0 mm 0.00 in0.0 mm
08:32 AM 30.4°F-0.9°C 26.2°F-3.2°C 84% 0.5 mph ESE0.8 kmh ESE 3.0 mph4.8 kmh 29.49 in998.6 mb 0.00 in0.0 mm 0.00 in0.0 mm 0.00 in0.0 mm
08:33 AM 30.4°F-0.9°C 26.2°F-3.2°C 84% 2.1 mph ESE3.4 kmh ESE 7.0 mph11.3 kmh 29.48 in998.3 mb 0.00 in0.0 mm 0.00 in0.0 mm 0.00 in0.0 mm
08:34 AM 30.4°F-0.9°C 26.2°F-3.2°C 84% 1.0 mph ESE1.6 kmh ESE 7.0 mph11.3 kmh 29.48 in998.3 mb 0.00 in0.0 mm 0.00 in0.0 mm 0.00 in0.0 mm
08:35 AM 30.4°F-0.9°C 26.2°F-3.2°C 84% 1.4 mph ESE2.3 kmh ESE 4.0 mph6.4 kmh 29.48 in998.3 mb 0.00 in0.0 mm 0.00 in0.0 mm 0.00 in0.0 mm
08:36 AM 30.4°F-0.9°C 26.2°F-3.2°C 84% 0.4 mph ESE0.6 kmh ESE 3.0 mph4.8 kmh 29.48 in998.3 mb 0.00 in0.0 mm 0.00 in0.0 mm 0.00 in0.0 mm
08:37 AM 30.4°F-0.9°C 26.2°F-3.2°C 84% Calm Calm 2.0 mph3.2 kmh 29.48 in998.3 mb 0.00 in0.0 mm 0.00 in0.0 mm 0.00 in0.0 mm
08:38 AM 30.5°F-0.8°C 26.3°F-3.2°C 84% Calm Calm -- 29.49 in998.6 mb 0.00 in0.0 mm 0.00 in0.0 mm 0.00 in0.0 mm
08:39 AM 30.5°F-0.8°C 26.3°F-3.2°C 84% Calm Calm -- 29.50 in999.0 mb 0.00 in0.0 mm 0.00 in0.0 mm 0.00 in0.0 mm
08:40 AM 30.5°F-0.8°C 26.3°F-3.2°C 84% Calm Calm -- 29.50 in999.0 mb 0.00 in0.0 mm 0.00 in0.0 mm 0.00 in0.0 mm
08:41 AM 30.5°F-0.8°C 26.3°F-3.2°C 84% 0.8 mph ESE1.3 kmh ESE 7.0 mph11.3 kmh 29.50 in999.0 mb 0.00 in0.0 mm 0.00 in0.0 mm 0.00 in0.0 mm
08:42 AM 30.5°F-0.8°C 26.3°F-3.2°C 84% 3.9 mph ESE6.3 kmh ESE 7.0 mph11.3 kmh 29.49 in998.6 mb 0.00 in0.0 mm 0.00 in0.0 mm 0.00 in0.0 mm
08:43 AM 30.6°F-0.8°C 26.4°F-3.1°C 84% 1.6 mph ESE2.6 kmh ESE 7.0 mph11.3 kmh 29.50 in999.0 mb 0.00 in0.0 mm 0.00 in0.0 mm 0.00 in0.0 mm
08:44 AM 30.6°F-0.8°C 26.4°F-3.1°C 84% Calm Calm 4.0 mph6.4 kmh 29.50 in999.0 mb 0.00 in0.0 mm 0.00 in0.0 mm 0.00 in0.0 mm
08:45 AM 30.6°F-0.8°C 26.4°F-3.1°C 84% Calm Calm -- 29.50 in999.0 mb 0.00 in0.0 mm 0.00 in0.0 mm 0.00 in0.0 mm
08:46 AM 30.6°F-0.8°C 26.4°F-3.1°C 84% Calm Calm -- 29.50 in999.0 mb 0.00 in0.0 mm 0.00 in0.0 mm 0.00 in0.0 mm
08:47 AM 30.6°F-0.8°C 26.4°F-3.1°C 84% 2.6 mph ESE4.2 kmh ESE 6.0 mph9.7 kmh 29.50 in999.0 mb 0.00 in0.0 mm 0.00 in0.0 mm 0.00 in0.0 mm
08:48 AM 30.6°F-0.8°C 26.4°F-3.1°C 84% 3.4 mph ESE5.5 kmh ESE 6.0 mph9.7 kmh 29.50 in999.0 mb 0.00 in0.0 mm 0.00 in0.0 mm 0.00 in0.0 mm
08:49 AM 30.6°F-0.8°C 26.4°F-3.1°C 84% 2.9 mph ESE4.7 kmh ESE 7.0 mph11.3 kmh 29.50 in999.0 mb 0.00 in0.0 mm 0.00 in0.0 mm 0.00 in0.0 mm
08:50 AM 30.7°F-0.7°C 26.4°F-3.1°C 84% Calm Calm 7.0 mph11.3 kmh 29.50 in999.0 mb 0.00 in0.0 mm 0.00 in0.0 mm 0.00 in0.0 mm
08:51 AM 30.7°F-0.7°C 26.4°F-3.1°C 84% 4.6 mph ESE7.4 kmh ESE 8.0 mph12.9 kmh 29.50 in999.0 mb 0.00 in0.0 mm 0.00 in0.0 mm 0.00 in0.0 mm
08:52 AM 30.7°F-0.7°C 26.4°F-3.1°C 84% 3.2 mph ESE5.1 kmh ESE 8.0 mph12.9 kmh 29.50 in999.0 mb 0.00 in0.0 mm 0.00 in0.0 mm 0.00 in0.0 mm
08:53 AM 30.7°F-0.7°C 26.4°F-3.1°C 84% 2.5 mph ESE4.0 kmh ESE 6.0 mph9.7 kmh 29.50 in999.0 mb 0.00 in0.0 mm 0.00 in0.0 mm 0.00 in0.0 mm
08:54 AM 30.7°F-0.7°C 26.4°F-3.1°C 84% 3.0 mph ESE4.8 kmh ESE 8.0 mph12.9 kmh 29.50 in999.0 mb 0.00 in0.0 mm 0.00 in0.0 mm 0.00 in0.0 mm
08:55 AM 30.8°F-0.7°C 26.5°F-3.1°C 84% 4.1 mph ESE6.6 kmh ESE 9.0 mph14.5 kmh 29.50 in999.0 mb 0.00 in0.0 mm 0.00 in0.0 mm 0.00 in0.0 mm
08:56 AM 30.8°F-0.7°C 26.5°F-3.1°C 84% 1.5 mph ESE2.4 kmh ESE 9.0 mph14.5 kmh 29.50 in999.0 mb 0.00 in0.0 mm 0.00 in0.0 mm 0.00 in0.0 mm
08:57 AM 30.8°F-0.7°C 26.5°F-3.1°C 84% Calm Calm 3.0 mph4.8 kmh 29.50 in999.0 mb 0.00 in0.0 mm 0.00 in0.0 mm 0.00 in0.0 mm
08:58 AM 30.8°F-0.7°C 26.5°F-3.1°C 84% Calm Calm -- 29.50 in999.0 mb 0.00 in0.0 mm 0.00 in0.0 mm 0.00 in0.0 mm
08:59 AM 30.9°F-0.6°C 26.6°F-3.0°C 84% 3.3 mph ESE5.3 kmh ESE 7.0 mph11.3 kmh 29.50 in999.0 mb 0.00 in0.0 mm 0.00 in0.0 mm 0.00 in0.0 mm
09:00 AM 30.8°F-0.7°C 26.5°F-3.1°C 84% 0.2 mph ESE0.3 kmh ESE 7.0 mph11.3 kmh 29.50 in999.0 mb 0.00 in0.0 mm 0.00 in0.0 mm 0.00 in0.0 mm
09:01 AM 30.9°F-0.6°C 26.6°F-3.0°C 84% Calm Calm 2.0 mph3.2 kmh 29.50 in999.0 mb 0.00 in0.0 mm 0.00 in0.0 mm 0.00 in0.0 mm
09:02 AM 30.9°F-0.6°C 26.6°F-3.0°C 84% Calm Calm -- 29.50 in999.0 mb 0.00 in0.0 mm 0.00 in0.0 mm 0.00 in0.0 mm
09:03 AM 30.9°F-0.6°C 26.6°F-3.0°C 84% Calm Calm -- 29.49 in998.6 mb 0.00 in0.0 mm 0.00 in0.0 mm 0.00 in0.0 mm
09:04 AM 31.0°F-0.6°C 26.7°F-2.9°C 84% Calm Calm -- 29.49 in998.6 mb 0.00 in0.0 mm 0.00 in0.0 mm 0.00 in0.0 mm
09:05 AM 31.0°F-0.6°C 26.7°F-2.9°C 84% 0.8 mph ESE1.3 kmh ESE 3.0 mph4.8 kmh 29.49 in998.6 mb 0.00 in0.0 mm 0.00 in0.0 mm 0.00 in0.0 mm
09:06 AM 31.0°F-0.6°C 26.7°F-2.9°C 84% 0.8 mph ESE1.3 kmh ESE 7.0 mph11.3 kmh 29.49 in998.6 mb 0.00 in0.0 mm 0.00 in0.0 mm 0.00 in0.0 mm
09:07 AM 31.0°F-0.6°C 26.7°F-2.9°C 84% 3.5 mph ESE5.6 kmh ESE 9.0 mph14.5 kmh 29.49 in998.6 mb 0.00 in0.0 mm 0.00 in0.0 mm 0.00 in0.0 mm
09:08 AM 31.0°F-0.6°C 26.7°F-2.9°C 84% Calm Calm 9.0 mph14.5 kmh 29.49 in998.6 mb 0.00 in0.0 mm 0.00 in0.0 mm 0.00 in0.0 mm
09:09 AM 31.1°F-0.5°C 26.8°F-2.9°C 84% 2.8 mph ESE4.5 kmh ESE 8.0 mph12.9 kmh 29.50 in999.0 mb 0.00 in0.0 mm 0.00 in0.0 mm 0.00 in0.0 mm
09:10 AM 31.1°F-0.5°C 26.8°F-2.9°C 84% 1.5 mph ESE2.4 kmh ESE 8.0 mph12.9 kmh 29.50 in999.0 mb 0.00 in0.0 mm 0.00 in0.0 mm 0.00 in0.0 mm
09:11 AM 31.1°F-0.5°C 26.8°F-2.9°C 84% 1.7 mph ESE2.7 kmh ESE 6.0 mph9.7 kmh 29.49 in998.6 mb 0.00 in0.0 mm 0.00 in0.0 mm 0.00 in0.0 mm
09:12 AM 31.1°F-0.5°C 26.8°F-2.9°C 84% 2.4 mph ESE3.9 kmh ESE 6.0 mph9.7 kmh 29.49 in998.6 mb 0.00 in0.0 mm 0.00 in0.0 mm 0.00 in0.0 mm
09:13 AM 31.2°F-0.4°C 26.9°F-2.8°C 84% Calm Calm 6.0 mph9.7 kmh 29.50 in999.0 mb 0.00 in0.0 mm 0.00 in0.0 mm 0.00 in0.0 mm
09:14 AM 31.2°F-0.4°C 26.9°F-2.8°C 84% Calm Calm -- 29.50 in999.0 mb 0.00 in0.0 mm 0.00 in0.0 mm 0.00 in0.0 mm
09:15 AM 31.2°F-0.4°C 26.9°F-2.8°C 84% Calm Calm -- 29.50 in999.0 mb 0.00 in0.0 mm 0.00 in0.0 mm 0.00 in0.0 mm
09:16 AM 31.2°F-0.4°C 26.9°F-2.8°C 84% Calm Calm -- 29.50 in999.0 mb 0.00 in0.0 mm 0.00 in0.0 mm 0.00 in0.0 mm
09:17 AM 31.3°F-0.4°C 27.0°F-2.8°C 84% Calm Calm -- 29.49 in998.6 mb 0.00 in0.0 mm 0.00 in0.0 mm 0.00 in0.0 mm
09:18 AM 31.3°F-0.4°C 27.0°F-2.8°C 84% 3.2 mph ESE5.1 kmh ESE 10.0 mph16.1 kmh 29.49 in998.6 mb 0.00 in0.0 mm 0.00 in0.0 mm 0.00 in0.0 mm
09:19 AM 31.3°F-0.4°C 27.0°F-2.8°C 84% 6.7 mph SE10.8 kmh SE 11.0 mph17.7 kmh 29.49 in998.6 mb 0.00 in0.0 mm 0.00 in0.0 mm 0.00 in0.0 mm
09:20 AM 31.3°F-0.4°C 26.7°F-2.9°C 83% 3.3 mph SE5.3 kmh SE 11.0 mph17.7 kmh 29.49 in998.6 mb 0.00 in0.0 mm 0.00 in0.0 mm 0.00 in0.0 mm
09:21 AM 31.3°F-0.4°C 26.7°F-2.9°C 83% 3.0 mph SE4.8 kmh SE 5.0 mph8.0 kmh 29.49 in998.6 mb 0.00 in0.0 mm 0.00 in0.0 mm 0.00 in0.0 mm
09:22 AM 31.3°F-0.4°C 26.7°F-2.9°C 83% 1.8 mph SE2.9 kmh SE 5.0 mph8.0 kmh 29.49 in998.6 mb 0.00 in0.0 mm 0.00 in0.0 mm 0.00 in0.0 mm
09:23 AM 31.3°F-0.4°C 26.7°F-2.9°C 83% 1.6 mph SE2.6 kmh SE 5.0 mph8.0 kmh 29.49 in998.6 mb 0.00 in0.0 mm 0.00 in0.0 mm 0.00 in0.0 mm
09:24 AM 31.3°F-0.4°C 26.7°F-2.9°C 83% 0.4 mph SE0.6 kmh SE 5.0 mph8.0 kmh 29.49 in998.6 mb 0.00 in0.0 mm 0.00 in0.0 mm 0.00 in0.0 mm
09:25 AM 31.4°F-0.3°C 26.8°F-2.9°C 83% 1.9 mph SE3.1 kmh SE 4.0 mph6.4 kmh 29.49 in998.6 mb 0.00 in0.0 mm 0.00 in0.0 mm 0.00 in0.0 mm
09:26 AM 31.4°F-0.3°C 26.8°F-2.9°C 83% 1.9 mph SE3.1 kmh SE 4.0 mph6.4 kmh 29.49 in998.6 mb 0.00 in0.0 mm 0.00 in0.0 mm 0.00 in0.0 mm
09:27 AM 31.4°F-0.3°C 26.8°F-2.9°C 83% 1.5 mph SE2.4 kmh SE 5.0 mph8.0 kmh 29.49 in998.6 mb 0.00 in0.0 mm 0.00 in0.0 mm 0.00 in0.0 mm
09:28 AM 31.4°F-0.3°C 26.8°F-2.9°C 83% 4.5 mph SE7.2 kmh SE 10.0 mph16.1 kmh 29.49 in998.6 mb 0.00 in0.0 mm 0.00 in0.0 mm 0.00 in0.0 mm
09:29 AM 31.4°F-0.3°C 26.8°F-2.9°C 83% 5.5 mph SE8.9 kmh SE 10.0 mph16.1 kmh 29.49 in998.6 mb 0.00 in0.0 mm 0.00 in0.0 mm 0.00 in0.0 mm
09:30 AM 31.4°F-0.3°C 26.8°F-2.9°C 83% 2.8 mph SE4.5 kmh SE 9.0 mph14.5 kmh 29.49 in998.6 mb 0.00 in0.0 mm 0.00 in0.0 mm 0.00 in0.0 mm
09:31 AM 31.4°F-0.3°C 26.8°F-2.9°C 83% 2.6 mph SE4.2 kmh SE 5.0 mph8.0 kmh 29.49 in998.6 mb 0.00 in0.0 mm 0.00 in0.0 mm 0.00 in0.0 mm
09:32 AM 31.4°F-0.3°C 26.8°F-2.9°C 83% 2.6 mph SE4.2 kmh SE 5.0 mph8.0 kmh 29.49 in998.6 mb 0.00 in0.0 mm 0.00 in0.0 mm 0.00 in0.0 mm
09:33 AM 31.5°F-0.3°C 26.9°F-2.8°C 83% 0.8 mph SE1.3 kmh SE 5.0 mph8.0 kmh 29.49 in998.6 mb 0.00 in0.0 mm 0.00 in0.0 mm 0.00 in0.0 mm
09:34 AM 31.5°F-0.3°C 26.9°F-2.8°C 83% 1.3 mph SE2.1 kmh SE 4.0 mph6.4 kmh 29.49 in998.6 mb 0.00 in0.0 mm 0.00 in0.0 mm 0.00 in0.0 mm
09:35 AM 31.5°F-0.3°C 26.9°F-2.8°C 83% 0.5 mph SE0.8 kmh SE 4.0 mph6.4 kmh 29.49 in998.6 mb 0.00 in0.0 mm 0.00 in0.0 mm 0.00 in0.0 mm
09:36 AM 31.5°F-0.3°C 26.9°F-2.8°C 83% Calm Calm 3.0 mph4.8 kmh 29.49 in998.6 mb 0.00 in0.0 mm 0.00 in0.0 mm 0.00 in0.0 mm
09:37 AM 31.6°F-0.2°C 27.0°F-2.8°C 83% Calm Calm -- 29.49 in998.6 mb 0.00 in0.0 mm 0.00 in0.0 mm 0.00 in0.0 mm
09:38 AM 31.6°F-0.2°C 27.0°F-2.8°C 83% 2.1 mph SE3.4 kmh SE 5.0 mph8.0 kmh 29.49 in998.6 mb 0.00 in0.0 mm 0.00 in0.0 mm 0.00 in0.0 mm
09:39 AM 31.7°F-0.2°C 27.1°F-2.7°C 83% 4.5 mph SE7.2 kmh SE 8.0 mph12.9 kmh 29.50 in999.0 mb 0.00 in0.0 mm 0.00 in0.0 mm 0.00 in0.0 mm
09:40 AM 31.7°F-0.2°C 27.1°F-2.7°C 83% 0.6 mph SE1.0 kmh SE 8.0 mph12.9 kmh 29.50 in999.0 mb 0.00 in0.0 mm 0.00 in0.0 mm 0.00 in0.0 mm
09:41 AM 31.8°F-0.1°C 27.2°F-2.7°C 83% Calm Calm 3.0 mph4.8 kmh 29.49 in998.6 mb 0.00 in0.0 mm 0.00 in0.0 mm 0.00 in0.0 mm
09:42 AM 31.9°F-0.1°C 27.3°F-2.6°C 83% Calm Calm -- 29.49 in998.6 mb 0.00 in0.0 mm 0.00 in0.0 mm 0.00 in0.0 mm
09:43 AM 31.9°F-0.1°C 27.3°F-2.6°C 83% 3.1 mph SE5.0 kmh SE 5.0 mph8.0 kmh 29.49 in998.6 mb 0.00 in0.0 mm 0.00 in0.0 mm 0.00 in0.0 mm
09:44 AM 32.0°F0.0°C 27.4°F-2.6°C 83% 0.7 mph SE1.1 kmh SE 5.0 mph8.0 kmh 29.49 in998.6 mb 0.00 in0.0 mm 0.00 in0.0 mm 0.00 in0.0 mm
09:45 AM 32.0°F0.0°C 27.4°F-2.6°C 83% 1.2 mph SE1.9 kmh SE 4.0 mph6.4 kmh 29.50 in999.0 mb 0.00 in0.0 mm 0.00 in0.0 mm 0.00 in0.0 mm
09:46 AM 32.1°F0.1°C 27.5°F-2.5°C 83% 1.2 mph SE1.9 kmh SE 4.0 mph6.4 kmh 29.50 in999.0 mb 0.00 in0.0 mm 0.00 in0.0 mm 0.00 in0.0 mm
09:47 AM 32.1°F0.1°C 27.2°F-2.7°C 82% 4.1 mph SE6.6 kmh SE 9.0 mph14.5 kmh 29.50 in999.0 mb 0.00 in0.0 mm 0.00 in0.0 mm 0.00 in0.0 mm
09:48 AM 32.1°F0.1°C 27.2°F-2.7°C 82% 2.8 mph SE4.5 kmh SE 9.0 mph14.5 kmh 29.50 in999.0 mb 0.00 in0.0 mm 0.00 in0.0 mm 0.00 in0.0 mm
09:49 AM 32.2°F0.1°C 27.3°F-2.6°C 82% 0.5 mph SE0.8 kmh SE 7.0 mph11.3 kmh 29.50 in999.0 mb 0.00 in0.0 mm 0.00 in0.0 mm 0.00 in0.0 mm
09:50 AM 32.2°F0.1°C 27.3°F-2.6°C 82% 1.1 mph SE1.8 kmh SE 3.0 mph4.8 kmh 29.50 in999.0 mb 0.00 in0.0 mm 0.00 in0.0 mm 0.00 in0.0 mm
09:51 AM 32.3°F0.2°C 27.4°F-2.6°C 82% 2.5 mph SE4.0 kmh SE 7.0 mph11.3 kmh 29.50 in999.0 mb 0.00 in0.0 mm 0.00 in0.0 mm 0.00 in0.0 mm
09:52 AM 32.3°F0.2°C 27.4°F-2.6°C 82% 0.5 mph SE0.8 kmh SE 7.0 mph11.3 kmh 29.50 in999.0 mb 0.00 in0.0 mm 0.00 in0.0 mm 0.00 in0.0 mm
09:53 AM 32.3°F0.2°C 27.4°F-2.6°C 82% Calm Calm 3.0 mph4.8 kmh 29.50 in999.0 mb 0.00 in0.0 mm 0.00 in0.0 mm 0.00 in0.0 mm
09:54 AM 32.4°F0.2°C 27.5°F-2.5°C 82% 3.8 mph SE6.1 kmh SE 8.0 mph12.9 kmh 29.50 in999.0 mb 0.00 in0.0 mm 0.00 in0.0 mm 0.00 in0.0 mm
09:55 AM 32.4°F0.2°C 27.5°F-2.5°C 82% 5.9 mph SE9.5 kmh SE 10.0 mph16.1 kmh 29.50 in999.0 mb 0.00 in0.0 mm 0.00 in0.0 mm 0.00 in0.0 mm
09:56 AM 32.3°F0.2°C 27.1°F-2.7°C 81% 6.0 mph SE9.7 kmh SE 10.0 mph16.1 kmh 29.50 in999.0 mb 0.00 in0.0 mm 0.00 in0.0 mm 0.00 in0.0 mm
09:57 AM 32.3°F0.2°C 27.1°F-2.7°C 81% 4.6 mph SE7.4 kmh SE 9.0 mph14.5 kmh 29.50 in999.0 mb 0.00 in0.0 mm 0.00 in0.0 mm 0.00 in0.0 mm
09:58 AM 32.3°F0.2°C 27.1°F-2.7°C 81% 2.9 mph SE4.7 kmh SE 8.0 mph12.9 kmh 29.50 in999.0 mb 0.00 in0.0 mm 0.00 in0.0 mm 0.00 in0.0 mm
09:59 AM 32.3°F0.2°C 27.1°F-2.7°C 81% 1.9 mph SE3.1 kmh SE 10.0 mph16.1 kmh 29.50 in999.0 mb 0.00 in0.0 mm 0.00 in0.0 mm 0.00 in0.0 mm
10:00 AM 32.3°F0.2°C 27.1°F-2.7°C 81% 1.0 mph SE1.6 kmh SE 10.0 mph16.1 kmh 29.50 in999.0 mb 0.00 in0.0 mm 0.00 in0.0 mm 0.00 in0.0 mm
10:01 AM 32.3°F0.2°C 27.1°F-2.7°C 81% 3.6 mph SE5.8 kmh SE 8.0 mph12.9 kmh 29.50 in999.0 mb 0.00 in0.0 mm 0.00 in0.0 mm 0.00 in0.0 mm
10:02 AM 32.4°F0.2°C 27.2°F-2.7°C 81% 5.2 mph SE8.4 kmh SE 11.0 mph17.7 kmh 29.49 in998.6 mb 0.00 in0.0 mm 0.00 in0.0 mm 0.00 in0.0 mm
10:03 AM 32.4°F0.2°C 27.2°F-2.7°C 81% 3.6 mph SE5.8 kmh SE 11.0 mph17.7 kmh 29.50 in999.0 mb 0.00 in0.0 mm 0.00 in0.0 mm 0.00 in0.0 mm
10:04 AM 32.4°F0.2°C 27.2°F-2.7°C 81% 1.3 mph SE2.1 kmh SE 8.0 mph12.9 kmh 29.50 in999.0 mb 0.00 in0.0 mm 0.00 in0.0 mm 0.00 in0.0 mm
10:05 AM 32.4°F0.2°C 27.2°F-2.7°C 81% 4.3 mph SE6.9 kmh SE 8.0 mph12.9 kmh 29.50 in999.0 mb 0.00 in0.0 mm 0.00 in0.0 mm 0.00 in0.0 mm
10:06 AM 32.4°F0.2°C 27.2°F-2.7°C 81% 3.3 mph SE5.3 kmh SE 8.0 mph12.9 kmh 29.50 in999.0 mb 0.00 in0.0 mm 0.00 in0.0 mm 0.00 in0.0 mm
10:07 AM 32.4°F0.2°C 27.2°F-2.7°C 81% 4.2 mph SE6.8 kmh SE 9.0 mph14.5 kmh 29.50 in999.0 mb 0.00 in0.0 mm 0.00 in0.0 mm 0.00 in0.0 mm
10:08 AM 32.4°F0.2°C 27.2°F-2.7°C 81% 4.7 mph SE7.6 kmh SE 11.0 mph17.7 kmh 29.49 in998.6 mb 0.00 in0.0 mm 0.00 in0.0 mm 0.00 in0.0 mm
10:09 AM 32.4°F0.2°C 27.2°F-2.7°C 81% 7.6 mph SE12.2 kmh SE 12.0 mph19.3 kmh 29.50 in999.0 mb 0.00 in0.0 mm 0.00 in0.0 mm 0.00 in0.0 mm
10:10 AM 32.3°F0.2°C 26.8°F-2.9°C 80% 7.0 mph SE11.3 kmh SE 12.0 mph19.3 kmh 29.50 in999.0 mb 0.00 in0.0 mm 0.00 in0.0 mm 0.00 in0.0 mm
10:11 AM 32.3°F0.2°C 26.8°F-2.9°C 80% 5.5 mph SE8.9 kmh SE 12.0 mph19.3 kmh 29.49 in998.6 mb 0.00 in0.0 mm 0.00 in0.0 mm 0.00 in0.0 mm
10:12 AM 32.3°F0.2°C 26.8°F-2.9°C 80% 6.2 mph SE10.0 kmh SE 11.0 mph17.7 kmh 29.49 in998.6 mb 0.00 in0.0 mm 0.00 in0.0 mm 0.00 in0.0 mm
10:13 AM 32.3°F0.2°C 26.8°F-2.9°C 80% 5.2 mph SE8.4 kmh SE 10.0 mph16.1 kmh 29.49 in998.6 mb 0.00 in0.0 mm 0.00 in0.0 mm 0.00 in0.0 mm
10:14 AM 32.3°F0.2°C 26.8°F-2.9°C 80% 7.7 mph SE12.4 kmh SE 10.0 mph16.1 kmh 29.49 in998.6 mb 0.00 in0.0 mm 0.00 in0.0 mm 0.00 in0.0 mm
10:15 AM 32.3°F0.2°C 26.8°F-2.9°C 80% 7.5 mph SE12.1 kmh SE 10.0 mph16.1 kmh 29.49 in998.6 mb 0.00 in0.0 mm 0.00 in0.0 mm 0.00 in0.0 mm
10:16 AM 32.2°F0.1°C 26.7°F-2.9°C 80% 5.4 mph SE8.7 kmh SE 10.0 mph16.1 kmh 29.49 in998.6 mb 0.00 in0.0 mm 0.00 in0.0 mm 0.00 in0.0 mm
10:17 AM 32.2°F0.1°C 26.7°F-2.9°C 80% 5.7 mph SE9.2 kmh SE 9.0 mph14.5 kmh 29.49 in998.6 mb 0.00 in0.0 mm 0.00 in0.0 mm 0.00 in0.0 mm
10:18 AM 32.2°F0.1°C 26.7°F-2.9°C 80% 3.8 mph SE6.1 kmh SE 9.0 mph14.5 kmh 29.49 in998.6 mb 0.00 in0.0 mm 0.00 in0.0 mm 0.00 in0.0 mm
10:19 AM 32.3°F0.2°C 27.1°F-2.7°C 81% 7.5 mph SE12.1 kmh SE 13.0 mph20.9 kmh 29.49 in998.6 mb 0.00 in0.0 mm 0.00 in0.0 mm 0.00 in0.0 mm
10:20 AM 32.3°F0.2°C 26.8°F-2.9°C 80% 8.2 mph SE13.2 kmh SE 13.0 mph20.9 kmh 29.49 in998.6 mb 0.00 in0.0 mm 0.00 in0.0 mm 0.00 in0.0 mm
10:21 AM 32.3°F0.2°C 26.8°F-2.9°C 80% 2.7 mph SE4.3 kmh SE 13.0 mph20.9 kmh 29.49 in998.6 mb 0.00 in0.0 mm 0.00 in0.0 mm 0.00 in0.0 mm
10:22 AM 32.3°F0.2°C 26.8°F-2.9°C 80% 5.4 mph SE8.7 kmh SE 9.0 mph14.5 kmh 29.49 in998.6 mb 0.00 in0.0 mm 0.00 in0.0 mm 0.00 in0.0 mm
10:23 AM 32.3°F0.2°C 26.8°F-2.9°C 80% 4.7 mph SE7.6 kmh SE 9.0 mph14.5 kmh 29.49 in998.6 mb 0.00 in0.0 mm 0.00 in0.0 mm 0.00 in0.0 mm
10:24 AM 32.4°F0.2°C 26.9°F-2.8°C 80% 3.4 mph SE5.5 kmh SE 7.0 mph11.3 kmh 29.50 in999.0 mb 0.00 in0.0 mm 0.00 in0.0 mm 0.00 in0.0 mm
10:25 AM 32.4°F0.2°C 27.2°F-2.7°C 81% 3.4 mph SE5.5 kmh SE 8.0 mph12.9 kmh 29.50 in999.0 mb 0.00 in0.0 mm 0.00 in0.0 mm 0.00 in0.0 mm
10:26 AM 32.5°F0.3°C 27.3°F-2.6°C 81% 2.0 mph SE3.2 kmh SE 8.0 mph12.9 kmh 29.50 in999.0 mb 0.00 in0.0 mm 0.00 in0.0 mm 0.00 in0.0 mm
10:27 AM 32.6°F0.3°C 27.4°F-2.6°C 81% 5.5 mph SE8.9 kmh SE 11.0 mph17.7 kmh 29.50 in999.0 mb 0.00 in0.0 mm 0.00 in0.0 mm 0.00 in0.0 mm
10:28 AM 32.6°F0.3°C 27.1°F-2.7°C 80% 4.3 mph SE6.9 kmh SE 11.0 mph17.7 kmh 29.50 in999.0 mb 0.00 in0.0 mm 0.00 in0.0 mm 0.00 in0.0 mm
10:29 AM 32.6°F0.3°C 27.1°F-2.7°C 80% 5.9 mph SE9.5 kmh SE 8.0 mph12.9 kmh 29.50 in999.0 mb 0.00 in0.0 mm 0.00 in0.0 mm 0.00 in0.0 mm
10:30 AM 32.6°F0.3°C 27.1°F-2.7°C 80% 5.5 mph SE8.9 kmh SE 13.0 mph20.9 kmh 29.50 in999.0 mb 0.00 in0.0 mm 0.00 in0.0 mm 0.00 in0.0 mm
10:31 AM 32.7°F0.4°C 27.2°F-2.7°C 80% 4.1 mph SE6.6 kmh SE 13.0 mph20.9 kmh 29.50 in999.0 mb 0.00 in0.0 mm 0.00 in0.0 mm 0.00 in0.0 mm
10:32 AM 32.7°F0.4°C 27.2°F-2.7°C 80% 3.0 mph SE4.8 kmh SE 9.0 mph14.5 kmh 29.50 in999.0 mb 0.00 in0.0 mm 0.00 in0.0 mm 0.00 in0.0 mm
10:33 AM 32.7°F0.4°C 27.2°F-2.7°C 80% 3.9 mph SE6.3 kmh SE 10.0 mph16.1 kmh 29.50 in999.0 mb 0.00 in0.0 mm 0.00 in0.0 mm 0.00 in0.0 mm
10:34 AM 32.7°F0.4°C 27.2°F-2.7°C 80% 6.2 mph SE10.0 kmh SE 10.0 mph16.1 kmh 29.49 in998.6 mb 0.00 in0.0 mm 0.00 in0.0 mm 0.00 in0.0 mm
10:35 AM 32.7°F0.4°C 27.2°F-2.7°C 80% 6.2 mph SE10.0 kmh SE 10.0 mph16.1 kmh 29.50 in999.0 mb 0.00 in0.0 mm 0.00 in0.0 mm 0.00 in0.0 mm
10:36 AM 32.7°F0.4°C 27.2°F-2.7°C 80% 6.4 mph SE10.3 kmh SE 10.0 mph16.1 kmh 29.50 in999.0 mb 0.00 in0.0 mm 0.00 in0.0 mm 0.00 in0.0 mm
10:37 AM 32.7°F0.4°C 27.2°F-2.7°C 80% 3.9 mph SE6.3 kmh SE 9.0 mph14.5 kmh 29.50 in999.0 mb 0.00 in0.0 mm 0.00 in0.0 mm 0.00 in0.0 mm
10:38 AM 32.7°F0.4°C 27.2°F-2.7°C 80% 4.7 mph SE7.6 kmh SE 12.0 mph19.3 kmh 29.50 in999.0 mb 0.00 in0.0 mm 0.00 in0.0 mm 0.00 in0.0 mm
10:39 AM 32.8°F0.4°C 27.3°F-2.6°C 80% 4.5 mph SE7.2 kmh SE 12.0 mph19.3 kmh 29.50 in999.0 mb 0.00 in0.0 mm 0.00 in0.0 mm 0.00 in0.0 mm
10:40 AM 32.8°F0.4°C 27.3°F-2.6°C 80% 4.1 mph SE6.6 kmh SE 8.0 mph12.9 kmh 29.50 in999.0 mb 0.00 in0.0 mm 0.00 in0.0 mm 0.00 in0.0 mm
10:41 AM 32.8°F0.4°C 27.3°F-2.6°C 80% 6.2 mph SE10.0 kmh SE 13.0 mph20.9 kmh 29.50 in999.0 mb 0.00 in0.0 mm 0.00 in0.0 mm 0.00 in0.0 mm
10:42 AM 32.8°F0.4°C 27.3°F-2.6°C 80% 6.4 mph SE10.3 kmh SE 13.0 mph20.9 kmh 29.50 in999.0 mb 0.00 in0.0 mm 0.00 in0.0 mm 0.00 in0.0 mm
10:43 AM 32.9°F0.5°C 27.1°F-2.7°C 79% 3.8 mph SE6.1 kmh SE 10.0 mph16.1 kmh 29.50 in999.0 mb 0.00 in0.0 mm 0.00 in0.0 mm 0.00 in0.0 mm
10:44 AM 32.9°F0.5°C 27.1°F-2.7°C 79% 3.1 mph SE5.0 kmh SE 7.0 mph11.3 kmh 29.49 in998.6 mb 0.00 in0.0 mm 0.00 in0.0 mm 0.00 in0.0 mm
10:45 AM 32.9°F0.5°C 27.1°F-2.7°C 79% 7.8 mph SE12.6 kmh SE 12.0 mph19.3 kmh 29.50 in999.0 mb 0.00 in0.0 mm 0.00 in0.0 mm 0.00 in0.0 mm
10:46 AM 32.9°F0.5°C 27.1°F-2.7°C 79% 8.4 mph SE13.5 kmh SE 12.0 mph19.3 kmh 29.50 in999.0 mb 0.00 in0.0 mm 0.00 in0.0 mm 0.00 in0.0 mm
10:47 AM 32.9°F0.5°C 27.1°F-2.7°C 79% 5.8 mph SE9.3 kmh SE 12.0 mph19.3 kmh 29.50 in999.0 mb 0.00 in0.0 mm 0.00 in0.0 mm 0.00 in0.0 mm
10:48 AM 32.9°F0.5°C 27.1°F-2.7°C 79% 5.3 mph SE8.5 kmh SE 11.0 mph17.7 kmh 29.50 in999.0 mb 0.00 in0.0 mm 0.00 in0.0 mm 0.00 in0.0 mm
10:49 AM 32.9°F0.5°C 27.1°F-2.7°C 79% 6.9 mph SE11.1 kmh SE 10.0 mph16.1 kmh 29.50 in999.0 mb 0.00 in0.0 mm 0.00 in0.0 mm 0.00 in0.0 mm
10:50 AM 32.9°F0.5°C 27.1°F-2.7°C 79% 5.5 mph SE8.9 kmh SE 10.0 mph16.1 kmh 29.50 in999.0 mb 0.00 in0.0 mm 0.00 in0.0 mm 0.00 in0.0 mm
10:51 AM 32.9°F0.5°C 27.1°F-2.7°C 79% 2.9 mph SE4.7 kmh SE 9.0 mph14.5 kmh 29.50 in999.0 mb 0.00 in0.0 mm 0.00 in0.0 mm 0.00 in0.0 mm
10:52 AM 33.0°F0.6°C 27.2°F-2.7°C 79% 1.8 mph SE2.9 kmh SE 8.0 mph12.9 kmh 29.50 in999.0 mb 0.00 in0.0 mm 0.00 in0.0 mm 0.00 in0.0 mm
10:53 AM 33.0°F0.6°C 27.2°F-2.7°C 79% 7.4 mph SE11.9 kmh SE 10.0 mph16.1 kmh 29.50 in999.0 mb 0.00 in0.0 mm 0.00 in0.0 mm 0.00 in0.0 mm
10:54 AM 33.1°F0.6°C 27.3°F-2.6°C 79% 6.7 mph SE10.8 kmh SE 10.0 mph16.1 kmh 29.50 in999.0 mb 0.00 in0.0 mm 0.00 in0.0 mm 0.00 in0.0 mm
10:55 AM 33.1°F0.6°C 27.3°F-2.6°C 79% 7.4 mph SE11.9 kmh SE 9.0 mph14.5 kmh 29.50 in999.0 mb 0.00 in0.0 mm 0.00 in0.0 mm 0.00 in0.0 mm
10:56 AM 33.1°F0.6°C 27.3°F-2.6°C 79% 6.9 mph SE11.1 kmh SE 11.0 mph17.7 kmh 29.51 in999.3 mb 0.00 in0.0 mm 0.00 in0.0 mm 0.00 in0.0 mm
10:57 AM 33.2°F0.7°C 27.4°F-2.6°C 79% 4.6 mph SE7.4 kmh SE 11.0 mph17.7 kmh 29.51 in999.3 mb 0.00 in0.0 mm 0.00 in0.0 mm 0.00 in0.0 mm
10:58 AM 33.2°F0.7°C 27.4°F-2.6°C 79% 4.2 mph SE6.8 kmh SE 8.0 mph12.9 kmh 29.51 in999.3 mb 0.00 in0.0 mm 0.00 in0.0 mm 0.00 in0.0 mm
10:59 AM 33.2°F0.7°C 27.4°F-2.6°C 79% 3.6 mph SE5.8 kmh SE 8.0 mph12.9 kmh 29.51 in999.3 mb 0.00 in0.0 mm 0.00 in0.0 mm 0.00 in0.0 mm
11:00 AM 33.3°F0.7°C 27.5°F-2.5°C 79% 2.7 mph SE4.3 kmh SE 7.0 mph11.3 kmh 29.51 in999.3 mb 0.00 in0.0 mm 0.00 in0.0 mm 0.00 in0.0 mm
11:01 AM 33.3°F0.7°C 27.5°F-2.5°C 79% 1.4 mph SE2.3 kmh SE 7.0 mph11.3 kmh 29.51 in999.3 mb 0.00 in0.0 mm 0.00 in0.0 mm 0.00 in0.0 mm
11:02 AM 33.4°F0.8°C 27.6°F-2.4°C 79% 0.1 mph SE0.2 kmh SE 5.0 mph8.0 kmh 29.51 in999.3 mb 0.00 in0.0 mm 0.00 in0.0 mm 0.00 in0.0 mm
11:03 AM 33.4°F0.8°C 27.6°F-2.4°C 79% 3.8 mph SE6.1 kmh SE 7.0 mph11.3 kmh 29.51 in999.3 mb 0.00 in0.0 mm 0.00 in0.0 mm 0.00 in0.0 mm
11:04 AM 33.4°F0.8°C 27.6°F-2.4°C 79% 5.7 mph SE9.2 kmh SE 12.0 mph19.3 kmh 29.52 in999.7 mb 0.00 in0.0 mm 0.00 in0.0 mm 0.00 in0.0 mm
11:05 AM 33.4°F0.8°C 27.6°F-2.4°C 79% 3.9 mph SSE6.3 kmh SSE 12.0 mph19.3 kmh 29.52 in999.7 mb 0.00 in0.0 mm 0.00 in0.0 mm 0.00 in0.0 mm
11:06 AM 33.5°F0.8°C 27.4°F-2.6°C 78% 5.4 mph SSE8.7 kmh SSE 10.0 mph16.1 kmh 29.52 in999.7 mb 0.00 in0.0 mm 0.00 in0.0 mm 0.00 in0.0 mm
11:07 AM 33.5°F0.8°C 27.4°F-2.6°C 78% 3.1 mph SSE5.0 kmh SSE 8.0 mph12.9 kmh 29.52 in999.7 mb 0.00 in0.0 mm 0.00 in0.0 mm 0.00 in0.0 mm
11:08 AM 33.5°F0.8°C 27.4°F-2.6°C 78% 3.3 mph SSE5.3 kmh SSE 8.0 mph12.9 kmh 29.52 in999.7 mb 0.00 in0.0 mm 0.00 in0.0 mm 0.00 in0.0 mm
11:09 AM 33.5°F0.8°C 27.4°F-2.6°C 78% 4.6 mph SE7.4 kmh SE 8.0 mph12.9 kmh 29.52 in999.7 mb 0.00 in0.0 mm 0.00 in0.0 mm 0.00 in0.0 mm
11:10 AM 33.5°F0.8°C 27.4°F-2.6°C 78% 4.5 mph SE7.2 kmh SE 9.0 mph14.5 kmh 29.52 in999.7 mb 0.00 in0.0 mm 0.00 in0.0 mm 0.00 in0.0 mm
11:11 AM 33.5°F0.8°C 27.4°F-2.6°C 78% 7.0 mph SE11.3 kmh SE 12.0 mph19.3 kmh 29.52 in999.7 mb 0.00 in0.0 mm 0.00 in0.0 mm 0.00 in0.0 mm
11:12 AM 33.5°F0.8°C 27.4°F-2.6°C 78% 5.2 mph SE8.4 kmh SE 12.0 mph19.3 kmh 29.52 in999.7 mb 0.00 in0.0 mm 0.00 in0.0 mm 0.00 in0.0 mm
11:13 AM 33.5°F0.8°C 27.4°F-2.6°C 78% 3.0 mph SE4.8 kmh SE 8.0 mph12.9 kmh 29.52 in999.7 mb 0.00 in0.0 mm 0.00 in0.0 mm 0.00 in0.0 mm
11:14 AM 33.5°F0.8°C 27.4°F-2.6°C 78% 5.0 mph SE8.0 kmh SE 9.0 mph14.5 kmh 29.52 in999.7 mb 0.00 in0.0 mm 0.00 in0.0 mm 0.00 in0.0 mm
11:15 AM 33.5°F0.8°C 27.4°F-2.6°C 78% 2.1 mph SE3.4 kmh SE 9.0 mph14.5 kmh 29.52 in999.7 mb 0.00 in0.0 mm 0.00 in0.0 mm 0.00 in0.0 mm
11:16 AM 33.5°F0.8°C 27.4°F-2.6°C 78% 3.1 mph SE5.0 kmh SE 6.0 mph9.7 kmh 29.52 in999.7 mb 0.00 in0.0 mm 0.00 in0.0 mm 0.00 in0.0 mm
11:17 AM 33.5°F0.8°C 27.4°F-2.6°C 78% 1.9 mph SE3.1 kmh SE 6.0 mph9.7 kmh 29.52 in999.7 mb 0.00 in0.0 mm 0.00 in0.0 mm 0.00 in0.0 mm
11:18 AM 33.5°F0.8°C 27.4°F-2.6°C 78% 3.0 mph SE4.8 kmh SE 5.0 mph8.0 kmh 29.52 in999.7 mb 0.00 in0.0 mm 0.00 in0.0 mm 0.00 in0.0 mm
11:19 AM 33.5°F0.8°C 27.1°F-2.7°C 77% 3.3 mph SE5.3 kmh SE 6.0 mph9.7 kmh 29.51 in999.3 mb 0.00 in0.0 mm 0.00 in0.0 mm 0.00 in0.0 mm
11:20 AM 33.6°F0.9°C 27.2°F-2.7°C 77% 4.2 mph SE6.8 kmh SE 9.0 mph14.5 kmh 29.51 in999.3 mb 0.00 in0.0 mm 0.00 in0.0 mm 0.00 in0.0 mm
11:21 AM 33.6°F0.9°C 27.2°F-2.7°C 77% 4.1 mph SE6.6 kmh SE 9.0 mph14.5 kmh 29.51 in999.3 mb 0.00 in0.0 mm 0.00 in0.0 mm 0.00 in0.0 mm
11:22 AM 33.6°F0.9°C 27.2°F-2.7°C 77% 2.4 mph SE3.9 kmh SE 6.0 mph9.7 kmh 29.51 in999.3 mb 0.00 in0.0 mm 0.00 in0.0 mm 0.00 in0.0 mm
11:23 AM 33.6°F0.9°C 27.2°F-2.7°C 77% 4.4 mph SE7.1 kmh SE 8.0 mph12.9 kmh 29.52 in999.7 mb 0.00 in0.0 mm 0.00 in0.0 mm 0.00 in0.0 mm
11:24 AM 33.6°F0.9°C 27.2°F-2.7°C 77% 0.9 mph SE1.4 kmh SE 8.0 mph12.9 kmh 29.52 in999.7 mb 0.00 in0.0 mm 0.00 in0.0 mm 0.00 in0.0 mm
11:25 AM 33.6°F0.9°C 27.2°F-2.7°C 77% 0.5 mph SE0.8 kmh SE 4.0 mph6.4 kmh 29.51 in999.3 mb 0.00 in0.0 mm 0.00 in0.0 mm 0.00 in0.0 mm
11:26 AM 33.6°F0.9°C 27.2°F-2.7°C 77% 3.7 mph SE6.0 kmh SE 8.0 mph12.9 kmh 29.51 in999.3 mb 0.00 in0.0 mm 0.00 in0.0 mm 0.00 in0.0 mm
11:27 AM 33.7°F0.9°C 27.6°F-2.4°C 78% 2.0 mph SE3.2 kmh SE 8.0 mph12.9 kmh 29.51 in999.3 mb 0.00 in0.0 mm 0.00 in0.0 mm 0.00 in0.0 mm
11:28 AM 33.7°F0.9°C 27.6°F-2.4°C 78% 3.1 mph SE5.0 kmh SE 8.0 mph12.9 kmh 29.51 in999.3 mb 0.00 in0.0 mm 0.00 in0.0 mm 0.00 in0.0 mm
11:29 AM 33.7°F0.9°C 27.3°F-2.6°C 77% 2.4 mph SE3.9 kmh SE 8.0 mph12.9 kmh 29.51 in999.3 mb 0.00 in0.0 mm 0.00 in0.0 mm 0.00 in0.0 mm
11:30 AM 33.7°F0.9°C 27.3°F-2.6°C 77% 2.6 mph SE4.2 kmh SE 6.0 mph9.7 kmh 29.51 in999.3 mb 0.00 in0.0 mm 0.00 in0.0 mm 0.00 in0.0 mm
11:31 AM 33.6°F0.9°C 27.2°F-2.7°C 77% 2.5 mph SE4.0 kmh SE 6.0 mph9.7 kmh 29.51 in999.3 mb 0.00 in0.0 mm 0.00 in0.0 mm 0.00 in0.0 mm
11:32 AM 33.6°F0.9°C 27.2°F-2.7°C 77% 4.0 mph SE6.4 kmh SE 8.0 mph12.9 kmh 29.50 in999.0 mb 0.00 in0.0 mm 0.00 in0.0 mm 0.00 in0.0 mm
11:33 AM 33.6°F0.9°C 27.2°F-2.7°C 77% 3.8 mph SE6.1 kmh SE 8.0 mph12.9 kmh 29.50 in999.0 mb 0.00 in0.0 mm 0.00 in0.0 mm 0.00 in0.0 mm
11:34 AM 33.6°F0.9°C 27.2°F-2.7°C 77% 1.9 mph SE3.1 kmh SE 9.0 mph14.5 kmh 29.50 in999.0 mb 0.00 in0.0 mm 0.00 in0.0 mm 0.00 in0.0 mm
11:35 AM 33.6°F0.9°C 27.2°F-2.7°C 77% 4.0 mph SE6.4 kmh SE 9.0 mph14.5 kmh 29.50 in999.0 mb 0.00 in0.0 mm 0.00 in0.0 mm 0.00 in0.0 mm
11:36 AM 33.6°F0.9°C 27.2°F-2.7°C 77% 3.4 mph SE5.5 kmh SE 7.0 mph11.3 kmh 29.50 in999.0 mb 0.00 in0.0 mm 0.00 in0.0 mm 0.00 in0.0 mm
11:37 AM 33.6°F0.9°C 27.2°F-2.7°C 77% 1.1 mph SE1.8 kmh SE 5.0 mph8.0 kmh 29.50 in999.0 mb 0.00 in0.0 mm 0.00 in0.0 mm 0.00 in0.0 mm
11:38 AM 33.6°F0.9°C 27.2°F-2.7°C 77% 3.0 mph SE4.8 kmh SE 7.0 mph11.3 kmh 29.50 in999.0 mb 0.00 in0.0 mm 0.00 in0.0 mm 0.00 in0.0 mm
11:39 AM 33.6°F0.9°C 27.2°F-2.7°C 77% 0.9 mph SE1.4 kmh SE 7.0 mph11.3 kmh 29.50 in999.0 mb 0.00 in0.0 mm 0.00 in0.0 mm 0.00 in0.0 mm
11:40 AM 33.6°F0.9°C 27.2°F-2.7°C 77% 1.7 mph SE2.7 kmh SE 4.0 mph6.4 kmh 29.50 in999.0 mb 0.00 in0.0 mm 0.00 in0.0 mm 0.00 in0.0 mm
11:41 AM 33.6°F0.9°C 27.5°F-2.5°C 78% 3.1 mph SE5.0 kmh SE 5.0 mph8.0 kmh 29.50 in999.0 mb 0.00 in0.0 mm 0.00 in0.0 mm 0.00 in0.0 mm
11:42 AM 33.6°F0.9°C 27.5°F-2.5°C 78% 2.5 mph SE4.0 kmh SE 5.0 mph8.0 kmh 29.50 in999.0 mb 0.00 in0.0 mm 0.00 in0.0 mm 0.00 in0.0 mm
11:43 AM 33.6°F0.9°C 27.5°F-2.5°C 78% 1.0 mph SE1.6 kmh SE 5.0 mph8.0 kmh 29.50 in999.0 mb 0.00 in0.0 mm 0.00 in0.0 mm 0.00 in0.0 mm
11:44 AM 33.7°F0.9°C 27.6°F-2.4°C 78% 1.8 mph SE2.9 kmh SE 4.0 mph6.4 kmh 29.50 in999.0 mb 0.00 in0.0 mm 0.00 in0.0 mm 0.00 in0.0 mm
11:45 AM 33.7°F0.9°C 27.6°F-2.4°C 78% Calm Calm 4.0 mph6.4 kmh 29.50 in999.0 mb 0.00 in0.0 mm 0.00 in0.0 mm 0.00 in0.0 mm
11:46 AM 33.7°F0.9°C 27.6°F-2.4°C 78% 1.9 mph SE3.1 kmh SE 3.0 mph4.8 kmh 29.50 in999.0 mb 0.00 in0.0 mm 0.00 in0.0 mm 0.00 in0.0 mm
11:47 AM 33.8°F1.0°C 27.7°F-2.4°C 78% 2.5 mph SE4.0 kmh SE 5.0 mph8.0 kmh 29.50 in999.0 mb 0.00 in0.0 mm 0.00 in0.0 mm 0.00 in0.0 mm
11:48 AM 33.8°F1.0°C 27.7°F-2.4°C 78% 0.7 mph SE1.1 kmh SE 5.0 mph8.0 kmh 29.50 in999.0 mb 0.00 in0.0 mm 0.00 in0.0 mm 0.00 in0.0 mm
11:49 AM 33.8°F1.0°C 27.7°F-2.4°C 78% 1.6 mph SE2.6 kmh SE 7.0 mph11.3 kmh 29.50 in999.0 mb 0.00 in0.0 mm 0.00 in0.0 mm 0.00 in0.0 mm
11:50 AM 33.8°F1.0°C 27.4°F-2.6°C 77% 2.0 mph SE3.2 kmh SE 7.0 mph11.3 kmh 29.50 in999.0 mb 0.00 in0.0 mm 0.00 in0.0 mm 0.00 in0.0 mm
11:51 AM 33.8°F1.0°C 27.4°F-2.6°C 77% 1.9 mph SE3.1 kmh SE 5.0 mph8.0 kmh 29.50 in999.0 mb 0.00 in0.0 mm 0.00 in0.0 mm 0.00 in0.0 mm
11:52 AM 33.9°F1.1°C 27.5°F-2.5°C 77% 1.4 mph SE2.3 kmh SE 5.0 mph8.0 kmh 29.50 in999.0 mb 0.00 in0.0 mm 0.00 in0.0 mm 0.00 in0.0 mm
11:53 AM 33.9°F1.1°C 27.5°F-2.5°C 77% 2.4 mph SE3.9 kmh SE 4.0 mph6.4 kmh 29.50 in999.0 mb 0.00 in0.0 mm 0.00 in0.0 mm 0.00 in0.0 mm
11:54 AM 33.9°F1.1°C 27.5°F-2.5°C 77% 1.3 mph SE2.1 kmh SE 4.0 mph6.4 kmh 29.50 in999.0 mb 0.00 in0.0 mm 0.00 in0.0 mm 0.00 in0.0 mm
11:55 AM 33.9°F1.1°C 27.5°F-2.5°C 77% 0.6 mph SE1.0 kmh SE 7.0 mph11.3 kmh 29.50 in999.0 mb 0.00 in0.0 mm 0.00 in0.0 mm 0.00 in0.0 mm
11:56 AM 33.9°F1.1°C 27.5°F-2.5°C 77% 2.5 mph SE4.0 kmh SE 7.0 mph11.3 kmh 29.50 in999.0 mb 0.00 in0.0 mm 0.00 in0.0 mm 0.00 in0.0 mm
11:57 AM 34.0°F1.1°C 27.6°F-2.4°C 77% 2.7 mph SE4.3 kmh SE 5.0 mph8.0 kmh 29.50 in999.0 mb 0.00 in0.0 mm 0.00 in0.0 mm 0.00 in0.0 mm
11:58 AM 34.0°F1.1°C 27.6°F-2.4°C 77% 4.1 mph SE6.6 kmh SE 9.0 mph14.5 kmh 29.50 in999.0 mb 0.00 in0.0 mm 0.00 in0.0 mm 0.00 in0.0 mm
11:59 AM 34.0°F1.1°C 27.6°F-2.4°C 77% 5.1 mph SE8.2 kmh SE 9.0 mph14.5 kmh 29.50 in999.0 mb 0.00 in0.0 mm 0.00 in0.0 mm 0.00 in0.0 mm
12:00 PM 34.0°F1.1°C 27.6°F-2.4°C 77% 5.4 mph SE8.7 kmh SE 9.0 mph14.5 kmh 29.50 in999.0 mb 0.00 in0.0 mm 0.00 in0.0 mm 0.00 in0.0 mm
12:01 PM 34.0°F1.1°C 27.6°F-2.4°C 77% 4.9 mph SE7.9 kmh SE 9.0 mph14.5 kmh 29.50 in999.0 mb 0.00 in0.0 mm 0.00 in0.0 mm 0.00 in0.0 mm
12:02 PM 33.9°F1.1°C 27.5°F-2.5°C 77% 2.6 mph SE4.2 kmh SE 9.0 mph14.5 kmh 29.50 in999.0 mb 0.00 in0.0 mm 0.00 in0.0 mm 0.00 in0.0 mm
12:03 PM 34.0°F1.1°C 27.6°F-2.4°C 77% 0.9 mph SE1.4 kmh SE 7.0 mph11.3 kmh 29.50 in999.0 mb 0.00 in0.0 mm 0.00 in0.0 mm 0.00 in0.0 mm
12:04 PM 34.0°F1.1°C 27.6°F-2.4°C 77% 1.5 mph SE2.4 kmh SE 5.0 mph8.0 kmh 29.50 in999.0 mb 0.00 in0.0 mm 0.00 in0.0 mm 0.00 in0.0 mm
12:05 PM 34.0°F1.1°C 27.6°F-2.4°C 77% 0.4 mph SE0.6 kmh SE 5.0 mph8.0 kmh 29.50 in999.0 mb 0.00 in0.0 mm 0.00 in0.0 mm 0.00 in0.0 mm
12:06 PM 34.1°F1.2°C 27.7°F-2.4°C 77% 1.4 mph SE2.3 kmh SE 7.0 mph11.3 kmh 29.50 in999.0 mb 0.00 in0.0 mm 0.00 in0.0 mm 0.00 in0.0 mm
12:07 PM 34.1°F1.2°C 27.7°F-2.4°C 77% 1.3 mph SE2.1 kmh SE 7.0 mph11.3 kmh 29.50 in999.0 mb 0.00 in0.0 mm 0.00 in0.0 mm 0.00 in0.0 mm
12:08 PM 34.2°F1.2°C 27.8°F-2.3°C 77% 3.3 mph SE5.3 kmh SE 5.0 mph8.0 kmh 29.50 in999.0 mb 0.00 in0.0 mm 0.00 in0.0 mm 0.00 in0.0 mm
12:09 PM 34.2°F1.2°C 27.8°F-2.3°C 77% 0.8 mph SE1.3 kmh SE 5.0 mph8.0 kmh 29.50 in999.0 mb 0.00 in0.0 mm 0.00 in0.0 mm 0.00 in0.0 mm
12:10 PM 34.2°F1.2°C 27.8°F-2.3°C 77% 3.1 mph SE5.0 kmh SE 5.0 mph8.0 kmh 29.50 in999.0 mb 0.00 in0.0 mm 0.00 in0.0 mm 0.00 in0.0 mm
12:11 PM 34.3°F1.3°C 27.9°F-2.3°C 77% Calm Calm 5.0 mph8.0 kmh 29.50 in999.0 mb 0.00 in0.0 mm 0.00 in0.0 mm 0.00 in0.0 mm
12:12 PM 34.3°F1.3°C 27.9°F-2.3°C 77% 1.1 mph SE1.8 kmh SE 3.0 mph4.8 kmh 29.49 in998.6 mb 0.00 in0.0 mm 0.00 in0.0 mm 0.00 in0.0 mm
12:13 PM 34.4°F1.3°C 28.0°F-2.2°C 77% 0.2 mph SE0.3 kmh SE 3.0 mph4.8 kmh 29.49 in998.6 mb 0.00 in0.0 mm 0.00 in0.0 mm 0.00 in0.0 mm
12:14 PM 34.4°F1.3°C 28.0°F-2.2°C 77% Calm Calm 2.0 mph3.2 kmh 29.49 in998.6 mb 0.00 in0.0 mm 0.00 in0.0 mm 0.00 in0.0 mm
12:15 PM 34.4°F1.3°C 28.0°F-2.2°C 77% Calm Calm -- 29.49 in998.6 mb 0.00 in0.0 mm 0.00 in0.0 mm 0.00 in0.0 mm
12:16 PM 34.4°F1.3°C 28.0°F-2.2°C 77% 1.0 mph SE1.6 kmh SE 4.0 mph6.4 kmh 29.49 in998.6 mb 0.00 in0.0 mm 0.00 in0.0 mm 0.00 in0.0 mm
12:17 PM 34.4°F1.3°C 28.0°F-2.2°C 77% 2.0 mph SE3.2 kmh SE 8.0 mph12.9 kmh 29.49 in998.6 mb 0.00 in0.0 mm 0.00 in0.0 mm 0.00 in0.0 mm
12:18 PM 34.4°F1.3°C 28.0°F-2.2°C 77% 0.3 mph SE0.5 kmh SE 8.0 mph12.9 kmh 29.49 in998.6 mb 0.00 in0.0 mm 0.00 in0.0 mm 0.00 in0.0 mm
12:19 PM 34.4°F1.3°C 28.0°F-2.2°C 77% 2.7 mph SE4.3 kmh SE 4.0 mph6.4 kmh 29.49 in998.6 mb 0.00 in0.0 mm 0.00 in0.0 mm 0.00 in0.0 mm
12:20 PM 34.4°F1.3°C 27.6°F-2.4°C 76% 0.3 mph SE0.5 kmh SE 4.0 mph6.4 kmh 29.49 in998.6 mb 0.00 in0.0 mm 0.00 in0.0 mm 0.00 in0.0 mm
12:21 PM 34.4°F1.3°C 28.0°F-2.2°C 77% 1.4 mph SE2.3 kmh SE 3.0 mph4.8 kmh 29.49 in998.6 mb 0.00 in0.0 mm 0.00 in0.0 mm 0.00 in0.0 mm
12:22 PM 34.4°F1.3°C 27.6°F-2.4°C 76% 4.0 mph SE6.4 kmh SE 8.0 mph12.9 kmh 29.49 in998.6 mb 0.00 in0.0 mm 0.00 in0.0 mm 0.00 in0.0 mm
12:23 PM 34.5°F1.4°C 27.7°F-2.4°C 76% Calm Calm 8.0 mph12.9 kmh 29.49 in998.6 mb 0.00 in0.0 mm 0.00 in0.0 mm 0.00 in0.0 mm
12:24 PM 34.5°F1.4°C 27.7°F-2.4°C 76% 0.4 mph SE0.6 kmh SE 3.0 mph4.8 kmh 29.49 in998.6 mb 0.00 in0.0 mm 0.00 in0.0 mm 0.00 in0.0 mm
12:25 PM 34.5°F1.4°C 27.7°F-2.4°C 76% Calm Calm 3.0 mph4.8 kmh 29.49 in998.6 mb 0.00 in0.0 mm 0.00 in0.0 mm 0.00 in0.0 mm
12:26 PM 34.5°F1.4°C 27.7°F-2.4°C 76% 4.9 mph SE7.9 kmh SE 9.0 mph14.5 kmh 29.49 in998.6 mb 0.00 in0.0 mm 0.00 in0.0 mm 0.00 in0.0 mm
12:27 PM 34.4°F1.3°C 27.6°F-2.4°C 76% 2.7 mph SE4.3 kmh SE 9.0 mph14.5 kmh 29.49 in998.6 mb 0.00 in0.0 mm 0.00 in0.0 mm 0.00 in0.0 mm
12:28 PM 34.4°F1.3°C 27.6°F-2.4°C 76% 1.6 mph SE2.6 kmh SE 7.0 mph11.3 kmh 29.49 in998.6 mb 0.00 in0.0 mm 0.00 in0.0 mm 0.00 in0.0 mm
12:29 PM 34.4°F1.3°C 27.6°F-2.4°C 76% 1.5 mph SE2.4 kmh SE 7.0 mph11.3 kmh 29.49 in998.6 mb 0.00 in0.0 mm 0.00 in0.0 mm 0.00 in0.0 mm
12:30 PM 34.4°F1.3°C 27.6°F-2.4°C 76% 2.1 mph SE3.4 kmh SE 8.0 mph12.9 kmh 29.49 in998.6 mb 0.00 in0.0 mm 0.00 in0.0 mm 0.00 in0.0 mm
12:31 PM 34.4°F1.3°C 27.6°F-2.4°C 76% 6.0 mph SE9.7 kmh SE 8.0 mph12.9 kmh 29.49 in998.6 mb 0.00 in0.0 mm 0.00 in0.0 mm 0.00 in0.0 mm
12:32 PM 34.4°F1.3°C 27.6°F-2.4°C 76% 3.4 mph SE5.5 kmh SE 8.0 mph12.9 kmh 29.49 in998.6 mb 0.00 in0.0 mm 0.00 in0.0 mm 0.00 in0.0 mm
12:33 PM 34.4°F1.3°C 27.6°F-2.4°C 76% Calm Calm 7.0 mph11.3 kmh 29.48 in998.3 mb 0.00 in0.0 mm 0.00 in0.0 mm 0.00 in0.0 mm
12:34 PM 34.4°F1.3°C 27.6°F-2.4°C 76% Calm Calm -- 29.48 in998.3 mb 0.00 in0.0 mm 0.00 in0.0 mm 0.00 in0.0 mm
12:35 PM 34.5°F1.4°C 27.7°F-2.4°C 76% 1.2 mph SE1.9 kmh SE 5.0 mph8.0 kmh 29.48 in998.3 mb 0.00 in0.0 mm 0.00 in0.0 mm 0.00 in0.0 mm
12:36 PM 34.4°F1.3°C 27.6°F-2.4°C 76% 2.6 mph SE4.2 kmh SE 5.0 mph8.0 kmh 29.48 in998.3 mb 0.00 in0.0 mm 0.00 in0.0 mm 0.00 in0.0 mm
12:37 PM 34.5°F1.4°C 27.7°F-2.4°C 76% 0.2 mph SE0.3 kmh SE 5.0 mph8.0 kmh 29.48 in998.3 mb 0.00 in0.0 mm 0.00 in0.0 mm 0.00 in0.0 mm
12:38 PM 34.5°F1.4°C 27.7°F-2.4°C 76% Calm Calm 1.0 mph1.6 kmh 29.48 in998.3 mb 0.00 in0.0 mm 0.00 in0.0 mm 0.00 in0.0 mm
12:39 PM 34.5°F1.4°C 27.7°F-2.4°C 76% 0.8 mph SE1.3 kmh SE 3.0 mph4.8 kmh 29.48 in998.3 mb 0.00 in0.0 mm 0.00 in0.0 mm 0.00 in0.0 mm
12:40 PM 34.6°F1.4°C 27.8°F-2.3°C 76% 0.8 mph SE1.3 kmh SE 5.0 mph8.0 kmh 29.49 in998.6 mb 0.00 in0.0 mm 0.00 in0.0 mm 0.00 in0.0 mm
12:41 PM 34.7°F1.5°C 27.9°F-2.3°C 76% 2.2 mph SE3.5 kmh SE 7.0 mph11.3 kmh 29.48 in998.3 mb 0.00 in0.0 mm 0.00 in0.0 mm 0.00 in0.0 mm
12:42 PM 34.8°F1.6°C 28.0°F-2.2°C 76% 1.2 mph SE1.9 kmh SE 7.0 mph11.3 kmh 29.49 in998.6 mb 0.00 in0.0 mm 0.00 in0.0 mm 0.00 in0.0 mm
12:43 PM 34.8°F1.6°C 28.0°F-2.2°C 76% 0.8 mph SE1.3 kmh SE 5.0 mph8.0 kmh 29.48 in998.3 mb 0.00 in0.0 mm 0.00 in0.0 mm 0.00 in0.0 mm
12:44 PM 34.9°F1.6°C 28.1°F-2.2°C 76% 0.4 mph SE0.6 kmh SE 3.0 mph4.8 kmh 29.49 in998.6 mb 0.00 in0.0 mm 0.00 in0.0 mm 0.00 in0.0 mm
12:45 PM 35.0°F1.7°C 28.2°F-2.1°C 76% Calm Calm 3.0 mph4.8 kmh 29.48 in998.3 mb 0.00 in0.0 mm 0.00 in0.0 mm 0.00 in0.0 mm
12:46 PM 35.0°F1.7°C 28.2°F-2.1°C 76% 1.1 mph SE1.8 kmh SE 5.0 mph8.0 kmh 29.48 in998.3 mb 0.00 in0.0 mm 0.00 in0.0 mm 0.00 in0.0 mm
12:47 PM 35.1°F1.7°C 28.3°F-2.1°C 76% 1.0 mph SE1.6 kmh SE 5.0 mph8.0 kmh 29.48 in998.3 mb 0.00 in0.0 mm 0.00 in0.0 mm 0.00 in0.0 mm
12:48 PM 35.2°F1.8°C 28.4°F-2.0°C 76% 5.1 mph SE8.2 kmh SE 8.0 mph12.9 kmh 29.48 in998.3 mb 0.00 in0.0 mm 0.00 in0.0 mm 0.00 in0.0 mm
12:49 PM 35.2°F1.8°C 28.4°F-2.0°C 76% 1.3 mph SE2.1 kmh SE 8.0 mph12.9 kmh 29.48 in998.3 mb 0.00 in0.0 mm 0.00 in0.0 mm 0.00 in0.0 mm
12:50 PM 35.2°F1.8°C 28.4°F-2.0°C 76% 0.1 mph SE0.2 kmh SE 4.0 mph6.4 kmh 29.48 in998.3 mb 0.00 in0.0 mm 0.00 in0.0 mm 0.00 in0.0 mm
12:51 PM 35.2°F1.8°C 28.4°F-2.0°C 76% 0.3 mph SE0.5 kmh SE 3.0 mph4.8 kmh 29.48 in998.3 mb 0.00 in0.0 mm 0.00 in0.0 mm 0.00 in0.0 mm
12:52 PM 35.3°F1.8°C 28.2°F-2.1°C 75% 5.5 mph SE8.9 kmh SE 10.0 mph16.1 kmh 29.48 in998.3 mb 0.00 in0.0 mm 0.00 in0.0 mm 0.00 in0.0 mm
12:53 PM 35.2°F1.8°C 28.1°F-2.2°C 75% 3.1 mph SE5.0 kmh SE 10.0 mph16.1 kmh 29.48 in998.3 mb 0.00 in0.0 mm 0.00 in0.0 mm 0.00 in0.0 mm
12:54 PM 35.2°F1.8°C 28.1°F-2.2°C 75% 2.0 mph SE3.2 kmh SE 8.0 mph12.9 kmh 29.48 in998.3 mb 0.00 in0.0 mm 0.00 in0.0 mm 0.00 in0.0 mm
12:55 PM 35.2°F1.8°C 28.1°F-2.2°C 75% 3.2 mph SE5.1 kmh SE 8.0 mph12.9 kmh 29.48 in998.3 mb 0.00 in0.0 mm 0.00 in0.0 mm 0.00 in0.0 mm
12:56 PM 35.3°F1.8°C 28.2°F-2.1°C 75% 2.2 mph SE3.5 kmh SE 8.0 mph12.9 kmh 29.48 in998.3 mb 0.00 in0.0 mm 0.00 in0.0 mm 0.00 in0.0 mm
12:57 PM 35.3°F1.8°C 28.2°F-2.1°C 75% 4.1 mph SE6.6 kmh SE 7.0 mph11.3 kmh 29.48 in998.3 mb 0.00 in0.0 mm 0.00 in0.0 mm 0.00 in0.0 mm
12:58 PM 35.3°F1.8°C 28.2°F-2.1°C 75% 2.6 mph SE4.2 kmh SE 7.0 mph11.3 kmh 29.48 in998.3 mb 0.00 in0.0 mm 0.00 in0.0 mm 0.00 in0.0 mm
12:59 PM 35.3°F1.8°C 28.2°F-2.1°C 75% 4.9 mph SE7.9 kmh SE 8.0 mph12.9 kmh 29.48 in998.3 mb 0.00 in0.0 mm 0.00 in0.0 mm 0.00 in0.0 mm
01:00 PM 35.3°F1.8°C 28.2°F-2.1°C 75% 5.3 mph SE8.5 kmh SE 8.0 mph12.9 kmh 29.48 in998.3 mb 0.00 in0.0 mm 0.00 in0.0 mm 0.00 in0.0 mm
01:01 PM 35.3°F1.8°C 28.2°F-2.1°C 75% 0.9 mph SE1.4 kmh SE 8.0 mph12.9 kmh 29.48 in998.3 mb 0.00 in0.0 mm 0.00 in0.0 mm 0.00 in0.0 mm
01:02 PM 35.3°F1.8°C 28.2°F-2.1°C 75% 0.1 mph SE0.2 kmh SE 4.0 mph6.4 kmh 29.48 in998.3 mb 0.00 in0.0 mm 0.00 in0.0 mm 0.00 in0.0 mm
01:03 PM 35.4°F1.9°C 28.3°F-2.1°C 75% 4.2 mph SE6.8 kmh SE 5.0 mph8.0 kmh 29.48 in998.3 mb 0.00 in0.0 mm 0.00 in0.0 mm 0.00 in0.0 mm
01:04 PM 35.4°F1.9°C 28.6°F-1.9°C 76% 3.7 mph SE6.0 kmh SE 5.0 mph8.0 kmh 29.48 in998.3 mb 0.00 in0.0 mm 0.00 in0.0 mm 0.00 in0.0 mm
01:05 PM 35.4°F1.9°C 28.6°F-1.9°C 76% 1.2 mph SE1.9 kmh SE 5.0 mph8.0 kmh 29.48 in998.3 mb 0.00 in0.0 mm 0.00 in0.0 mm 0.00 in0.0 mm
01:06 PM 35.5°F1.9°C 28.4°F-2.0°C 75% 2.1 mph SE3.4 kmh SE 4.0 mph6.4 kmh 29.48 in998.3 mb 0.00 in0.0 mm 0.00 in0.0 mm 0.00 in0.0 mm
01:07 PM 35.5°F1.9°C 28.4°F-2.0°C 75% 3.6 mph SE5.8 kmh SE 8.0 mph12.9 kmh 29.48 in998.3 mb 0.00 in0.0 mm 0.00 in0.0 mm 0.00 in0.0 mm
01:08 PM 35.5°F1.9°C 28.7°F-1.8°C 76% 4.9 mph SE7.9 kmh SE 8.0 mph12.9 kmh 29.48 in998.3 mb 0.00 in0.0 mm 0.00 in0.0 mm 0.00 in0.0 mm
01:09 PM 35.6°F2.0°C 28.5°F-1.9°C 75% 1.7 mph SE2.7 kmh SE 8.0 mph12.9 kmh 29.48 in998.3 mb 0.00 in0.0 mm 0.00 in0.0 mm 0.00 in0.0 mm
01:10 PM 35.6°F2.0°C 28.5°F-1.9°C 75% 1.8 mph SE2.9 kmh SE 4.0 mph6.4 kmh 29.48 in998.3 mb 0.00 in0.0 mm 0.00 in0.0 mm 0.00 in0.0 mm
01:11 PM 35.7°F2.1°C 28.6°F-1.9°C 75% 0.8 mph SE1.3 kmh SE 4.0 mph6.4 kmh 29.48 in998.3 mb 0.00 in0.0 mm 0.00 in0.0 mm 0.00 in0.0 mm
01:12 PM 35.7°F2.1°C 28.6°F-1.9°C 75% 2.4 mph SE3.9 kmh SE 7.0 mph11.3 kmh 29.48 in998.3 mb 0.00 in0.0 mm 0.00 in0.0 mm 0.00 in0.0 mm
01:13 PM 35.7°F2.1°C 28.6°F-1.9°C 75% 2.1 mph SE3.4 kmh SE 7.0 mph11.3 kmh 29.48 in998.3 mb 0.00 in0.0 mm 0.00 in0.0 mm 0.00 in0.0 mm
01:14 PM 35.8°F2.1°C 28.7°F-1.8°C 75% 2.4 mph SE3.9 kmh SE 5.0 mph8.0 kmh 29.48 in998.3 mb 0.00 in0.0 mm 0.00 in0.0 mm 0.00 in0.0 mm
01:15 PM 35.8°F2.1°C 28.7°F-1.8°C 75% 0.5 mph SE0.8 kmh SE 4.0 mph6.4 kmh 29.48 in998.3 mb 0.00 in0.0 mm 0.00 in0.0 mm 0.00 in0.0 mm
01:16 PM 35.8°F2.1°C 28.7°F-1.8°C 75% Calm Calm 3.0 mph4.8 kmh 29.48 in998.3 mb 0.00 in0.0 mm 0.00 in0.0 mm 0.00 in0.0 mm
01:17 PM 35.9°F2.2°C 28.8°F-1.8°C 75% Calm Calm -- 29.48 in998.3 mb 0.00 in0.0 mm 0.00 in0.0 mm 0.00 in0.0 mm
01:18 PM 35.9°F2.2°C 28.8°F-1.8°C 75% Calm Calm -- 29.47 in998.0 mb 0.00 in0.0 mm 0.00 in0.0 mm 0.00 in0.0 mm
01:19 PM 35.9°F2.2°C 28.8°F-1.8°C 75% 2.9 mph SE4.7 kmh SE 8.0 mph12.9 kmh 29.47 in998.0 mb 0.00 in0.0 mm 0.00 in0.0 mm 0.00 in0.0 mm
01:20 PM 35.9°F2.2°C 28.8°F-1.8°C 75% 1.6 mph SE2.6 kmh SE 8.0 mph12.9 kmh 29.48 in998.3 mb 0.00 in0.0 mm 0.00 in0.0 mm 0.00 in0.0 mm
01:21 PM 36.0°F2.2°C 28.9°F-1.7°C 75% 3.8 mph SE6.1 kmh SE 5.0 mph8.0 kmh 29.48 in998.3 mb 0.00 in0.0 mm 0.00 in0.0 mm 0.00 in0.0 mm
01:22 PM 36.0°F2.2°C 28.9°F-1.7°C 75% 2.4 mph SE3.9 kmh SE 5.0 mph8.0 kmh 29.47 in998.0 mb 0.00 in0.0 mm 0.00 in0.0 mm 0.00 in0.0 mm
01:23 PM 36.0°F2.2°C 28.9°F-1.7°C 75% 2.4 mph SE3.9 kmh SE 5.0 mph8.0 kmh 29.48 in998.3 mb 0.00 in0.0 mm 0.00 in0.0 mm 0.00 in0.0 mm
01:24 PM 36.0°F2.2°C 28.9°F-1.7°C 75% 2.6 mph SE4.2 kmh SE 5.0 mph8.0 kmh 29.48 in998.3 mb 0.00 in0.0 mm 0.00 in0.0 mm 0.00 in0.0 mm
01:25 PM 36.0°F2.2°C 28.9°F-1.7°C 75% 3.2 mph SE5.1 kmh SE 5.0 mph8.0 kmh 29.48 in998.3 mb 0.00 in0.0 mm 0.00 in0.0 mm 0.00 in0.0 mm
01:26 PM 36.0°F2.2°C 28.9°F-1.7°C 75% 3.5 mph SE5.6 kmh SE 7.0 mph11.3 kmh 29.48 in998.3 mb 0.00 in0.0 mm 0.00 in0.0 mm 0.00 in0.0 mm
01:27 PM 36.0°F2.2°C 28.9°F-1.7°C 75% 2.3 mph SE3.7 kmh SE 7.0 mph11.3 kmh 29.48 in998.3 mb 0.00 in0.0 mm 0.00 in0.0 mm 0.00 in0.0 mm
01:28 PM 36.0°F2.2°C 28.9°F-1.7°C 75% 1.1 mph SE1.8 kmh SE 5.0 mph8.0 kmh 29.47 in998.0 mb 0.00 in0.0 mm 0.00 in0.0 mm 0.00 in0.0 mm
01:29 PM 36.0°F2.2°C 28.9°F-1.7°C 75% 2.2 mph SE3.5 kmh SE 5.0 mph8.0 kmh 29.47 in998.0 mb 0.00 in0.0 mm 0.00 in0.0 mm 0.00 in0.0 mm
01:30 PM 36.0°F2.2°C 28.9°F-1.7°C 75% 3.3 mph SE5.3 kmh SE 5.0 mph8.0 kmh 29.47 in998.0 mb 0.00 in0.0 mm 0.00 in0.0 mm 0.00 in0.0 mm
01:31 PM 36.0°F2.2°C 28.9°F-1.7°C 75% 0.3 mph SE0.5 kmh SE 5.0 mph8.0 kmh 29.47 in998.0 mb 0.00 in0.0 mm 0.00 in0.0 mm 0.00 in0.0 mm
01:32 PM 36.0°F2.2°C 28.9°F-1.7°C 75% 1.3 mph SE2.1 kmh SE 7.0 mph11.3 kmh 29.47 in998.0 mb 0.00 in0.0 mm 0.00 in0.0 mm 0.00 in0.0 mm
01:33 PM 36.0°F2.2°C 28.9°F-1.7°C 75% 0.4 mph SE0.6 kmh SE 7.0 mph11.3 kmh 29.47 in998.0 mb 0.00 in0.0 mm 0.00 in0.0 mm 0.00 in0.0 mm
01:34 PM 36.0°F2.2°C 28.9°F-1.7°C 75% 0.7 mph SE1.1 kmh SE 5.0 mph8.0 kmh 29.47 in998.0 mb 0.00 in0.0 mm 0.00 in0.0 mm 0.00 in0.0 mm
01:35 PM 36.0°F2.2°C 28.9°F-1.7°C 75% 0.5 mph SE0.8 kmh SE 5.0 mph8.0 kmh 29.47 in998.0 mb 0.00 in0.0 mm 0.00 in0.0 mm 0.00 in0.0 mm
01:36 PM 36.1°F2.3°C 29.0°F-1.7°C 75% 0.3 mph SE0.5 kmh SE 3.0 mph4.8 kmh 29.47 in998.0 mb 0.00 in0.0 mm 0.00 in0.0 mm 0.00 in0.0 mm
01:37 PM 36.1°F2.3°C 29.0°F-1.7°C 75% Calm Calm 3.0 mph4.8 kmh 29.47 in998.0 mb 0.00 in0.0 mm 0.00 in0.0 mm 0.00 in0.0 mm
01:38 PM 36.1°F2.3°C 29.0°F-1.7°C 75% 1.4 mph SE2.3 kmh SE 4.0 mph6.4 kmh 29.47 in998.0 mb 0.00 in0.0 mm 0.00 in0.0 mm 0.00 in0.0 mm
01:39 PM 36.1°F2.3°C 29.0°F-1.7°C 75% 2.9 mph SE4.7 kmh SE 5.0 mph8.0 kmh 29.47 in998.0 mb 0.00 in0.0 mm 0.00 in0.0 mm 0.00 in0.0 mm
01:40 PM 36.1°F2.3°C 29.0°F-1.7°C 75% 2.7 mph SE4.3 kmh SE 5.0 mph8.0 kmh 29.47 in998.0 mb 0.00 in0.0 mm 0.00 in0.0 mm 0.00 in0.0 mm
01:41 PM 36.1°F2.3°C 29.0°F-1.7°C 75% 1.5 mph SE2.4 kmh SE 5.0 mph8.0 kmh 29.47 in998.0 mb 0.00 in0.0 mm 0.00 in0.0 mm 0.00 in0.0 mm
01:42 PM 36.1°F2.3°C 29.0°F-1.7°C 75% 3.0 mph SE4.8 kmh SE 7.0 mph11.3 kmh 29.47 in998.0 mb 0.00 in0.0 mm 0.00 in0.0 mm 0.00 in0.0 mm
01:43 PM 36.1°F2.3°C 29.0°F-1.7°C 75% 2.2 mph SE3.5 kmh SE 7.0 mph11.3 kmh 29.47 in998.0 mb 0.00 in0.0 mm 0.00 in0.0 mm 0.00 in0.0 mm
01:44 PM 36.2°F2.3°C 29.1°F-1.6°C 75% 0.6 mph SE1.0 kmh SE 3.0 mph4.8 kmh 29.47 in998.0 mb 0.00 in0.0 mm 0.00 in0.0 mm 0.00 in0.0 mm
01:45 PM 36.2°F2.3°C 29.1°F-1.6°C 75% 1.0 mph SE1.6 kmh SE 3.0 mph4.8 kmh 29.47 in998.0 mb 0.00 in0.0 mm 0.00 in0.0 mm 0.00 in0.0 mm
01:46 PM 36.2°F2.3°C 29.1°F-1.6°C 75% 0.3 mph SE0.5 kmh SE 3.0 mph4.8 kmh 29.47 in998.0 mb 0.00 in0.0 mm 0.00 in0.0 mm 0.00 in0.0 mm
01:47 PM 36.2°F2.3°C 29.1°F-1.6°C 75% 0.9 mph SE1.4 kmh SE 4.0 mph6.4 kmh 29.47 in998.0 mb 0.00 in0.0 mm 0.00 in0.0 mm 0.00 in0.0 mm
01:48 PM 36.2°F2.3°C 29.1°F-1.6°C 75% 3.5 mph SE5.6 kmh SE 7.0 mph11.3 kmh 29.47 in998.0 mb 0.00 in0.0 mm 0.00 in0.0 mm 0.00 in0.0 mm
01:49 PM 36.2°F2.3°C 29.1°F-1.6°C 75% 1.1 mph SE1.8 kmh SE 7.0 mph11.3 kmh 29.47 in998.0 mb 0.00 in0.0 mm 0.00 in0.0 mm 0.00 in0.0 mm
01:50 PM 36.2°F2.3°C 29.1°F-1.6°C 75% 0.8 mph SE1.3 kmh SE 4.0 mph6.4 kmh 29.47 in998.0 mb 0.00 in0.0 mm 0.00 in0.0 mm 0.00 in0.0 mm
01:51 PM 36.2°F2.3°C 29.1°F-1.6°C 75% 2.8 mph SE4.5 kmh SE 5.0 mph8.0 kmh 29.47 in998.0 mb 0.00 in0.0 mm 0.00 in0.0 mm 0.00 in0.0 mm
01:52 PM 36.2°F2.3°C 29.1°F-1.6°C 75% 0.7 mph SE1.1 kmh SE 5.0 mph8.0 kmh 29.47 in998.0 mb 0.00 in0.0 mm 0.00 in0.0 mm 0.00 in0.0 mm
01:53 PM 36.2°F2.3°C 29.1°F-1.6°C 75% 2.0 mph SE3.2 kmh SE 5.0 mph8.0 kmh 29.47 in998.0 mb 0.00 in0.0 mm 0.00 in0.0 mm 0.00 in0.0 mm
01:54 PM 36.2°F2.3°C 29.1°F-1.6°C 75% 1.3 mph SE2.1 kmh SE 5.0 mph8.0 kmh 29.47 in998.0 mb 0.00 in0.0 mm 0.00 in0.0 mm 0.00 in0.0 mm
01:55 PM 36.2°F2.3°C 29.1°F-1.6°C 75% Calm Calm 3.0 mph4.8 kmh 29.47 in998.0 mb 0.00 in0.0 mm 0.00 in0.0 mm 0.00 in0.0 mm
01:56 PM 36.2°F2.3°C 29.1°F-1.6°C 75% Calm Calm -- 29.46 in997.6 mb 0.00 in0.0 mm 0.00 in0.0 mm 0.00 in0.0 mm
01:57 PM 36.2°F2.3°C 29.1°F-1.6°C 75% 2.2 mph SE3.5 kmh SE 7.0 mph11.3 kmh 29.46 in997.6 mb 0.00 in0.0 mm 0.00 in0.0 mm 0.00 in0.0 mm
01:58 PM 36.2°F2.3°C 29.1°F-1.6°C 75% Calm Calm 7.0 mph11.3 kmh 29.46 in997.6 mb 0.00 in0.0 mm 0.00 in0.0 mm 0.00 in0.0 mm
01:59 PM 36.2°F2.3°C 29.1°F-1.6°C 75% 3.2 mph SE5.1 kmh SE 7.0 mph11.3 kmh 29.46 in997.6 mb 0.00 in0.0 mm 0.00 in0.0 mm 0.00 in0.0 mm
02:00 PM 36.2°F2.3°C 29.1°F-1.6°C 75% 2.7 mph SE4.3 kmh SE 7.0 mph11.3 kmh 29.46 in997.6 mb 0.00 in0.0 mm 0.00 in0.0 mm 0.00 in0.0 mm
02:01 PM 36.2°F2.3°C 29.1°F-1.6°C 75% 1.3 mph SE2.1 kmh SE 4.0 mph6.4 kmh 29.46 in997.6 mb 0.00 in0.0 mm 0.00 in0.0 mm 0.00 in0.0 mm
02:02 PM 36.2°F2.3°C 29.1°F-1.6°C 75% 3.1 mph SE5.0 kmh SE 7.0 mph11.3 kmh 29.46 in997.6 mb 0.00 in0.0 mm 0.00 in0.0 mm 0.00 in0.0 mm
02:03 PM 36.2°F2.3°C 29.1°F-1.6°C 75% 0.5 mph SE0.8 kmh SE 7.0 mph11.3 kmh 29.46 in997.6 mb 0.00 in0.0 mm 0.00 in0.0 mm 0.00 in0.0 mm
02:04 PM 36.2°F2.3°C 29.1°F-1.6°C 75% 3.5 mph ESE5.6 kmh ESE 9.0 mph14.5 kmh 29.46 in997.6 mb 0.00 in0.0 mm 0.00 in0.0 mm 0.00 in0.0 mm
02:05 PM 36.2°F2.3°C 29.1°F-1.6°C 75% 5.0 mph ESE8.0 kmh ESE 9.0 mph14.5 kmh 29.46 in997.6 mb 0.00 in0.0 mm 0.00 in0.0 mm 0.00 in0.0 mm
02:06 PM 36.2°F2.3°C 29.4°F-1.4°C 76% 5.9 mph ESE9.5 kmh ESE 8.0 mph12.9 kmh 29.46 in997.6 mb 0.00 in0.0 mm 0.00 in0.0 mm 0.00 in0.0 mm
02:07 PM 36.1°F2.3°C 29.3°F-1.5°C 76% 4.7 mph E7.6 kmh E 8.0 mph12.9 kmh 29.46 in997.6 mb 0.00 in0.0 mm 0.00 in0.0 mm 0.00 in0.0 mm
02:08 PM 36.1°F2.3°C 29.3°F-1.5°C 76% 4.8 mph E7.7 kmh E 8.0 mph12.9 kmh 29.46 in997.6 mb 0.00 in0.0 mm 0.00 in0.0 mm 0.00 in0.0 mm
02:09 PM 36.1°F2.3°C 29.3°F-1.5°C 76% 6.5 mph E10.5 kmh E 10.0 mph16.1 kmh 29.46 in997.6 mb 0.00 in0.0 mm 0.00 in0.0 mm 0.00 in0.0 mm
02:10 PM 36.1°F2.3°C 29.3°F-1.5°C 76% 5.1 mph E8.2 kmh E 10.0 mph16.1 kmh 29.46 in997.6 mb 0.00 in0.0 mm 0.00 in0.0 mm 0.00 in0.0 mm
02:11 PM 36.0°F2.2°C 29.5°F-1.4°C 77% 2.7 mph E4.3 kmh E 8.0 mph12.9 kmh 29.46 in997.6 mb 0.00 in0.0 mm 0.00 in0.0 mm 0.00 in0.0 mm
02:12 PM 36.0°F2.2°C 29.5°F-1.4°C 77% 7.6 mph E12.2 kmh E 9.0 mph14.5 kmh 29.46 in997.6 mb 0.00 in0.0 mm 0.00 in0.0 mm 0.00 in0.0 mm
02:13 PM 36.0°F2.2°C 29.5°F-1.4°C 77% 3.9 mph E6.3 kmh E 9.0 mph14.5 kmh 29.46 in997.6 mb 0.00 in0.0 mm 0.00 in0.0 mm 0.00 in0.0 mm
02:14 PM 36.0°F2.2°C 29.5°F-1.4°C 77% 3.7 mph E6.0 kmh E 9.0 mph14.5 kmh 29.46 in997.6 mb 0.00 in0.0 mm 0.00 in0.0 mm 0.00 in0.0 mm
02:15 PM 36.0°F2.2°C 29.5°F-1.4°C 77% 3.2 mph E5.1 kmh E 8.0 mph12.9 kmh 29.46 in997.6 mb 0.00 in0.0 mm 0.00 in0.0 mm 0.00 in0.0 mm
02:16 PM 36.0°F2.2°C 29.5°F-1.4°C 77% 0.6 mph E1.0 kmh E 5.0 mph8.0 kmh 29.46 in997.6 mb 0.00 in0.0 mm 0.00 in0.0 mm 0.00 in0.0 mm
02:17 PM 36.0°F2.2°C 29.5°F-1.4°C 77% 3.3 mph E5.3 kmh E 7.0 mph11.3 kmh 29.46 in997.6 mb 0.00 in0.0 mm 0.00 in0.0 mm 0.00 in0.0 mm
02:18 PM 36.0°F2.2°C 29.8°F-1.2°C 78% 4.6 mph E7.4 kmh E 9.0 mph14.5 kmh 29.46 in997.6 mb 0.00 in0.0 mm 0.00 in0.0 mm 0.00 in0.0 mm
02:19 PM 36.0°F2.2°C 29.8°F-1.2°C 78% 1.0 mph E1.6 kmh E 9.0 mph14.5 kmh 29.46 in997.6 mb 0.00 in0.0 mm 0.00 in0.0 mm 0.00 in0.0 mm
02:20 PM 36.0°F2.2°C 29.8°F-1.2°C 78% 7.4 mph E11.9 kmh E 10.0 mph16.1 kmh 29.46 in997.6 mb 0.00 in0.0 mm 0.00 in0.0 mm 0.00 in0.0 mm
02:21 PM 36.0°F2.2°C 29.8°F-1.2°C 78% 5.6 mph E9.0 kmh E 10.0 mph16.1 kmh 29.46 in997.6 mb 0.00 in0.0 mm 0.00 in0.0 mm 0.00 in0.0 mm
02:22 PM 36.0°F2.2°C 29.8°F-1.2°C 78% 2.5 mph E4.0 kmh E 9.0 mph14.5 kmh 29.46 in997.6 mb 0.00 in0.0 mm 0.00 in0.0 mm 0.00 in0.0 mm
02:23 PM 36.0°F2.2°C 29.8°F-1.2°C 78% 2.5 mph E4.0 kmh E 6.0 mph9.7 kmh 29.46 in997.6 mb 0.00 in0.0 mm 0.00 in0.0 mm 0.00 in0.0 mm
02:24 PM 36.0°F2.2°C 29.8°F-1.2°C 78% 3.9 mph E6.3 kmh E 7.0 mph11.3 kmh 29.46 in997.6 mb 0.00 in0.0 mm 0.00 in0.0 mm 0.00 in0.0 mm
02:25 PM 36.0°F2.2°C 29.8°F-1.2°C 78% 6.0 mph E9.7 kmh E 9.0 mph14.5 kmh 29.47 in998.0 mb 0.00 in0.0 mm 0.00 in0.0 mm 0.00 in0.0 mm
02:26 PM 36.0°F2.2°C 29.8°F-1.2°C 78% 3.1 mph E5.0 kmh E 9.0 mph14.5 kmh 29.46 in997.6 mb 0.00 in0.0 mm 0.00 in0.0 mm 0.00 in0.0 mm
02:27 PM 35.9°F2.2°C 29.7°F-1.3°C 78% 4.9 mph E7.9 kmh E 8.0 mph12.9 kmh 29.47 in998.0 mb 0.00 in0.0 mm 0.00 in0.0 mm 0.00 in0.0 mm
02:28 PM 35.9°F2.2°C 29.7°F-1.3°C 78% 4.7 mph E7.6 kmh E 9.0 mph14.5 kmh 29.46 in997.6 mb 0.00 in0.0 mm 0.00 in0.0 mm 0.00 in0.0 mm
02:29 PM 35.9°F2.2°C 29.7°F-1.3°C 78% 6.0 mph E9.7 kmh E 10.0 mph16.1 kmh 29.47 in998.0 mb 0.00 in0.0 mm 0.00 in0.0 mm 0.00 in0.0 mm
02:30 PM 35.9°F2.2°C 29.7°F-1.3°C 78% 2.8 mph E4.5 kmh E 10.0 mph16.1 kmh 29.46 in997.6 mb 0.00 in0.0 mm 0.00 in0.0 mm 0.00 in0.0 mm
02:31 PM 35.9°F2.2°C 29.7°F-1.3°C 78% 1.6 mph E2.6 kmh E 6.0 mph9.7 kmh 29.46 in997.6 mb 0.00 in0.0 mm 0.00 in0.0 mm 0.00 in0.0 mm
02:32 PM 35.9°F2.2°C 29.7°F-1.3°C 78% 1.1 mph E1.8 kmh E 4.0 mph6.4 kmh 29.46 in997.6 mb 0.00 in0.0 mm 0.00 in0.0 mm 0.00 in0.0 mm
02:33 PM 35.9°F2.2°C 29.7°F-1.3°C 78% Calm Calm 4.0 mph6.4 kmh 29.46 in997.6 mb 0.00 in0.0 mm 0.00 in0.0 mm 0.00 in0.0 mm
02:34 PM 35.9°F2.2°C 29.7°F-1.3°C 78% 0.3 mph E0.5 kmh E 3.0 mph4.8 kmh 29.46 in997.6 mb 0.00 in0.0 mm 0.00 in0.0 mm 0.00 in0.0 mm
02:35 PM 36.0°F2.2°C 29.8°F-1.2°C 78% 4.2 mph E6.8 kmh E 7.0 mph11.3 kmh 29.46 in997.6 mb 0.00 in0.0 mm 0.00 in0.0 mm 0.00 in0.0 mm
02:36 PM 36.0°F2.2°C 29.8°F-1.2°C 78% 1.1 mph E1.8 kmh E 7.0 mph11.3 kmh 29.46 in997.6 mb 0.00 in0.0 mm 0.00 in0.0 mm 0.00 in0.0 mm
02:37 PM 36.0°F2.2°C 29.8°F-1.2°C 78% 1.2 mph E1.9 kmh E 4.0 mph6.4 kmh 29.46 in997.6 mb 0.00 in0.0 mm 0.00 in0.0 mm 0.00 in0.0 mm
02:38 PM 36.0°F2.2°C 29.8°F-1.2°C 78% 0.4 mph E0.6 kmh E 3.0 mph4.8 kmh 29.46 in997.6 mb 0.00 in0.0 mm 0.00 in0.0 mm 0.00 in0.0 mm
02:39 PM 36.0°F2.2°C 29.8°F-1.2°C 78% 3.9 mph E6.3 kmh E 9.0 mph14.5 kmh 29.46 in997.6 mb 0.00 in0.0 mm 0.00 in0.0 mm 0.00 in0.0 mm
02:40 PM 36.1°F2.3°C 29.9°F-1.2°C 78% 4.6 mph E7.4 kmh E 9.0 mph14.5 kmh 29.46 in997.6 mb 0.00 in0.0 mm 0.00 in0.0 mm 0.00 in0.0 mm
02:41 PM 36.1°F2.3°C 29.9°F-1.2°C 78% 7.0 mph E11.3 kmh E 12.0 mph19.3 kmh 29.46 in997.6 mb 0.00 in0.0 mm 0.00 in0.0 mm 0.00 in0.0 mm
02:42 PM 36.0°F2.2°C 29.8°F-1.2°C 78% 4.4 mph E7.1 kmh E 12.0 mph19.3 kmh 29.46 in997.6 mb 0.00 in0.0 mm 0.00 in0.0 mm 0.00 in0.0 mm
02:43 PM 36.0°F2.2°C 30.1°F-1.1°C 79% 2.8 mph E4.5 kmh E 8.0 mph12.9 kmh 29.46 in997.6 mb 0.00 in0.0 mm 0.00 in0.0 mm 0.00 in0.0 mm
02:44 PM 36.0°F2.2°C 30.1°F-1.1°C 79% 4.9 mph E7.9 kmh E 10.0 mph16.1 kmh 29.46 in997.6 mb 0.00 in0.0 mm 0.00 in0.0 mm 0.00 in0.0 mm
02:45 PM 36.0°F2.2°C 30.1°F-1.1°C 79% 6.4 mph E10.3 kmh E 13.0 mph20.9 kmh 29.46 in997.6 mb 0.00 in0.0 mm 0.00 in0.0 mm 0.00 in0.0 mm
02:46 PM 36.0°F2.2°C 30.1°F-1.1°C 79% 6.3 mph E10.1 kmh E 13.0 mph20.9 kmh 29.46 in997.6 mb 0.00 in0.0 mm 0.00 in0.0 mm 0.00 in0.0 mm
02:47 PM 36.0°F2.2°C 30.1°F-1.1°C 79% 8.9 mph E14.3 kmh E 12.0 mph19.3 kmh 29.46 in997.6 mb 0.00 in0.0 mm 0.00 in0.0 mm 0.00 in0.0 mm
02:48 PM 35.9°F2.2°C 30.0°F-1.1°C 79% 5.9 mph E9.5 kmh E 12.0 mph19.3 kmh 29.46 in997.6 mb 0.00 in0.0 mm 0.00 in0.0 mm 0.00 in0.0 mm
02:49 PM 35.9°F2.2°C 30.0°F-1.1°C 79% 5.5 mph E8.9 kmh E 9.0 mph14.5 kmh 29.46 in997.6 mb 0.00 in0.0 mm 0.00 in0.0 mm 0.00 in0.0 mm
02:50 PM 35.8°F2.1°C 29.9°F-1.2°C 79% 6.7 mph E10.8 kmh E 10.0 mph16.1 kmh 29.46 in997.6 mb 0.00 in0.0 mm 0.00 in0.0 mm 0.00 in0.0 mm
02:51 PM 35.7°F2.1°C 29.8°F-1.2°C 79% 8.3 mph E13.4 kmh E 12.0 mph19.3 kmh 29.46 in997.6 mb 0.00 in0.0 mm 0.00 in0.0 mm 0.00 in0.0 mm
02:52 PM 35.7°F2.1°C 29.8°F-1.2°C 79% 8.4 mph E13.5 kmh E 12.0 mph19.3 kmh 29.46 in997.6 mb 0.00 in0.0 mm 0.00 in0.0 mm 0.00 in0.0 mm
02:53 PM 35.7°F2.1°C 30.1°F-1.1°C 80% 5.5 mph E8.9 kmh E 12.0 mph19.3 kmh 29.46 in997.6 mb 0.00 in0.0 mm 0.00 in0.0 mm 0.00 in0.0 mm
02:54 PM 35.6°F2.0°C 30.1°F-1.1°C 80% 3.6 mph E5.8 kmh E 11.0 mph17.7 kmh 29.46 in997.6 mb 0.00 in0.0 mm 0.00 in0.0 mm 0.00 in0.0 mm
02:55 PM 35.6°F2.0°C 30.1°F-1.1°C 80% 5.1 mph E8.2 kmh E 8.0 mph12.9 kmh 29.46 in997.6 mb 0.00 in0.0 mm 0.00 in0.0 mm 0.00 in0.0 mm
02:56 PM 35.6°F2.0°C 30.1°F-1.1°C 80% 5.4 mph E8.7 kmh E 11.0 mph17.7 kmh 29.45 in997.3 mb 0.00 in0.0 mm 0.00 in0.0 mm 0.00 in0.0 mm
02:57 PM 35.6°F2.0°C 30.1°F-1.1°C 80% 4.5 mph E7.2 kmh E 11.0 mph17.7 kmh 29.45 in997.3 mb 0.00 in0.0 mm 0.00 in0.0 mm 0.00 in0.0 mm
02:58 PM 35.6°F2.0°C 30.1°F-1.1°C 80% 5.3 mph E8.5 kmh E 10.0 mph16.1 kmh 29.46 in997.6 mb 0.00 in0.0 mm 0.00 in0.0 mm 0.00 in0.0 mm
02:59 PM 35.6°F2.0°C 30.1°F-1.1°C 80% 5.5 mph E8.9 kmh E 10.0 mph16.1 kmh 29.45 in997.3 mb 0.00 in0.0 mm 0.00 in0.0 mm 0.00 in0.0 mm
03:00 PM 35.6°F2.0°C 30.1°F-1.1°C 80% 3.6 mph E5.8 kmh E 9.0 mph14.5 kmh 29.46 in997.6 mb 0.00 in0.0 mm 0.00 in0.0 mm 0.00 in0.0 mm
03:01 PM 35.6°F2.0°C 30.1°F-1.1°C 80% 3.9 mph E6.3 kmh E 11.0 mph17.7 kmh 29.45 in997.3 mb 0.00 in0.0 mm 0.00 in0.0 mm 0.00 in0.0 mm
03:02 PM 35.6°F2.0°C 30.1°F-1.1°C 80% 4.4 mph E7.1 kmh E 9.0 mph14.5 kmh 29.45 in997.3 mb 0.00 in0.0 mm 0.00 in0.0 mm 0.00 in0.0 mm
03:03 PM 35.6°F2.0°C 30.1°F-1.1°C 80% 5.4 mph E8.7 kmh E 11.0 mph17.7 kmh 29.46 in997.6 mb 0.00 in0.0 mm 0.00 in0.0 mm 0.00 in0.0 mm
03:04 PM 35.6°F2.0°C 30.1°F-1.1°C 80% 6.2 mph E10.0 kmh E 11.0 mph17.7 kmh 29.46 in997.6 mb 0.00 in0.0 mm 0.00 in0.0 mm 0.00 in0.0 mm
03:05 PM 35.6°F2.0°C 30.1°F-1.1°C 80% 5.4 mph E8.7 kmh E 9.0 mph14.5 kmh 29.46 in997.6 mb 0.00 in0.0 mm 0.00 in0.0 mm 0.00 in0.0 mm
03:06 PM 35.6°F2.0°C 30.1°F-1.1°C 80% 6.5 mph E10.5 kmh E 10.0 mph16.1 kmh 29.45 in997.3 mb 0.00 in0.0 mm 0.00 in0.0 mm 0.00 in0.0 mm
03:07 PM 35.5°F1.9°C 30.0°F-1.1°C 80% 7.5 mph E12.1 kmh E 11.0 mph17.7 kmh 29.46 in997.6 mb 0.00 in0.0 mm 0.00 in0.0 mm 0.00 in0.0 mm
03:08 PM 35.5°F1.9°C 30.0°F-1.1°C 80% 8.8 mph E14.2 kmh E 13.0 mph20.9 kmh 29.46 in997.6 mb 0.00 in0.0 mm 0.00 in0.0 mm 0.00 in0.0 mm
03:09 PM 35.5°F1.9°C 30.0°F-1.1°C 80% 7.3 mph E11.7 kmh E 13.0 mph20.9 kmh 29.46 in997.6 mb 0.00 in0.0 mm 0.00 in0.0 mm 0.00 in0.0 mm
03:10 PM 35.5°F1.9°C 30.0°F-1.1°C 80% 7.9 mph E12.7 kmh E 12.0 mph19.3 kmh 29.46 in997.6 mb 0.00 in0.0 mm 0.00 in0.0 mm 0.00 in0.0 mm
03:11 PM 35.5°F1.9°C 30.3°F-0.9°C 81% 5.6 mph E9.0 kmh E 12.0 mph19.3 kmh 29.46 in997.6 mb 0.00 in0.0 mm 0.00 in0.0 mm 0.00 in0.0 mm
03:12 PM 35.4°F1.9°C 30.2°F-1.0°C 81% 5.8 mph E9.3 kmh E 10.0 mph16.1 kmh 29.46 in997.6 mb 0.00 in0.0 mm 0.00 in0.0 mm 0.00 in0.0 mm
03:13 PM 35.4°F1.9°C 30.2°F-1.0°C 81% 4.7 mph E7.6 kmh E 9.0 mph14.5 kmh 29.46 in997.6 mb 0.00 in0.0 mm 0.00 in0.0 mm 0.00 in0.0 mm
03:14 PM 35.4°F1.9°C 30.2°F-1.0°C 81% 1.9 mph E3.1 kmh E 8.0 mph12.9 kmh 29.46 in997.6 mb 0.00 in0.0 mm 0.00 in0.0 mm 0.00 in0.0 mm
03:15 PM 35.4°F1.9°C 30.2°F-1.0°C 81% 2.4 mph E3.9 kmh E 5.0 mph8.0 kmh 29.46 in997.6 mb 0.00 in0.0 mm 0.00 in0.0 mm 0.00 in0.0 mm
03:16 PM 35.4°F1.9°C 30.2°F-1.0°C 81% 3.6 mph E5.8 kmh E 10.0 mph16.1 kmh 29.46 in997.6 mb 0.00 in0.0 mm 0.00 in0.0 mm 0.00 in0.0 mm
03:17 PM 35.4°F1.9°C 30.2°F-1.0°C 81% 2.1 mph E3.4 kmh E 10.0 mph16.1 kmh 29.46 in997.6 mb 0.00 in0.0 mm 0.00 in0.0 mm 0.00 in0.0 mm
03:18 PM 35.4°F1.9°C 30.2°F-1.0°C 81% 5.2 mph E8.4 kmh E 10.0 mph16.1 kmh 29.46 in997.6 mb 0.00 in0.0 mm 0.00 in0.0 mm 0.00 in0.0 mm
03:19 PM 35.4°F1.9°C 30.2°F-1.0°C 81% 3.9 mph E6.3 kmh E 10.0 mph16.1 kmh 29.46 in997.6 mb 0.00 in0.0 mm 0.00 in0.0 mm 0.00 in0.0 mm
03:20 PM 35.4°F1.9°C 30.2°F-1.0°C 81% 5.5 mph E8.9 kmh E 10.0 mph16.1 kmh 29.46 in997.6 mb 0.00 in0.0 mm 0.00 in0.0 mm 0.00 in0.0 mm
03:21 PM 35.4°F1.9°C 30.2°F-1.0°C 81% 4.6 mph E7.4 kmh E 10.0 mph16.1 kmh 29.46 in997.6 mb 0.00 in0.0 mm 0.00 in0.0 mm 0.00 in0.0 mm
03:22 PM 35.4°F1.9°C 30.2°F-1.0°C 81% 2.5 mph E4.0 kmh E 8.0 mph12.9 kmh 29.46 in997.6 mb 0.00 in0.0 mm 0.00 in0.0 mm 0.00 in0.0 mm
03:23 PM 35.4°F1.9°C 30.2°F-1.0°C 81% 4.0 mph E6.4 kmh E 8.0 mph12.9 kmh 29.46 in997.6 mb 0.00 in0.0 mm 0.00 in0.0 mm 0.00 in0.0 mm
03:24 PM 35.3°F1.8°C 30.1°F-1.1°C 81% 2.9 mph E4.7 kmh E 7.0 mph11.3 kmh 29.46 in997.6 mb 0.00 in0.0 mm 0.00 in0.0 mm 0.00 in0.0 mm
03:25 PM 35.4°F1.9°C 30.2°F-1.0°C 81% 3.7 mph E6.0 kmh E 10.0 mph16.1 kmh 29.46 in997.6 mb 0.00 in0.0 mm 0.00 in0.0 mm 0.00 in0.0 mm
03:26 PM 35.3°F1.8°C 30.1°F-1.1°C 81% 7.4 mph E11.9 kmh E 11.0 mph17.7 kmh 29.46 in997.6 mb 0.00 in0.0 mm 0.00 in0.0 mm 0.00 in0.0 mm
03:27 PM 35.3°F1.8°C 30.1°F-1.1°C 81% 4.6 mph E7.4 kmh E 11.0 mph17.7 kmh 29.46 in997.6 mb 0.00 in0.0 mm 0.00 in0.0 mm 0.00 in0.0 mm
03:28 PM 35.3°F1.8°C 30.1°F-1.1°C 81% 5.7 mph E9.2 kmh E 11.0 mph17.7 kmh 29.46 in997.6 mb 0.00 in0.0 mm 0.00 in0.0 mm 0.00 in0.0 mm
03:29 PM 35.3°F1.8°C 30.4°F-0.9°C 82% 5.5 mph E8.9 kmh E 11.0 mph17.7 kmh 29.45 in997.3 mb 0.00 in0.0 mm 0.00 in0.0 mm 0.00 in0.0 mm
03:30 PM 35.3°F1.8°C 30.4°F-0.9°C 82% 5.3 mph E8.5 kmh E 9.0 mph14.5 kmh 29.45 in997.3 mb 0.00 in0.0 mm 0.00 in0.0 mm 0.00 in0.0 mm
03:31 PM 35.3°F1.8°C 30.4°F-0.9°C 82% 4.4 mph E7.1 kmh E 9.0 mph14.5 kmh 29.45 in997.3 mb 0.00 in0.0 mm 0.00 in0.0 mm 0.00 in0.0 mm
03:32 PM 35.3°F1.8°C 30.4°F-0.9°C 82% 3.7 mph E6.0 kmh E 9.0 mph14.5 kmh 29.45 in997.3 mb 0.00 in0.0 mm 0.00 in0.0 mm 0.00 in0.0 mm
03:33 PM 35.3°F1.8°C 30.4°F-0.9°C 82% 6.6 mph E10.6 kmh E 12.0 mph19.3 kmh 29.45 in997.3 mb 0.00 in0.0 mm 0.00 in0.0 mm 0.00 in0.0 mm
03:34 PM 35.3°F1.8°C 30.4°F-0.9°C 82% 2.8 mph E4.5 kmh E 12.0 mph19.3 kmh 29.45 in997.3 mb 0.00 in0.0 mm 0.00 in0.0 mm 0.00 in0.0 mm
03:35 PM 35.3°F1.8°C 30.4°F-0.9°C 82% 5.2 mph E8.4 kmh E 10.0 mph16.1 kmh 29.45 in997.3 mb 0.00 in0.0 mm 0.00 in0.0 mm 0.00 in0.0 mm
03:36 PM 35.4°F1.9°C 30.5°F-0.8°C 82% 4.5 mph E7.2 kmh E 10.0 mph16.1 kmh 29.45 in997.3 mb 0.00 in0.0 mm 0.00 in0.0 mm 0.00 in0.0 mm
03:37 PM 35.4°F1.9°C 30.5°F-0.8°C 82% 5.4 mph E8.7 kmh E 10.0 mph16.1 kmh 29.45 in997.3 mb 0.00 in0.0 mm 0.00 in0.0 mm 0.00 in0.0 mm
03:38 PM 35.3°F1.8°C 30.4°F-0.9°C 82% 4.7 mph E7.6 kmh E 10.0 mph16.1 kmh 29.45 in997.3 mb 0.00 in0.0 mm 0.00 in0.0 mm 0.00 in0.0 mm
03:39 PM 35.3°F1.8°C 30.4°F-0.9°C 82% 2.7 mph E4.3 kmh E 10.0 mph16.1 kmh 29.45 in997.3 mb 0.00 in0.0 mm 0.00 in0.0 mm 0.00 in0.0 mm
03:40 PM 35.3°F1.8°C 30.4°F-0.9°C 82% 3.7 mph E6.0 kmh E 8.0 mph12.9 kmh 29.45 in997.3 mb 0.00 in0.0 mm 0.00 in0.0 mm 0.00 in0.0 mm
03:41 PM 35.3°F1.8°C 30.4°F-0.9°C 82% 6.2 mph E10.0 kmh E 10.0 mph16.1 kmh 29.45 in997.3 mb 0.00 in0.0 mm 0.00 in0.0 mm 0.00 in0.0 mm
03:42 PM 35.3°F1.8°C 30.4°F-0.9°C 82% 9.1 mph E14.6 kmh E 13.0 mph20.9 kmh 29.45 in997.3 mb 0.00 in0.0 mm 0.00 in0.0 mm 0.00 in0.0 mm
03:43 PM 35.3°F1.8°C 30.4°F-0.9°C 82% 9.6 mph E15.4 kmh E 15.0 mph24.1 kmh 29.45 in997.3 mb 0.00 in0.0 mm 0.00 in0.0 mm 0.00 in0.0 mm
03:44 PM 35.3°F1.8°C 30.4°F-0.9°C 82% 6.8 mph E10.9 kmh E 15.0 mph24.1 kmh 29.45 in997.3 mb 0.00 in0.0 mm 0.00 in0.0 mm 0.00 in0.0 mm
03:45 PM 35.3°F1.8°C 30.4°F-0.9°C 82% 9.0 mph E14.5 kmh E 15.0 mph24.1 kmh 29.45 in997.3 mb 0.00 in0.0 mm 0.00 in0.0 mm 0.00 in0.0 mm
03:46 PM 35.3°F1.8°C 30.4°F-0.9°C 82% 4.6 mph E7.4 kmh E 15.0 mph24.1 kmh 29.45 in997.3 mb 0.00 in0.0 mm 0.00 in0.0 mm 0.00 in0.0 mm
03:47 PM 35.3°F1.8°C 30.4°F-0.9°C 82% 3.6 mph E5.8 kmh E 11.0 mph17.7 kmh 29.45 in997.3 mb 0.00 in0.0 mm 0.00 in0.0 mm 0.00 in0.0 mm
03:48 PM 35.3°F1.8°C 30.4°F-0.9°C 82% 3.8 mph E6.1 kmh E 8.0 mph12.9 kmh 29.45 in997.3 mb 0.00 in0.0 mm 0.00 in0.0 mm 0.00 in0.0 mm
03:49 PM 35.3°F1.8°C 30.4°F-0.9°C 82% 6.2 mph E10.0 kmh E 10.0 mph16.1 kmh 29.45 in997.3 mb 0.00 in0.0 mm 0.00 in0.0 mm 0.00 in0.0 mm
03:50 PM 35.2°F1.8°C 30.3°F-0.9°C 82% 5.2 mph E8.4 kmh E 10.0 mph16.1 kmh 29.45 in997.3 mb 0.00 in0.0 mm 0.00 in0.0 mm 0.00 in0.0 mm
03:51 PM 35.3°F1.8°C 30.4°F-0.9°C 82% 3.2 mph E5.1 kmh E 10.0 mph16.1 kmh 29.45 in997.3 mb 0.00 in0.0 mm 0.00 in0.0 mm 0.00 in0.0 mm
03:52 PM 35.3°F1.8°C 30.4°F-0.9°C 82% 5.2 mph E8.4 kmh E 13.0 mph20.9 kmh 29.45 in997.3 mb 0.00 in0.0 mm 0.00 in0.0 mm 0.00 in0.0 mm
03:53 PM 35.2°F1.8°C 30.3°F-0.9°C 82% 7.5 mph E12.1 kmh E 13.0 mph20.9 kmh 29.45 in997.3 mb 0.00 in0.0 mm 0.00 in0.0 mm 0.00 in0.0 mm
03:54 PM 35.2°F1.8°C 30.3°F-0.9°C 82% 7.5 mph E12.1 kmh E 14.0 mph22.5 kmh 29.45 in997.3 mb 0.00 in0.0 mm 0.00 in0.0 mm 0.00 in0.0 mm
03:55 PM 35.2°F1.8°C 30.3°F-0.9°C 82% 9.3 mph E15.0 kmh E 15.0 mph24.1 kmh 29.45 in997.3 mb 0.00 in0.0 mm 0.00 in0.0 mm 0.00 in0.0 mm
03:56 PM 35.2°F1.8°C 30.3°F-0.9°C 82% 8.3 mph E13.4 kmh E 15.0 mph24.1 kmh 29.45 in997.3 mb 0.00 in0.0 mm 0.00 in0.0 mm 0.00 in0.0 mm
03:57 PM 35.2°F1.8°C 30.6°F-0.8°C 83% 7.0 mph E11.3 kmh E 12.0 mph19.3 kmh 29.44 in997.0 mb 0.00 in0.0 mm 0.00 in0.0 mm 0.00 in0.0 mm
03:58 PM 35.2°F1.8°C 30.6°F-0.8°C 83% 5.1 mph E8.2 kmh E 11.0 mph17.7 kmh 29.44 in997.0 mb 0.00 in0.0 mm 0.00 in0.0 mm 0.00 in0.0 mm
03:59 PM 35.2°F1.8°C 30.6°F-0.8°C 83% 7.0 mph E11.3 kmh E 12.0 mph19.3 kmh 29.44 in997.0 mb 0.00 in0.0 mm 0.00 in0.0 mm 0.00 in0.0 mm
04:00 PM 35.2°F1.8°C 30.6°F-0.8°C 83% 6.8 mph E10.9 kmh E 12.0 mph19.3 kmh 29.45 in997.3 mb 0.00 in0.0 mm 0.00 in0.0 mm 0.00 in0.0 mm
04:01 PM 35.2°F1.8°C 30.6°F-0.8°C 83% 4.6 mph E7.4 kmh E 11.0 mph17.7 kmh 29.45 in997.3 mb 0.00 in0.0 mm 0.00 in0.0 mm 0.00 in0.0 mm
04:02 PM 35.2°F1.8°C 30.6°F-0.8°C 83% 6.4 mph E10.3 kmh E 16.0 mph25.7 kmh 29.45 in997.3 mb 0.00 in0.0 mm 0.00 in0.0 mm 0.00 in0.0 mm
04:03 PM 35.2°F1.8°C 30.6°F-0.8°C 83% 4.8 mph ESE7.7 kmh ESE 16.0 mph25.7 kmh 29.44 in997.0 mb 0.00 in0.0 mm 0.00 in0.0 mm 0.00 in0.0 mm
04:04 PM 35.2°F1.8°C 30.6°F-0.8°C 83% 5.9 mph E9.5 kmh E 10.0 mph16.1 kmh 29.45 in997.3 mb 0.00 in0.0 mm 0.00 in0.0 mm 0.00 in0.0 mm
04:05 PM 35.1°F1.7°C 30.5°F-0.8°C 83% 3.2 mph E5.1 kmh E 10.0 mph16.1 kmh 29.44 in997.0 mb 0.00 in0.0 mm 0.00 in0.0 mm 0.00 in0.0 mm
04:06 PM 35.2°F1.8°C 30.6°F-0.8°C 83% 4.7 mph E7.6 kmh E 8.0 mph12.9 kmh 29.45 in997.3 mb 0.00 in0.0 mm 0.00 in0.0 mm 0.00 in0.0 mm
04:07 PM 35.2°F1.8°C 30.6°F-0.8°C 83% 3.5 mph E5.6 kmh E 8.0 mph12.9 kmh 29.45 in997.3 mb 0.00 in0.0 mm 0.00 in0.0 mm 0.00 in0.0 mm
04:08 PM 35.2°F1.8°C 30.6°F-0.8°C 83% 5.6 mph E9.0 kmh E 12.0 mph19.3 kmh 29.45 in997.3 mb 0.00 in0.0 mm 0.00 in0.0 mm 0.00 in0.0 mm
04:09 PM 35.2°F1.8°C 30.6°F-0.8°C 83% 5.5 mph E8.9 kmh E 12.0 mph19.3 kmh 29.44 in997.0 mb 0.00 in0.0 mm 0.00 in0.0 mm 0.00 in0.0 mm
04:10 PM 35.2°F1.8°C 30.6°F-0.8°C 83% 4.2 mph E6.8 kmh E 10.0 mph16.1 kmh 29.45 in997.3 mb 0.00 in0.0 mm 0.00 in0.0 mm 0.00 in0.0 mm
04:11 PM 35.2°F1.8°C 30.6°F-0.8°C 83% 6.0 mph E9.7 kmh E 10.0 mph16.1 kmh 29.44 in997.0 mb 0.00 in0.0 mm 0.00 in0.0 mm 0.00 in0.0 mm
04:12 PM 35.1°F1.7°C 30.5°F-0.8°C 83% 6.7 mph E10.8 kmh E 12.0 mph19.3 kmh 29.44 in997.0 mb 0.00 in0.0 mm 0.00 in0.0 mm 0.00 in0.0 mm
04:13 PM 35.1°F1.7°C 30.5°F-0.8°C 83% 6.9 mph E11.1 kmh E 12.0 mph19.3 kmh 29.44 in997.0 mb 0.00 in0.0 mm 0.00 in0.0 mm 0.00 in0.0 mm
04:14 PM 35.1°F1.7°C 30.5°F-0.8°C 83% 7.8 mph E12.6 kmh E 15.0 mph24.1 kmh 29.44 in997.0 mb 0.00 in0.0 mm 0.00 in0.0 mm 0.00 in0.0 mm
04:15 PM 35.1°F1.7°C 30.5°F-0.8°C 83% 9.4 mph E15.1 kmh E 15.0 mph24.1 kmh 29.44 in997.0 mb 0.00 in0.0 mm 0.00 in0.0 mm 0.00 in0.0 mm
04:16 PM 35.1°F1.7°C 30.5°F-0.8°C 83% 5.8 mph E9.3 kmh E 14.0 mph22.5 kmh 29.44 in997.0 mb 0.00 in0.0 mm 0.00 in0.0 mm 0.00 in0.0 mm
04:17 PM 35.1°F1.7°C 30.5°F-0.8°C 83% 5.9 mph E9.5 kmh E 14.0 mph22.5 kmh 29.44 in997.0 mb 0.00 in0.0 mm 0.00 in0.0 mm 0.00 in0.0 mm
04:18 PM 35.1°F1.7°C 30.5°F-0.8°C 83% 6.5 mph E10.5 kmh E 14.0 mph22.5 kmh 29.44 in997.0 mb 0.00 in0.0 mm 0.00 in0.0 mm 0.00 in0.0 mm
04:19 PM 35.1°F1.7°C 30.5°F-0.8°C 83% 4.2 mph E6.8 kmh E 14.0 mph22.5 kmh 29.44 in997.0 mb 0.00 in0.0 mm 0.00 in0.0 mm 0.00 in0.0 mm
04:20 PM 35.1°F1.7°C 30.5°F-0.8°C 83% 1.3 mph E2.1 kmh E 8.0 mph12.9 kmh 29.44 in997.0 mb 0.00 in0.0 mm 0.00 in0.0 mm 0.00 in0.0 mm
04:21 PM 35.1°F1.7°C 30.5°F-0.8°C 83% 6.3 mph E10.1 kmh E 11.0 mph17.7 kmh 29.45 in997.3 mb 0.00 in0.0 mm 0.00 in0.0 mm 0.00 in0.0 mm
04:22 PM 35.0°F1.7°C 30.4°F-0.9°C 83% 4.6 mph E7.4 kmh E 11.0 mph17.7 kmh 29.44 in997.0 mb 0.00 in0.0 mm 0.00 in0.0 mm 0.00 in0.0 mm
04:23 PM 35.0°F1.7°C 30.4°F-0.9°C 83% 3.9 mph E6.3 kmh E 8.0 mph12.9 kmh 29.44 in997.0 mb 0.00 in0.0 mm 0.00 in0.0 mm 0.00 in0.0 mm
04:24 PM 35.0°F1.7°C 30.4°F-0.9°C 83% 6.0 mph E9.7 kmh E 13.0 mph20.9 kmh 29.44 in997.0 mb 0.00 in0.0 mm 0.00 in0.0 mm 0.00 in0.0 mm
04:25 PM 35.0°F1.7°C 30.4°F-0.9°C 83% 8.5 mph E13.7 kmh E 13.0 mph20.9 kmh 29.44 in997.0 mb 0.00 in0.0 mm 0.00 in0.0 mm 0.00 in0.0 mm
04:26 PM 35.0°F1.7°C 30.4°F-0.9°C 83% 5.9 mph E9.5 kmh E 12.0 mph19.3 kmh 29.44 in997.0 mb 0.00 in0.0 mm 0.00 in0.0 mm 0.00 in0.0 mm
04:27 PM 35.0°F1.7°C 30.4°F-0.9°C 83% 6.7 mph E10.8 kmh E 13.0 mph20.9 kmh 29.44 in997.0 mb 0.00 in0.0 mm 0.00 in0.0 mm 0.00 in0.0 mm
04:28 PM 35.0°F1.7°C 30.4°F-0.9°C 83% 7.5 mph E12.1 kmh E 13.0 mph20.9 kmh 29.44 in997.0 mb 0.00 in0.0 mm 0.00 in0.0 mm 0.00 in0.0 mm
04:29 PM 35.0°F1.7°C 30.4°F-0.9°C 83% 6.9 mph ESE11.1 kmh ESE 13.0 mph20.9 kmh 29.44 in997.0 mb 0.00 in0.0 mm 0.00 in0.0 mm 0.00 in0.0 mm
04:30 PM 35.0°F1.7°C 30.7°F-0.7°C 84% 6.7 mph ESE10.8 kmh ESE 13.0 mph20.9 kmh 29.44 in997.0 mb 0.00 in0.0 mm 0.00 in0.0 mm 0.00 in0.0 mm
04:31 PM 35.0°F1.7°C 30.7°F-0.7°C 84% 4.4 mph E7.1 kmh E 11.0 mph17.7 kmh 29.44 in997.0 mb 0.00 in0.0 mm 0.00 in0.0 mm 0.00 in0.0 mm
04:32 PM 35.0°F1.7°C 30.7°F-0.7°C 84% 6.3 mph ESE10.1 kmh ESE 11.0 mph17.7 kmh 29.44 in997.0 mb 0.00 in0.0 mm 0.00 in0.0 mm 0.00 in0.0 mm
04:33 PM 35.0°F1.7°C 30.7°F-0.7°C 84% 5.7 mph E9.2 kmh E 11.0 mph17.7 kmh 29.44 in997.0 mb 0.00 in0.0 mm 0.00 in0.0 mm 0.00 in0.0 mm
04:34 PM 35.0°F1.7°C 30.4°F-0.9°C 83% 6.8 mph ESE10.9 kmh ESE 11.0 mph17.7 kmh 29.45 in997.3 mb 0.00 in0.0 mm 0.00 in0.0 mm 0.00 in0.0 mm
04:35 PM 35.0°F1.7°C 30.7°F-0.7°C 84% 4.3 mph E6.9 kmh E 11.0 mph17.7 kmh 29.45 in997.3 mb 0.00 in0.0 mm 0.00 in0.0 mm 0.00 in0.0 mm
04:36 PM 35.0°F1.7°C 30.7°F-0.7°C 84% 3.2 mph E5.1 kmh E 10.0 mph16.1 kmh 29.45 in997.3 mb 0.00 in0.0 mm 0.00 in0.0 mm 0.00 in0.0 mm
04:37 PM 35.0°F1.7°C 30.7°F-0.7°C 84% 7.6 mph E12.2 kmh E 12.0 mph19.3 kmh 29.45 in997.3 mb 0.00 in0.0 mm 0.00 in0.0 mm 0.00 in0.0 mm
04:38 PM 35.0°F1.7°C 30.7°F-0.7°C 84% 6.1 mph E9.8 kmh E 12.0 mph19.3 kmh 29.45 in997.3 mb 0.00 in0.0 mm 0.00 in0.0 mm 0.00 in0.0 mm
04:39 PM 35.0°F1.7°C 30.7°F-0.7°C 84% 6.9 mph E11.1 kmh E 12.0 mph19.3 kmh 29.44 in997.0 mb 0.00 in0.0 mm 0.00 in0.0 mm 0.00 in0.0 mm
04:40 PM 35.0°F1.7°C 30.7°F-0.7°C 84% 5.5 mph E8.9 kmh E 12.0 mph19.3 kmh 29.44 in997.0 mb 0.00 in0.0 mm 0.00 in0.0 mm 0.00 in0.0 mm
04:41 PM 35.0°F1.7°C 30.7°F-0.7°C 84% 7.9 mph E12.7 kmh E 12.0 mph19.3 kmh 29.44 in997.0 mb 0.00 in0.0 mm 0.00 in0.0 mm 0.00 in0.0 mm
04:42 PM 35.0°F1.7°C 30.7°F-0.7°C 84% 8.6 mph E13.8 kmh E 13.0 mph20.9 kmh 29.44 in997.0 mb 0.00 in0.0 mm 0.00 in0.0 mm 0.00 in0.0 mm
04:43 PM 35.0°F1.7°C 30.7°F-0.7°C 84% 9.4 mph E15.1 kmh E 16.0 mph25.7 kmh 29.44 in997.0 mb 0.00 in0.0 mm 0.00 in0.0 mm 0.00 in0.0 mm
04:44 PM 35.0°F1.7°C 30.7°F-0.7°C 84% 7.6 mph E12.2 kmh E 16.0 mph25.7 kmh 29.44 in997.0 mb 0.00 in0.0 mm 0.00 in0.0 mm 0.00 in0.0 mm
04:45 PM 35.0°F1.7°C 30.7°F-0.7°C 84% 5.5 mph E8.9 kmh E 10.0 mph16.1 kmh 29.44 in997.0 mb 0.00 in0.0 mm 0.00 in0.0 mm 0.00 in0.0 mm
04:46 PM 35.0°F1.7°C 30.7°F-0.7°C 84% 3.4 mph E5.5 kmh E 8.0 mph12.9 kmh 29.44 in997.0 mb 0.00 in0.0 mm 0.00 in0.0 mm 0.00 in0.0 mm
04:47 PM 35.0°F1.7°C 30.7°F-0.7°C 84% 2.6 mph E4.2 kmh E 8.0 mph12.9 kmh 29.44 in997.0 mb 0.00 in0.0 mm 0.00 in0.0 mm 0.00 in0.0 mm
04:48 PM 35.0°F1.7°C 30.7°F-0.7°C 84% 5.3 mph E8.5 kmh E 8.0 mph12.9 kmh 29.44 in997.0 mb 0.00 in0.0 mm 0.00 in0.0 mm 0.00 in0.0 mm
04:49 PM 35.0°F1.7°C 30.7°F-0.7°C 84% 6.0 mph E9.7 kmh E 10.0 mph16.1 kmh 29.44 in997.0 mb 0.00 in0.0 mm 0.00 in0.0 mm 0.00 in0.0 mm
04:50 PM 34.9°F1.6°C 30.6°F-0.8°C 84% 5.4 mph E8.7 kmh E 10.0 mph16.1 kmh 29.44 in997.0 mb 0.00 in0.0 mm 0.00 in0.0 mm 0.00 in0.0 mm
04:51 PM 34.9°F1.6°C 30.6°F-0.8°C 84% 6.7 mph E10.8 kmh E 11.0 mph17.7 kmh 29.44 in997.0 mb 0.00 in0.0 mm 0.00 in0.0 mm 0.00 in0.0 mm
04:52 PM 34.9°F1.6°C 30.6°F-0.8°C 84% 8.8 mph ESE14.2 kmh ESE 14.0 mph22.5 kmh 29.43 in996.6 mb 0.00 in0.0 mm 0.00 in0.0 mm 0.00 in0.0 mm
04:53 PM 34.9°F1.6°C 30.6°F-0.8°C 84% 6.7 mph E10.8 kmh E 14.0 mph22.5 kmh 29.44 in997.0 mb 0.00 in0.0 mm 0.00 in0.0 mm 0.00 in0.0 mm
04:54 PM 34.9°F1.6°C 30.6°F-0.8°C 84% 6.5 mph E10.5 kmh E 11.0 mph17.7 kmh 29.44 in997.0 mb 0.00 in0.0 mm 0.00 in0.0 mm 0.00 in0.0 mm
04:55 PM 34.9°F1.6°C 30.6°F-0.8°C 84% 8.4 mph E13.5 kmh E 13.0 mph20.9 kmh 29.44 in997.0 mb 0.00 in0.0 mm 0.00 in0.0 mm 0.00 in0.0 mm
04:56 PM 34.9°F1.6°C 30.6°F-0.8°C 84% 6.7 mph E10.8 kmh E 12.0 mph19.3 kmh 29.43 in996.6 mb 0.00 in0.0 mm 0.00 in0.0 mm 0.00 in0.0 mm
04:57 PM 34.9°F1.6°C 30.6°F-0.8°C 84% 5.5 mph E8.9 kmh E 11.0 mph17.7 kmh 29.44 in997.0 mb 0.00 in0.0 mm 0.00 in0.0 mm 0.00 in0.0 mm
04:58 PM 34.9°F1.6°C 30.9°F-0.6°C 85% 6.3 mph E10.1 kmh E 11.0 mph17.7 kmh 29.44 in997.0 mb 0.00 in0.0 mm 0.00 in0.0 mm 0.00 in0.0 mm
04:59 PM 34.8°F1.6°C 30.8°F-0.7°C 85% 6.9 mph E11.1 kmh E 10.0 mph16.1 kmh 29.44 in997.0 mb 0.00 in0.0 mm 0.00 in0.0 mm 0.00 in0.0 mm
05:00 PM 34.8°F1.6°C 30.8°F-0.7°C 85% 7.0 mph E11.3 kmh E 10.0 mph16.1 kmh 29.44 in997.0 mb 0.00 in0.0 mm 0.00 in0.0 mm 0.00 in0.0 mm
05:01 PM 34.8°F1.6°C 30.5°F-0.8°C 84% 5.5 mph ESE8.9 kmh ESE 10.0 mph16.1 kmh 29.43 in996.6 mb 0.00 in0.0 mm 0.00 in0.0 mm 0.00 in0.0 mm
05:02 PM 34.8°F1.6°C 30.5°F-0.8°C 84% 5.6 mph E9.0 kmh E 10.0 mph16.1 kmh 29.43 in996.6 mb 0.00 in0.0 mm 0.00 in0.0 mm 0.00 in0.0 mm
05:03 PM 34.8°F1.6°C 30.8°F-0.7°C 85% 6.7 mph E10.8 kmh E 10.0 mph16.1 kmh 29.43 in996.6 mb 0.00 in0.0 mm 0.00 in0.0 mm 0.00 in0.0 mm
05:04 PM 34.8°F1.6°C 30.8°F-0.7°C 85% 7.6 mph E12.2 kmh E 13.0 mph20.9 kmh 29.43 in996.6 mb 0.00 in0.0 mm 0.00 in0.0 mm 0.00 in0.0 mm
05:05 PM 34.8°F1.6°C 30.8°F-0.7°C 85% 7.3 mph E11.7 kmh E 13.0 mph20.9 kmh 29.43 in996.6 mb 0.00 in0.0 mm 0.00 in0.0 mm 0.00 in0.0 mm
05:06 PM 34.8°F1.6°C 30.8°F-0.7°C 85% 4.5 mph E7.2 kmh E 11.0 mph17.7 kmh 29.43 in996.6 mb 0.00 in0.0 mm 0.00 in0.0 mm 0.00 in0.0 mm
05:07 PM 34.8°F1.6°C 30.8°F-0.7°C 85% 5.2 mph ESE8.4 kmh ESE 9.0 mph14.5 kmh 29.43 in996.6 mb 0.00 in0.0 mm 0.00 in0.0 mm 0.00 in0.0 mm
05:08 PM 34.8°F1.6°C 30.8°F-0.7°C 85% 3.6 mph ESE5.8 kmh ESE 9.0 mph14.5 kmh 29.43 in996.6 mb 0.00 in0.0 mm 0.00 in0.0 mm 0.00 in0.0 mm
05:09 PM 34.8°F1.6°C 30.8°F-0.7°C 85% 5.8 mph E9.3 kmh E 11.0 mph17.7 kmh 29.43 in996.6 mb 0.00 in0.0 mm 0.00 in0.0 mm 0.00 in0.0 mm
05:10 PM 34.8°F1.6°C 30.8°F-0.7°C 85% 6.1 mph E9.8 kmh E 11.0 mph17.7 kmh 29.43 in996.6 mb 0.00 in0.0 mm 0.00 in0.0 mm 0.00 in0.0 mm
05:11 PM 34.8°F1.6°C 30.8°F-0.7°C 85% 6.7 mph E10.8 kmh E 11.0 mph17.7 kmh 29.43 in996.6 mb 0.00 in0.0 mm 0.00 in0.0 mm 0.00 in0.0 mm
05:12 PM 34.8°F1.6°C 30.8°F-0.7°C 85% 7.0 mph ESE11.3 kmh ESE 11.0 mph17.7 kmh 29.43 in996.6 mb 0.00 in0.0 mm 0.00 in0.0 mm 0.00 in0.0 mm
05:13 PM 34.8°F1.6°C 30.8°F-0.7°C 85% 7.5 mph E12.1 kmh E 11.0 mph17.7 kmh 29.43 in996.6 mb 0.00 in0.0 mm 0.00 in0.0 mm 0.00 in0.0 mm
05:14 PM 34.8°F1.6°C 30.8°F-0.7°C 85% 5.4 mph E8.7 kmh E 10.0 mph16.1 kmh 29.43 in996.6 mb 0.00 in0.0 mm 0.00 in0.0 mm 0.00 in0.0 mm
05:15 PM 34.8°F1.6°C 30.8°F-0.7°C 85% 6.2 mph ESE10.0 kmh ESE 12.0 mph19.3 kmh 29.43 in996.6 mb 0.00 in0.0 mm 0.00 in0.0 mm 0.00 in0.0 mm
05:16 PM 34.8°F1.6°C 30.8°F-0.7°C 85% 5.5 mph E8.9 kmh E 12.0 mph19.3 kmh 29.43 in996.6 mb 0.00 in0.0 mm 0.00 in0.0 mm 0.00 in0.0 mm
05:17 PM 34.8°F1.6°C 30.8°F-0.7°C 85% 2.3 mph E3.7 kmh E 11.0 mph17.7 kmh 29.43 in996.6 mb 0.00 in0.0 mm 0.00 in0.0 mm 0.00 in0.0 mm
05:18 PM 34.8°F1.6°C 30.8°F-0.7°C 85% 3.9 mph E6.3 kmh E 7.0 mph11.3 kmh 29.43 in996.6 mb 0.00 in0.0 mm 0.00 in0.0 mm 0.00 in0.0 mm
05:19 PM 34.8°F1.6°C 30.8°F-0.7°C 85% 5.0 mph E8.0 kmh E 8.0 mph12.9 kmh 29.42 in996.3 mb 0.00 in0.0 mm 0.00 in0.0 mm 0.00 in0.0 mm
05:20 PM 34.8°F1.6°C 30.8°F-0.7°C 85% 7.6 mph E12.2 kmh E 13.0 mph20.9 kmh 29.42 in996.3 mb 0.00 in0.0 mm 0.00 in0.0 mm 0.00 in0.0 mm
05:21 PM 34.8°F1.6°C 30.8°F-0.7°C 85% 3.7 mph E6.0 kmh E 13.0 mph20.9 kmh 29.42 in996.3 mb 0.00 in0.0 mm 0.00 in0.0 mm 0.00 in0.0 mm
05:22 PM 34.8°F1.6°C 30.8°F-0.7°C 85% 2.9 mph E4.7 kmh E 10.0 mph16.1 kmh 29.42 in996.3 mb 0.00 in0.0 mm 0.00 in0.0 mm 0.00 in0.0 mm
05:23 PM 34.8°F1.6°C 30.8°F-0.7°C 85% 5.6 mph E9.0 kmh E 11.0 mph17.7 kmh 29.42 in996.3 mb 0.00 in0.0 mm 0.00 in0.0 mm 0.00 in0.0 mm
05:24 PM 34.8°F1.6°C 30.8°F-0.7°C 85% 7.6 mph ESE12.2 kmh ESE 15.0 mph24.1 kmh 29.42 in996.3 mb 0.00 in0.0 mm 0.00 in0.0 mm 0.00 in0.0 mm
05:25 PM 34.8°F1.6°C 30.8°F-0.7°C 85% 6.1 mph E9.8 kmh E 15.0 mph24.1 kmh 29.42 in996.3 mb 0.00 in0.0 mm 0.00 in0.0 mm 0.00 in0.0 mm
05:26 PM 34.8°F1.6°C 30.8°F-0.7°C 85% 3.4 mph E5.5 kmh E 10.0 mph16.1 kmh 29.42 in996.3 mb 0.00 in0.0 mm 0.00 in0.0 mm 0.00 in0.0 mm
05:27 PM 34.8°F1.6°C 30.8°F-0.7°C 85% 5.5 mph E8.9 kmh E 8.0 mph12.9 kmh 29.42 in996.3 mb 0.00 in0.0 mm 0.00 in0.0 mm 0.00 in0.0 mm
05:28 PM 34.9°F1.6°C 30.9°F-0.6°C 85% 2.5 mph E4.0 kmh E 8.0 mph12.9 kmh 29.42 in996.3 mb 0.00 in0.0 mm 0.00 in0.0 mm 0.00 in0.0 mm
05:29 PM 34.8°F1.6°C 30.8°F-0.7°C 85% 3.2 mph E5.1 kmh E 7.0 mph11.3 kmh 29.42 in996.3 mb 0.00 in0.0 mm 0.00 in0.0 mm 0.00 in0.0 mm
05:30 PM 34.9°F1.6°C 30.9°F-0.6°C 85% 4.7 mph E7.6 kmh E 8.0 mph12.9 kmh 29.42 in996.3 mb 0.00 in0.0 mm 0.00 in0.0 mm 0.00 in0.0 mm
05:31 PM 34.9°F1.6°C 30.9°F-0.6°C 85% 5.0 mph E8.0 kmh E 8.0 mph12.9 kmh 29.42 in996.3 mb 0.00 in0.0 mm 0.00 in0.0 mm 0.00 in0.0 mm
05:32 PM 34.9°F1.6°C 30.9°F-0.6°C 85% 3.3 mph E5.3 kmh E 10.0 mph16.1 kmh 29.42 in996.3 mb 0.00 in0.0 mm 0.00 in0.0 mm 0.00 in0.0 mm
05:33 PM 34.9°F1.6°C 30.9°F-0.6°C 85% 1.3 mph ESE2.1 kmh ESE 10.0 mph16.1 kmh 29.42 in996.3 mb 0.00 in0.0 mm 0.00 in0.0 mm 0.00 in0.0 mm
05:34 PM 34.9°F1.6°C 31.1°F-0.5°C 86% 5.1 mph E8.2 kmh E 8.0 mph12.9 kmh 29.42 in996.3 mb 0.00 in0.0 mm 0.00 in0.0 mm 0.00 in0.0 mm
05:35 PM 34.9°F1.6°C 31.1°F-0.5°C 86% 3.5 mph ESE5.6 kmh ESE 10.0 mph16.1 kmh 29.42 in996.3 mb 0.00 in0.0 mm 0.00 in0.0 mm 0.00 in0.0 mm
05:36 PM 34.9°F1.6°C 31.1°F-0.5°C 86% 4.2 mph ESE6.8 kmh ESE 10.0 mph16.1 kmh 29.42 in996.3 mb 0.00 in0.0 mm 0.00 in0.0 mm 0.00 in0.0 mm
05:37 PM 34.9°F1.6°C 31.1°F-0.5°C 86% 2.9 mph E4.7 kmh E 10.0 mph16.1 kmh 29.42 in996.3 mb 0.00 in0.0 mm 0.00 in0.0 mm 0.00 in0.0 mm
05:38 PM 35.0°F1.7°C 31.0°F-0.6°C 85% 3.0 mph E4.8 kmh E 9.0 mph14.5 kmh 29.41 in995.9 mb 0.00 in0.0 mm 0.00 in0.0 mm 0.00 in0.0 mm
05:39 PM 35.0°F1.7°C 31.2°F-0.4°C 86% 4.4 mph E7.1 kmh E 9.0 mph14.5 kmh 29.41 in995.9 mb 0.00 in0.0 mm 0.00 in0.0 mm 0.00 in0.0 mm
05:40 PM 35.0°F1.7°C 31.2°F-0.4°C 86% 4.5 mph E7.2 kmh E 9.0 mph14.5 kmh 29.41 in995.9 mb 0.00 in0.0 mm 0.00 in0.0 mm 0.00 in0.0 mm
05:41 PM 35.0°F1.7°C 31.2°F-0.4°C 86% 4.9 mph E7.9 kmh E 10.0 mph16.1 kmh 29.41 in995.9 mb 0.00 in0.0 mm 0.00 in0.0 mm 0.00 in0.0 mm
05:42 PM 35.0°F1.7°C 31.2°F-0.4°C 86% 6.1 mph ESE9.8 kmh ESE 12.0 mph19.3 kmh 29.41 in995.9 mb 0.00 in0.0 mm 0.00 in0.0 mm 0.00 in0.0 mm
05:43 PM 35.1°F1.7°C 31.3°F-0.4°C 86% 6.7 mph E10.8 kmh E 12.0 mph19.3 kmh 29.41 in995.9 mb 0.00 in0.0 mm 0.00 in0.0 mm 0.00 in0.0 mm
05:44 PM 35.1°F1.7°C 31.3°F-0.4°C 86% 5.0 mph E8.0 kmh E 11.0 mph17.7 kmh 29.41 in995.9 mb 0.00 in0.0 mm 0.00 in0.0 mm 0.00 in0.0 mm
05:45 PM 35.1°F1.7°C 31.3°F-0.4°C 86% 4.9 mph E7.9 kmh E 12.0 mph19.3 kmh 29.41 in995.9 mb 0.00 in0.0 mm 0.00 in0.0 mm 0.00 in0.0 mm
05:46 PM 35.2°F1.8°C 31.4°F-0.3°C 86% 6.0 mph E9.7 kmh E 13.0 mph20.9 kmh 29.41 in995.9 mb 0.00 in0.0 mm 0.00 in0.0 mm 0.00 in0.0 mm
05:47 PM 35.2°F1.8°C 31.4°F-0.3°C 86% 6.2 mph E10.0 kmh E 13.0 mph20.9 kmh 29.41 in995.9 mb 0.00 in0.0 mm 0.00 in0.0 mm 0.00 in0.0 mm
05:48 PM 35.2°F1.8°C 31.4°F-0.3°C 86% 6.0 mph ENE9.7 kmh ENE 11.0 mph17.7 kmh 29.41 in995.9 mb 0.00 in0.0 mm 0.00 in0.0 mm 0.00 in0.0 mm
05:49 PM 35.2°F1.8°C 31.4°F-0.3°C 86% 3.9 mph E6.3 kmh E 11.0 mph17.7 kmh 29.41 in995.9 mb 0.00 in0.0 mm 0.00 in0.0 mm 0.00 in0.0 mm
05:50 PM 35.2°F1.8°C 31.4°F-0.3°C 86% 3.0 mph E4.8 kmh E 9.0 mph14.5 kmh 29.41 in995.9 mb 0.00 in0.0 mm 0.00 in0.0 mm 0.00 in0.0 mm
05:51 PM 35.2°F1.8°C 31.4°F-0.3°C 86% 2.6 mph ESE4.2 kmh ESE 9.0 mph14.5 kmh 29.41 in995.9 mb 0.00 in0.0 mm 0.00 in0.0 mm 0.00 in0.0 mm
05:52 PM 35.2°F1.8°C 31.4°F-0.3°C 86% 3.8 mph E6.1 kmh E 8.0 mph12.9 kmh 29.41 in995.9 mb 0.00 in0.0 mm 0.00 in0.0 mm 0.00 in0.0 mm
05:53 PM 35.2°F1.8°C 31.4°F-0.3°C 86% 3.4 mph E5.5 kmh E 8.0 mph12.9 kmh 29.40 in995.6 mb 0.00 in0.0 mm 0.00 in0.0 mm 0.00 in0.0 mm
05:54 PM 35.2°F1.8°C 31.4°F-0.3°C 86% 1.6 mph E2.6 kmh E 8.0 mph12.9 kmh 29.40 in995.6 mb 0.00 in0.0 mm 0.00 in0.0 mm 0.00 in0.0 mm
05:55 PM 35.2°F1.8°C 31.4°F-0.3°C 86% 4.5 mph E7.2 kmh E 9.0 mph14.5 kmh 29.41 in995.9 mb 0.00 in0.0 mm 0.00 in0.0 mm 0.00 in0.0 mm
05:56 PM 35.2°F1.8°C 31.2°F-0.4°C 85% 3.5 mph E5.6 kmh E 9.0 mph14.5 kmh 29.41 in995.9 mb 0.00 in0.0 mm 0.00 in0.0 mm 0.00 in0.0 mm
05:57 PM 35.2°F1.8°C 31.2°F-0.4°C 85% 1.1 mph E1.8 kmh E 7.0 mph11.3 kmh 29.40 in995.6 mb 0.00 in0.0 mm 0.00 in0.0 mm 0.00 in0.0 mm
05:58 PM 35.2°F1.8°C 31.2°F-0.4°C 85% 2.4 mph E3.9 kmh E 8.0 mph12.9 kmh 29.41 in995.9 mb 0.00 in0.0 mm 0.00 in0.0 mm 0.00 in0.0 mm
05:59 PM 35.2°F1.8°C 31.2°F-0.4°C 85% 2.7 mph E4.3 kmh E 8.0 mph12.9 kmh 29.41 in995.9 mb 0.00 in0.0 mm 0.00 in0.0 mm 0.00 in0.0 mm
06:00 PM 35.2°F1.8°C 31.2°F-0.4°C 85% 7.4 mph E11.9 kmh E 13.0 mph20.9 kmh 29.40 in995.6 mb 0.00 in0.0 mm 0.00 in0.0 mm 0.00 in0.0 mm
06:01 PM 35.2°F1.8°C 31.2°F-0.4°C 85% 5.1 mph E8.2 kmh E 13.0 mph20.9 kmh 29.40 in995.6 mb 0.00 in0.0 mm 0.00 in0.0 mm 0.00 in0.0 mm
06:02 PM 35.2°F1.8°C 31.2°F-0.4°C 85% 7.0 mph E11.3 kmh E 10.0 mph16.1 kmh 29.40 in995.6 mb 0.00 in0.0 mm 0.00 in0.0 mm 0.00 in0.0 mm
06:03 PM 35.2°F1.8°C 31.2°F-0.4°C 85% 6.2 mph E10.0 kmh E 11.0 mph17.7 kmh 29.40 in995.6 mb 0.00 in0.0 mm 0.00 in0.0 mm 0.00 in0.0 mm
06:04 PM 35.1°F1.7°C 31.1°F-0.5°C 85% 5.6 mph E9.0 kmh E 11.0 mph17.7 kmh 29.40 in995.6 mb 0.00 in0.0 mm 0.00 in0.0 mm 0.00 in0.0 mm
06:05 PM 35.1°F1.7°C 31.1°F-0.5°C 85% 6.1 mph E9.8 kmh E 10.0 mph16.1 kmh 29.40 in995.6 mb 0.00 in0.0 mm 0.00 in0.0 mm 0.00 in0.0 mm
06:06 PM 35.1°F1.7°C 31.1°F-0.5°C 85% 5.3 mph E8.5 kmh E 10.0 mph16.1 kmh 29.40 in995.6 mb 0.00 in0.0 mm 0.00 in0.0 mm 0.00 in0.0 mm
06:07 PM 35.1°F1.7°C 31.1°F-0.5°C 85% 6.4 mph E10.3 kmh E 11.0 mph17.7 kmh 29.40 in995.6 mb 0.00 in0.0 mm 0.00 in0.0 mm 0.00 in0.0 mm
06:08 PM 35.1°F1.7°C 31.1°F-0.5°C 85% 7.3 mph ENE11.7 kmh ENE 11.0 mph17.7 kmh 29.40 in995.6 mb 0.00 in0.0 mm 0.00 in0.0 mm 0.00 in0.0 mm
06:09 PM 35.1°F1.7°C 31.1°F-0.5°C 85% 6.5 mph E10.5 kmh E 11.0 mph17.7 kmh 29.40 in995.6 mb 0.00 in0.0 mm 0.00 in0.0 mm 0.00 in0.0 mm
06:10 PM 35.1°F1.7°C 31.1°F-0.5°C 85% 6.3 mph E10.1 kmh E 11.0 mph17.7 kmh 29.40 in995.6 mb 0.00 in0.0 mm 0.00 in0.0 mm 0.00 in0.0 mm
06:11 PM 35.1°F1.7°C 31.1°F-0.5°C 85% 4.5 mph ENE7.2 kmh ENE 10.0 mph16.1 kmh 29.40 in995.6 mb 0.00 in0.0 mm 0.00 in0.0 mm 0.00 in0.0 mm
06:12 PM 35.0°F1.7°C 31.0°F-0.6°C 85% 4.9 mph ENE7.9 kmh ENE 10.0 mph16.1 kmh 29.40 in995.6 mb 0.00 in0.0 mm 0.00 in0.0 mm 0.00 in0.0 mm
06:13 PM 35.0°F1.7°C 31.0°F-0.6°C 85% 7.9 mph ENE12.7 kmh ENE 10.0 mph16.1 kmh 29.40 in995.6 mb 0.00 in0.0 mm 0.00 in0.0 mm 0.00 in0.0 mm
06:14 PM 35.0°F1.7°C 31.0°F-0.6°C 85% 5.5 mph E8.9 kmh E 11.0 mph17.7 kmh 29.40 in995.6 mb 0.00 in0.0 mm 0.00 in0.0 mm 0.00 in0.0 mm
06:15 PM 35.0°F1.7°C 31.0°F-0.6°C 85% 5.5 mph E8.9 kmh E 10.0 mph16.1 kmh 29.40 in995.6 mb 0.00 in0.0 mm 0.00 in0.0 mm 0.00 in0.0 mm
06:16 PM 35.0°F1.7°C 31.0°F-0.6°C 85% 8.3 mph E13.4 kmh E 13.0 mph20.9 kmh 29.40 in995.6 mb 0.00 in0.0 mm 0.00 in0.0 mm 0.00 in0.0 mm
06:17 PM 35.0°F1.7°C 31.0°F-0.6°C 85% 5.5 mph E8.9 kmh E 13.0 mph20.9 kmh 29.40 in995.6 mb 0.00 in0.0 mm 0.00 in0.0 mm 0.00 in0.0 mm
06:18 PM 34.9°F1.6°C 30.9°F-0.6°C 85% 4.6 mph E7.4 kmh E 10.0 mph16.1 kmh 29.40 in995.6 mb 0.00 in0.0 mm 0.00 in0.0 mm 0.00 in0.0 mm
06:19 PM 34.9°F1.6°C 30.9°F-0.6°C 85% 6.7 mph E10.8 kmh E 10.0 mph16.1 kmh 29.40 in995.6 mb 0.00 in0.0 mm 0.00 in0.0 mm 0.00 in0.0 mm
06:20 PM 34.9°F1.6°C 30.9°F-0.6°C 85% 3.3 mph E5.3 kmh E 10.0 mph16.1 kmh 29.40 in995.6 mb 0.00 in0.0 mm 0.00 in0.0 mm 0.00 in0.0 mm
06:21 PM 34.9°F1.6°C 30.9°F-0.6°C 85% 6.1 mph E9.8 kmh E 10.0 mph16.1 kmh 29.40 in995.6 mb 0.00 in0.0 mm 0.00 in0.0 mm 0.00 in0.0 mm
06:22 PM 34.9°F1.6°C 30.9°F-0.6°C 85% 5.7 mph E9.2 kmh E 10.0 mph16.1 kmh 29.40 in995.6 mb 0.00 in0.0 mm 0.00 in0.0 mm 0.00 in0.0 mm
06:23 PM 34.9°F1.6°C 30.9°F-0.6°C 85% 3.2 mph E5.1 kmh E 10.0 mph16.1 kmh 29.40 in995.6 mb 0.00 in0.0 mm 0.00 in0.0 mm 0.00 in0.0 mm
06:24 PM 34.8°F1.6°C 30.8°F-0.7°C 85% 5.4 mph E8.7 kmh E 9.0 mph14.5 kmh 29.40 in995.6 mb 0.00 in0.0 mm 0.00 in0.0 mm 0.00 in0.0 mm
06:25 PM 34.8°F1.6°C 30.8°F-0.7°C 85% 1.3 mph ENE2.1 kmh ENE 9.0 mph14.5 kmh 29.40 in995.6 mb 0.00 in0.0 mm 0.00 in0.0 mm 0.00 in0.0 mm
06:26 PM 34.8°F1.6°C 30.8°F-0.7°C 85% 3.5 mph E5.6 kmh E 12.0 mph19.3 kmh 29.40 in995.6 mb 0.00 in0.0 mm 0.00 in0.0 mm 0.00 in0.0 mm
06:27 PM 34.8°F1.6°C 30.8°F-0.7°C 85% 6.2 mph E10.0 kmh E 12.0 mph19.3 kmh 29.40 in995.6 mb 0.00 in0.0 mm 0.00 in0.0 mm 0.00 in0.0 mm
06:28 PM 34.8°F1.6°C 30.8°F-0.7°C 85% 3.5 mph E5.6 kmh E 11.0 mph17.7 kmh 29.40 in995.6 mb 0.00 in0.0 mm 0.00 in0.0 mm 0.00 in0.0 mm
06:29 PM 34.7°F1.5°C 30.7°F-0.7°C 85% 4.8 mph E7.7 kmh E 9.0 mph14.5 kmh 29.40 in995.6 mb 0.00 in0.0 mm 0.00 in0.0 mm 0.00 in0.0 mm
06:30 PM 34.8°F1.6°C 30.8°F-0.7°C 85% 2.5 mph E4.0 kmh E 9.0 mph14.5 kmh 29.39 in995.3 mb 0.00 in0.0 mm 0.00 in0.0 mm 0.00 in0.0 mm
06:31 PM 34.7°F1.5°C 30.7°F-0.7°C 85% 4.7 mph E7.6 kmh E 8.0 mph12.9 kmh 29.40 in995.6 mb 0.00 in0.0 mm 0.00 in0.0 mm 0.00 in0.0 mm
06:32 PM 34.7°F1.5°C 30.7°F-0.7°C 85% 1.8 mph E2.9 kmh E 8.0 mph12.9 kmh 29.40 in995.6 mb 0.00 in0.0 mm 0.00 in0.0 mm 0.00 in0.0 mm
06:33 PM 34.7°F1.5°C 30.7°F-0.7°C 85% 4.3 mph E6.9 kmh E 8.0 mph12.9 kmh 29.40 in995.6 mb 0.00 in0.0 mm 0.00 in0.0 mm 0.00 in0.0 mm
06:34 PM 34.7°F1.5°C 30.7°F-0.7°C 85% 3.3 mph E5.3 kmh E 8.0 mph12.9 kmh 29.40 in995.6 mb 0.00 in0.0 mm 0.00 in0.0 mm 0.00 in0.0 mm
06:35 PM 34.6°F1.4°C 30.6°F-0.8°C 85% 4.9 mph E7.9 kmh E 8.0 mph12.9 kmh 29.39 in995.3 mb 0.00 in0.0 mm 0.00 in0.0 mm 0.00 in0.0 mm
06:36 PM 34.6°F1.4°C 30.6°F-0.8°C 85% 2.9 mph E4.7 kmh E 8.0 mph12.9 kmh 29.39 in995.3 mb 0.00 in0.0 mm 0.00 in0.0 mm 0.00 in0.0 mm
06:37 PM 34.6°F1.4°C 30.6°F-0.8°C 85% 3.7 mph E6.0 kmh E 8.0 mph12.9 kmh 29.39 in995.3 mb 0.00 in0.0 mm 0.00 in0.0 mm 0.00 in0.0 mm
06:38 PM 34.5°F1.4°C 30.5°F-0.8°C 85% 1.6 mph E2.6 kmh E 8.0 mph12.9 kmh 29.40 in995.6 mb 0.00 in0.0 mm 0.00 in0.0 mm 0.00 in0.0 mm
06:39 PM 34.5°F1.4°C 30.5°F-0.8°C 85% 3.2 mph E5.1 kmh E 8.0 mph12.9 kmh 29.39 in995.3 mb 0.00 in0.0 mm 0.00 in0.0 mm 0.00 in0.0 mm
06:40 PM 34.5°F1.4°C 30.5°F-0.8°C 85% 4.6 mph E7.4 kmh E 9.0 mph14.5 kmh 29.39 in995.3 mb 0.00 in0.0 mm 0.00 in0.0 mm 0.00 in0.0 mm
06:41 PM 34.5°F1.4°C 30.5°F-0.8°C 85% 4.0 mph E6.4 kmh E 9.0 mph14.5 kmh 29.39 in995.3 mb 0.00 in0.0 mm 0.00 in0.0 mm 0.00 in0.0 mm
06:42 PM 34.4°F1.3°C 30.4°F-0.9°C 85% 3.8 mph E6.1 kmh E 11.0 mph17.7 kmh 29.39 in995.3 mb 0.00 in0.0 mm 0.00 in0.0 mm 0.00 in0.0 mm
06:43 PM 34.4°F1.3°C 30.7°F-0.7°C 86% 3.0 mph E4.8 kmh E 11.0 mph17.7 kmh 29.39 in995.3 mb 0.00 in0.0 mm 0.00 in0.0 mm 0.00 in0.0 mm
06:44 PM 34.4°F1.3°C 30.7°F-0.7°C 86% 3.2 mph E5.1 kmh E 9.0 mph14.5 kmh 29.39 in995.3 mb 0.00 in0.0 mm 0.00 in0.0 mm 0.00 in0.0 mm
06:45 PM 34.4°F1.3°C 30.7°F-0.7°C 86% 3.4 mph E5.5 kmh E 8.0 mph12.9 kmh 29.39 in995.3 mb 0.00 in0.0 mm 0.00 in0.0 mm 0.00 in0.0 mm
06:46 PM 34.4°F1.3°C 30.7°F-0.7°C 86% 3.7 mph E6.0 kmh E 8.0 mph12.9 kmh 29.39 in995.3 mb 0.00 in0.0 mm 0.00 in0.0 mm 0.00 in0.0 mm
06:47 PM 34.4°F1.3°C 30.7°F-0.7°C 86% 3.8 mph E6.1 kmh E 10.0 mph16.1 kmh 29.39 in995.3 mb 0.00 in0.0 mm 0.00 in0.0 mm 0.00 in0.0 mm
06:48 PM 34.4°F1.3°C 30.7°F-0.7°C 86% 5.1 mph E8.2 kmh E 10.0 mph16.1 kmh 29.39 in995.3 mb 0.00 in0.0 mm 0.00 in0.0 mm 0.00 in0.0 mm
06:49 PM 34.4°F1.3°C 30.7°F-0.7°C 86% 3.1 mph E5.0 kmh E 9.0 mph14.5 kmh 29.39 in995.3 mb 0.00 in0.0 mm 0.00 in0.0 mm 0.00 in0.0 mm
06:50 PM 34.4°F1.3°C 30.7°F-0.7°C 86% 5.4 mph ENE8.7 kmh ENE 8.0 mph12.9 kmh 29.39 in995.3 mb 0.00 in0.0 mm 0.00 in0.0 mm 0.00 in0.0 mm
06:51 PM 34.4°F1.3°C 30.7°F-0.7°C 86% 5.5 mph ENE8.9 kmh ENE 10.0 mph16.1 kmh 29.39 in995.3 mb 0.00 in0.0 mm 0.00 in0.0 mm 0.00 in0.0 mm
06:52 PM 34.4°F1.3°C 30.7°F-0.7°C 86% 2.9 mph ENE4.7 kmh ENE 10.0 mph16.1 kmh 29.39 in995.3 mb 0.00 in0.0 mm 0.00 in0.0 mm 0.00 in0.0 mm
06:53 PM 34.4°F1.3°C 30.7°F-0.7°C 86% 2.6 mph ENE4.2 kmh ENE 7.0 mph11.3 kmh 29.39 in995.3 mb 0.00 in0.0 mm 0.00 in0.0 mm 0.00 in0.0 mm
06:54 PM 34.4°F1.3°C 30.7°F-0.7°C 86% 5.5 mph E8.9 kmh E 10.0 mph16.1 kmh 29.39 in995.3 mb 0.00 in0.0 mm 0.00 in0.0 mm 0.00 in0.0 mm
06:55 PM 34.4°F1.3°C 30.7°F-0.7°C 86% 7.6 mph ENE12.2 kmh ENE 13.0 mph20.9 kmh 29.39 in995.3 mb 0.00 in0.0 mm 0.00 in0.0 mm 0.00 in0.0 mm
06:56 PM 34.4°F1.3°C 30.7°F-0.7°C 86% 7.6 mph ENE12.2 kmh ENE 13.0 mph20.9 kmh 29.39 in995.3 mb 0.00 in0.0 mm 0.00 in0.0 mm 0.00 in0.0 mm
06:57 PM 34.4°F1.3°C 30.7°F-0.7°C 86% 4.5 mph ENE7.2 kmh ENE 11.0 mph17.7 kmh 29.39 in995.3 mb 0.00 in0.0 mm 0.00 in0.0 mm 0.00 in0.0 mm
06:58 PM 34.4°F1.3°C 30.7°F-0.7°C 86% 4.8 mph ENE7.7 kmh ENE 10.0 mph16.1 kmh 29.39 in995.3 mb 0.00 in0.0 mm 0.00 in0.0 mm 0.00 in0.0 mm
06:59 PM 34.4°F1.3°C 30.7°F-0.7°C 86% 4.2 mph ENE6.8 kmh ENE 9.0 mph14.5 kmh 29.39 in995.3 mb 0.00 in0.0 mm 0.00 in0.0 mm 0.00 in0.0 mm
07:00 PM 34.4°F1.3°C 30.7°F-0.7°C 86% 3.7 mph E6.0 kmh E 9.0 mph14.5 kmh 29.39 in995.3 mb 0.00 in0.0 mm 0.00 in0.0 mm 0.00 in0.0 mm
07:01 PM 34.4°F1.3°C 30.7°F-0.7°C 86% 5.4 mph E8.7 kmh E 11.0 mph17.7 kmh 29.39 in995.3 mb 0.00 in0.0 mm 0.00 in0.0 mm 0.00 in0.0 mm
07:02 PM 34.4°F1.3°C 30.7°F-0.7°C 86% 3.5 mph E5.6 kmh E 11.0 mph17.7 kmh 29.38 in994.9 mb 0.00 in0.0 mm 0.00 in0.0 mm 0.00 in0.0 mm
07:03 PM 34.4°F1.3°C 30.7°F-0.7°C 86% 5.2 mph E8.4 kmh E 10.0 mph16.1 kmh 29.38 in994.9 mb 0.00 in0.0 mm 0.00 in0.0 mm 0.00 in0.0 mm
07:04 PM 34.4°F1.3°C 30.9°F-0.6°C 87% 5.2 mph E8.4 kmh E 10.0 mph16.1 kmh 29.38 in994.9 mb 0.00 in0.0 mm 0.00 in0.0 mm 0.00 in0.0 mm
07:05 PM 34.4°F1.3°C 30.9°F-0.6°C 87% 6.1 mph E9.8 kmh E 11.0 mph17.7 kmh 29.38 in994.9 mb 0.00 in0.0 mm 0.00 in0.0 mm 0.00 in0.0 mm
07:06 PM 34.4°F1.3°C 30.9°F-0.6°C 87% 5.8 mph ENE9.3 kmh ENE 11.0 mph17.7 kmh 29.38 in994.9 mb 0.00 in0.0 mm 0.00 in0.0 mm 0.00 in0.0 mm
07:07 PM 34.4°F1.3°C 30.9°F-0.6°C 87% 5.2 mph E8.4 kmh E 10.0 mph16.1 kmh 29.38 in994.9 mb 0.00 in0.0 mm 0.00 in0.0 mm 0.00 in0.0 mm
07:08 PM 34.4°F1.3°C 30.9°F-0.6°C 87% 5.2 mph E8.4 kmh E 10.0 mph16.1 kmh 29.38 in994.9 mb 0.00 in0.0 mm 0.00 in0.0 mm 0.00 in0.0 mm
07:09 PM 34.4°F1.3°C 30.9°F-0.6°C 87% 9.3 mph E15.0 kmh E 12.0 mph19.3 kmh 29.38 in994.9 mb 0.00 in0.0 mm 0.00 in0.0 mm 0.00 in0.0 mm
07:10 PM 34.4°F1.3°C 30.9°F-0.6°C 87% 5.3 mph ENE8.5 kmh ENE 12.0 mph19.3 kmh 29.38 in994.9 mb 0.00 in0.0 mm 0.00 in0.0 mm 0.00 in0.0 mm
07:11 PM 34.4°F1.3°C 30.9°F-0.6°C 87% 1.9 mph ENE3.1 kmh ENE 8.0 mph12.9 kmh 29.38 in994.9 mb 0.00 in0.0 mm 0.00 in0.0 mm 0.00 in0.0 mm
07:12 PM 34.4°F1.3°C 30.9°F-0.6°C 87% 3.5 mph E5.6 kmh E 9.0 mph14.5 kmh 29.38 in994.9 mb 0.00 in0.0 mm 0.00 in0.0 mm 0.00 in0.0 mm
07:13 PM 34.4°F1.3°C 30.9°F-0.6°C 87% 5.0 mph E8.0 kmh E 9.0 mph14.5 kmh 29.38 in994.9 mb 0.00 in0.0 mm 0.00 in0.0 mm 0.00 in0.0 mm
07:14 PM 34.4°F1.3°C 30.9°F-0.6°C 87% 3.1 mph E5.0 kmh E 8.0 mph12.9 kmh 29.38 in994.9 mb 0.00 in0.0 mm 0.00 in0.0 mm 0.00 in0.0 mm
07:15 PM 34.4°F1.3°C 30.9°F-0.6°C 87% 1.9 mph E3.1 kmh E 7.0 mph11.3 kmh 29.38 in994.9 mb 0.00 in0.0 mm 0.00 in0.0 mm 0.00 in0.0 mm
07:16 PM 34.4°F1.3°C 30.9°F-0.6°C 87% 5.7 mph E9.2 kmh E 11.0 mph17.7 kmh 29.38 in994.9 mb 0.00 in0.0 mm 0.00 in0.0 mm 0.00 in0.0 mm
07:17 PM 34.4°F1.3°C 30.9°F-0.6°C 87% 3.8 mph E6.1 kmh E 11.0 mph17.7 kmh 29.38 in994.9 mb 0.00 in0.0 mm 0.00 in0.0 mm 0.00 in0.0 mm
07:18 PM 34.4°F1.3°C 30.9°F-0.6°C 87% 1.9 mph E3.1 kmh E 9.0 mph14.5 kmh 29.38 in994.9 mb 0.00 in0.0 mm 0.00 in0.0 mm 0.00 in0.0 mm
07:19 PM 34.4°F1.3°C 30.9°F-0.6°C 87% 6.2 mph E10.0 kmh E 10.0 mph16.1 kmh 29.38 in994.9 mb 0.00 in0.0 mm 0.00 in0.0 mm 0.00 in0.0 mm
07:20 PM 34.4°F1.3°C 30.9°F-0.6°C 87% 3.8 mph NE6.1 kmh NE 10.0 mph16.1 kmh 29.38 in994.9 mb 0.00 in0.0 mm 0.00 in0.0 mm 0.00 in0.0 mm
07:21 PM 34.4°F1.3°C 30.9°F-0.6°C 87% 3.1 mph ENE5.0 kmh ENE 9.0 mph14.5 kmh 29.38 in994.9 mb 0.00 in0.0 mm 0.00 in0.0 mm 0.00 in0.0 mm
07:22 PM 34.4°F1.3°C 30.9°F-0.6°C 87% 2.3 mph ENE3.7 kmh ENE 9.0 mph14.5 kmh 29.38 in994.9 mb 0.00 in0.0 mm 0.00 in0.0 mm 0.00 in0.0 mm
07:23 PM 34.4°F1.3°C 30.9°F-0.6°C 87% 4.4 mph ENE7.1 kmh ENE 11.0 mph17.7 kmh 29.38 in994.9 mb 0.00 in0.0 mm 0.00 in0.0 mm 0.00 in0.0 mm
07:24 PM 34.4°F1.3°C 30.9°F-0.6°C 87% 7.0 mph E11.3 kmh E 11.0 mph17.7 kmh 29.38 in994.9 mb 0.00 in0.0 mm 0.00 in0.0 mm 0.00 in0.0 mm
07:25 PM 34.4°F1.3°C 30.9°F-0.6°C 87% 6.1 mph E9.8 kmh E 10.0 mph16.1 kmh 29.38 in994.9 mb 0.00 in0.0 mm 0.00 in0.0 mm 0.00 in0.0 mm
07:26 PM 34.4°F1.3°C 30.9°F-0.6°C 87% 7.6 mph E12.2 kmh E 11.0 mph17.7 kmh 29.38 in994.9 mb 0.00 in0.0 mm 0.00 in0.0 mm 0.00 in0.0 mm
07:27 PM 34.4°F1.3°C 30.9°F-0.6°C 87% 4.4 mph ENE7.1 kmh ENE 11.0 mph17.7 kmh 29.37 in994.6 mb 0.00 in0.0 mm 0.00 in0.0 mm 0.00 in0.0 mm
07:28 PM 34.4°F1.3°C 30.9°F-0.6°C 87% 4.2 mph ENE6.8 kmh ENE 7.0 mph11.3 kmh 29.38 in994.9 mb 0.00 in0.0 mm 0.00 in0.0 mm 0.00 in0.0 mm
07:29 PM 34.4°F1.3°C 30.9°F-0.6°C 87% 3.3 mph ENE5.3 kmh ENE 7.0 mph11.3 kmh 29.38 in994.9 mb 0.00 in0.0 mm 0.00 in0.0 mm 0.00 in0.0 mm
07:30 PM 34.4°F1.3°C 31.2°F-0.4°C 88% 4.2 mph ENE6.8 kmh ENE 8.0 mph12.9 kmh 29.38 in994.9 mb 0.00 in0.0 mm 0.00 in0.0 mm 0.00 in0.0 mm
07:31 PM 34.4°F1.3°C 31.2°F-0.4°C 88% 4.5 mph ENE7.2 kmh ENE 9.0 mph14.5 kmh 29.37 in994.6 mb 0.00 in0.0 mm 0.00 in0.0 mm 0.00 in0.0 mm
07:32 PM 34.4°F1.3°C 31.2°F-0.4°C 88% 4.2 mph ENE6.8 kmh ENE 10.0 mph16.1 kmh 29.37 in994.6 mb 0.00 in0.0 mm 0.00 in0.0 mm 0.00 in0.0 mm
07:33 PM 34.5°F1.4°C 31.3°F-0.4°C 88% 5.3 mph ENE8.5 kmh ENE 10.0 mph16.1 kmh 29.37 in994.6 mb 0.00 in0.0 mm 0.00 in0.0 mm 0.00 in0.0 mm
07:34 PM 34.5°F1.4°C 31.3°F-0.4°C 88% 9.5 mph E15.3 kmh E 13.0 mph20.9 kmh 29.37 in994.6 mb 0.00 in0.0 mm 0.00 in0.0 mm 0.00 in0.0 mm
07:35 PM 34.5°F1.4°C 31.3°F-0.4°C 88% 6.1 mph ENE9.8 kmh ENE 13.0 mph20.9 kmh 29.38 in994.9 mb 0.00 in0.0 mm 0.00 in0.0 mm 0.00 in0.0 mm
07:36 PM 34.5°F1.4°C 31.3°F-0.4°C 88% 6.5 mph ENE10.5 kmh ENE 12.0 mph19.3 kmh 29.38 in994.9 mb 0.00 in0.0 mm 0.00 in0.0 mm 0.00 in0.0 mm
07:37 PM 34.6°F1.4°C 31.4°F-0.3°C 88% 5.4 mph ENE8.7 kmh ENE 9.0 mph14.5 kmh 29.37 in994.6 mb 0.00 in0.0 mm 0.00 in0.0 mm 0.00 in0.0 mm
07:38 PM 34.6°F1.4°C 31.4°F-0.3°C 88% 5.4 mph ENE8.7 kmh ENE 10.0 mph16.1 kmh 29.37 in994.6 mb 0.00 in0.0 mm 0.00 in0.0 mm 0.00 in0.0 mm
07:39 PM 34.5°F1.4°C 31.3°F-0.4°C 88% 3.1 mph ENE5.0 kmh ENE 10.0 mph16.1 kmh 29.38 in994.9 mb 0.00 in